Time,TemperatureF,DewpointF,PressureIn,WindDirection,WindDirectionDegrees,WindSpeedMPH,WindSpeedGustMPH,Humidity,HourlyPrecipIn,Conditions,Clouds,dailyrainin,SolarRadiationWatts/m^2,SoftwareType,DateUTC
2013-12-29 00:00:00,54.8,10.9,29.62,NW,305,14.8,17.9,17,-99.99,,,0.00,0,rob ver 1B,2013-12-29 07:00:00,
2013-12-29 00:01:00,54.8,11.1,29.62,NW,305,13.3,15.6,17,-99.99,,,0.00,0,rob ver 1B,2013-12-29 07:01:00,
2013-12-29 00:02:00,54.7,11.0,29.62,NW,306,14.2,17.4,17,-99.99,,,0.00,0,rob ver 1B,2013-12-29 07:02:00,
2013-12-29 00:03:00,54.8,11.0,29.62,NW,306,13.7,16.0,17,-99.99,,,0.00,0,rob ver 1B,2013-12-29 07:03:00,
2013-12-29 00:04:00,54.8,11.0,29.62,NW,304,12.9,16.3,17,-99.99,,,0.00,0,rob ver 1B,2013-12-29 07:04:00,
2013-12-29 00:05:00,54.7,11.0,29.62,NW,304,12.8,15.5,17,-99.99,,,0.00,0,rob ver 1B,2013-12-29 07:05:00,
2013-12-29 00:06:00,54.6,11.1,29.62,NW,304,11.5,14.2,17,-99.99,,,0.00,0,rob ver 1B,2013-12-29 07:06:00,
2013-12-29 00:07:00,54.6,11.1,29.62,WNW,303,12.3,15.4,17,-99.99,,,0.00,0,rob ver 1B,2013-12-29 07:07:00,
2013-12-29 00:08:00,54.6,11.1,29.62,WNW,302,11.2,13.0,17,-99.99,,,0.00,0,rob ver 1B,2013-12-29 07:08:00,
2013-12-29 00:09:00,54.5,11.2,29.62,WNW,302,10.8,13.5,17,-99.99,,,0.00,0,rob ver 1B,2013-12-29 07:09:00,
2013-12-29 00:10:00,54.4,11.3,29.62,WNW,302,10.2,12.4,17,-99.99,,,0.00,0,rob ver 1B,2013-12-29 07:10:00,
2013-12-29 00:11:00,54.3,11.3,29.62,WNW,299,10.8,12.5,17,-99.99,,,0.00,0,rob ver 1B,2013-12-29 07:11:00,
2013-12-29 00:12:00,54.1,11.4,29.62,WNW,296,9.9,11.6,18,-99.99,,,0.00,0,rob ver 1B,2013-12-29 07:12:00,
2013-12-29 00:13:00,54.0,11.6,29.62,WNW,291,9.3,11.3,18,-99.99,,,0.00,0,rob ver 1B,2013-12-29 07:13:00,
2013-12-29 00:14:00,53.9,11.6,29.65,WNW,290,8.3,10.2,18,-99.99,,,0.00,0,rob ver 1B,2013-12-29 07:14:00,
2013-12-29 00:15:00,53.7,11.5,29.62,WNW,285,8.6,10.2,18,-99.99,,,0.00,0,rob ver 1B,2013-12-29 07:15:00,
2013-12-29 00:16:00,53.7,11.5,29.65,West,281,8.2,9.7,18,-99.99,,,0.00,0,rob ver 1B,2013-12-29 07:16:00,
2013-12-29 00:17:00,53.7,12.0,29.65,WSW,254,5.8,9.3,19,-99.99,,,0.00,0,rob ver 1B,2013-12-29 07:17:00,
2013-12-29 00:18:00,53.2,13.0,29.65,WSW,238,3.7,4.3,20,-99.99,,,0.00,0,rob ver 1B,2013-12-29 07:18:00,
2013-12-29 00:19:00,52.5,13.2,29.65,WSW,242,3.4,4.1,20,-99.99,,,0.00,0,rob ver 1B,2013-12-29 07:19:00,
2013-12-29 00:20:00,51.9,13.1,29.65,WSW,252,3.3,4.0,21,-99.99,,,0.00,0,rob ver 1B,2013-12-29 07:20:00,
2013-12-29 00:21:00,51.6,13.1,29.65,WSW,247,3.2,4.2,21,-99.99,,,0.00,0,rob ver 1B,2013-12-29 07:21:00,
2013-12-29 00:22:00,51.3,12.9,29.65,SW,230,4.8,7.1,21,-99.99,,,0.00,0,rob ver 1B,2013-12-29 07:22:00,
2013-12-29 00:23:00,51.3,12.3,29.65,WSW,248,5.7,8.7,20,-99.99,,,0.00,0,rob ver 1B,2013-12-29 07:23:00,
2013-12-29 00:24:00,51.7,11.8,29.65,WSW,252,8.5,12.0,19,-99.99,,,0.00,0,rob ver 1B,2013-12-29 07:24:00,
2013-12-29 00:25:00,52.5,11.5,29.65,West,263,6.0,8.9,19,-99.99,,,0.00,0,rob ver 1B,2013-12-29 07:25:00,
2013-12-29 00:26:00,52.8,11.9,29.65,WSW,258,8.5,11.5,18,-99.99,,,0.00,0,rob ver 1B,2013-12-29 07:26:00,
2013-12-29 00:27:00,53.0,12.3,29.65,WSW,255,6.0,10.1,20,-99.99,,,0.00,0,rob ver 1B,2013-12-29 07:27:00,
2013-12-29 00:28:00,52.6,13.1,29.65,WSW,241,4.8,6.0,20,-99.99,,,0.00,0,rob ver 1B,2013-12-29 07:28:00,
2013-12-29 00:29:00,52.0,13.5,29.65,WSW,251,3.5,4.2,21,-99.99,,,0.00,0,rob ver 1B,2013-12-29 07:29:00,
2013-12-29 00:30:00,51.4,13.6,29.65,WSW,251,3.1,4.7,22,-99.99,,,0.00,0,rob ver 1B,2013-12-29 07:30:00,
2013-12-29 00:31:00,50.9,13.8,29.65,West,264,3.5,4.2,22,-99.99,,,0.00,0,rob ver 1B,2013-12-29 07:31:00,
2013-12-29 00:32:00,50.5,13.7,29.65,West,260,4.1,5.2,22,-99.99,,,0.00,0,rob ver 1B,2013-12-29 07:32:00,
2013-12-29 00:33:00,50.2,13.4,29.65,West,260,4.6,5.5,22,-99.99,,,0.00,0,rob ver 1B,2013-12-29 07:33:00,
2013-12-29 00:34:00,50.2,13.5,29.65,West,278,4.9,6.2,22,-99.99,,,0.00,0,rob ver 1B,2013-12-29 07:34:00,
2013-12-29 00:35:00,50.1,13.3,29.65,WNW,284,5.7,7.3,22,-99.99,,,0.00,0,rob ver 1B,2013-12-29 07:35:00,
2013-12-29 00:36:00,50.2,13.4,29.65,WNW,289,5.6,6.8,22,-99.99,,,0.00,0,rob ver 1B,2013-12-29 07:36:00,
2013-12-29 00:37:00,50.2,13.2,29.65,WNW,289,6.4,8.5,21,-99.99,,,0.00,0,rob ver 1B,2013-12-29 07:37:00,
2013-12-29 00:38:00,50.4,12.8,29.65,WNW,300,7.2,8.4,21,-99.99,,,0.00,0,rob ver 1B,2013-12-29 07:38:00,
2013-12-29 00:39:00,50.6,12.9,29.65,NW,304,7.0,8.0,21,-99.99,,,0.00,0,rob ver 1B,2013-12-29 07:39:00,
2013-12-29 00:40:00,50.7,12.7,29.65,WNW,302,7.6,8.4,21,-99.99,,,0.00,0,rob ver 1B,2013-12-29 07:40:00,
2013-12-29 00:41:00,50.9,12.6,29.65,WNW,302,8.3,9.2,21,-99.99,,,0.00,0,rob ver 1B,2013-12-29 07:41:00,
2013-12-29 00:42:00,51.1,12.6,29.62,NW,304,8.0,10.0,21,-99.99,,,0.00,0,rob ver 1B,2013-12-29 07:42:00,
2013-12-29 00:43:00,51.2,12.5,29.62,WNW,303,7.8,8.5,20,-99.99,,,0.00,0,rob ver 1B,2013-12-29 07:43:00,
2013-12-29 00:44:00,51.3,12.5,29.65,WNW,301,7.7,9.3,20,-99.99,,,0.00,0,rob ver 1B,2013-12-29 07:44:00,
2013-12-29 00:45:00,51.3,12.5,29.62,WNW,299,7.7,9.4,20,-99.99,,,0.00,0,rob ver 1B,2013-12-29 07:45:00,
2013-12-29 00:46:00,51.3,12.5,29.62,WNW,295,7.6,8.8,20,-99.99,,,0.00,0,rob ver 1B,2013-12-29 07:46:00,
2013-12-29 00:47:00,51.3,12.5,29.62,WNW,292,7.9,9.0,20,-99.99,,,0.00,0,rob ver 1B,2013-12-29 07:47:00,
2013-12-29 00:48:00,51.3,12.4,29.62,WNW,293,8.4,10.0,20,-99.99,,,0.00,0,rob ver 1B,2013-12-29 07:48:00,
2013-12-29 00:49:00,51.4,12.2,29.62,WNW,290,9.0,10.6,20,-99.99,,,0.00,0,rob ver 1B,2013-12-29 07:49:00,
2013-12-29 00:50:00,51.5,12.4,29.62,West,278,8.3,9.6,20,-99.99,,,0.00,0,rob ver 1B,2013-12-29 07:50:00,
2013-12-29 00:51:00,51.3,12.8,29.65,West,262,7.3,8.6,21,-99.99,,,0.00,0,rob ver 1B,2013-12-29 07:51:00,
2013-12-29 00:52:00,50.8,13.3,29.65,West,267,8.4,9.8,22,-99.99,,,0.00,0,rob ver 1B,2013-12-29 07:52:00,
2013-12-29 00:53:00,50.6,13.0,29.62,West,280,8.7,10.2,21,-99.99,,,0.00,0,rob ver 1B,2013-12-29 07:53:00,
2013-12-29 00:54:00,50.6,13.0,29.65,WNW,292,8.1,9.1,21,-99.99,,,0.00,0,rob ver 1B,2013-12-29 07:54:00,
2013-12-29 00:55:00,50.6,12.9,29.65,WNW,297,8.1,10.1,21,-99.99,,,0.00,0,rob ver 1B,2013-12-29 07:55:00,
2013-12-29 00:56:00,50.6,13.0,29.65,WNW,301,8.0,9.0,21,-99.99,,,0.00,0,rob ver 1B,2013-12-29 07:56:00,
2013-12-29 00:57:00,50.5,13.0,29.65,WNW,302,8.4,9.5,21,-99.99,,,0.00,0,rob ver 1B,2013-12-29 07:57:00,
2013-12-29 00:58:00,50.5,12.8,29.65,NW,305,9.1,10.2,21,-99.99,,,0.00,0,rob ver 1B,2013-12-29 07:58:00,
2013-12-29 00:59:00,50.6,12.6,29.65,NW,305,9.7,11.0,21,-99.99,,,0.00,0,rob ver 1B,2013-12-29 07:59:00,
2013-12-29 01:00:00,50.8,12.4,29.65,NW,305,9.5,10.8,21,-99.99,,,0.00,0,rob ver 1B,2013-12-29 08:00:00,
2013-12-29 01:01:00,50.9,12.4,29.65,NW,308,9.3,10.5,21,-99.99,,,0.00,0,rob ver 1B,2013-12-29 08:01:00,
2013-12-29 01:02:00,51.0,12.6,29.65,NW,309,8.6,10.3,21,-99.99,,,0.00,0,rob ver 1B,2013-12-29 08:02:00,
2013-12-29 01:03:00,50.9,12.5,29.65,NW,307,9.2,11.2,20,-99.99,,,0.00,0,rob ver 1B,2013-12-29 08:03:00,
2013-12-29 01:04:00,51.0,12.3,29.65,NW,308,10.2,12.5,20,-99.99,,,0.00,0,rob ver 1B,2013-12-29 08:04:00,
2013-12-29 01:05:00,51.1,12.3,29.65,NW,307,10.0,11.2,20,-99.99,,,0.00,0,rob ver 1B,2013-12-29 08:05:00,
2013-12-29 01:06:00,51.2,12.2,29.65,NW,305,10.2,11.4,20,-99.99,,,0.00,0,rob ver 1B,2013-12-29 08:06:00,
2013-12-29 01:07:00,51.3,12.0,29.62,WNW,303,10.7,12.3,20,-99.99,,,0.00,0,rob ver 1B,2013-12-29 08:07:00,
2013-12-29 01:08:00,51.5,11.9,29.65,NW,305,10.8,12.0,20,-99.99,,,0.00,0,rob ver 1B,2013-12-29 08:08:00,
2013-12-29 01:09:00,51.6,11.9,29.65,NW,305,10.4,11.9,20,-99.99,,,0.00,0,rob ver 1B,2013-12-29 08:09:00,
2013-12-29 01:10:00,51.7,11.9,29.62,WNW,303,10.1,11.5,20,-99.99,,,0.00,0,rob ver 1B,2013-12-29 08:10:00,
2013-12-29 01:11:00,51.7,12.0,29.65,WNW,300,9.7,11.5,20,-99.99,,,0.00,0,rob ver 1B,2013-12-29 08:11:00,
2013-12-29 01:12:00,51.6,12.0,29.65,WNW,300,9.6,11.2,20,-99.99,,,0.00,0,rob ver 1B,2013-12-29 08:12:00,
2013-12-29 01:13:00,51.6,12.0,29.65,WNW,300,9.5,10.9,20,-99.99,,,0.00,0,rob ver 1B,2013-12-29 08:13:00,
2013-12-29 01:14:00,51.5,12.1,29.65,WNW,298,9.2,10.7,20,-99.99,,,0.00,0,rob ver 1B,2013-12-29 08:14:00,
2013-12-29 01:15:00,51.4,12.1,29.65,WNW,299,9.0,10.8,20,-99.99,,,0.00,0,rob ver 1B,2013-12-29 08:15:00,
2013-12-29 01:16:00,51.3,12.1,29.65,WNW,298,8.8,10.2,20,-99.99,,,0.00,0,rob ver 1B,2013-12-29 08:16:00,
2013-12-29 01:17:00,51.3,12.1,29.65,WNW,294,8.1,9.0,20,-99.99,,,0.00,0,rob ver 1B,2013-12-29 08:17:00,
2013-12-29 01:18:00,51.3,12.1,29.65,WNW,297,7.8,9.4,20,-99.99,,,0.00,0,rob ver 1B,2013-12-29 08:18:00,
2013-12-29 01:19:00,51.2,12.0,29.65,WNW,300,8.0,9.3,20,-99.99,,,0.00,0,rob ver 1B,2013-12-29 08:19:00,
2013-12-29 01:20:00,51.2,12.0,29.65,WNW,302,8.4,9.8,20,-99.99,,,0.00,0,rob ver 1B,2013-12-29 08:20:00,
2013-12-29 01:21:00,51.2,12.0,29.65,WNW,303,9.0,10.9,20,-99.99,,,0.00,0,rob ver 1B,2013-12-29 08:21:00,
2013-12-29 01:22:00,51.2,11.9,29.65,NW,305,9.1,10.5,20,-99.99,,,0.00,0,rob ver 1B,2013-12-29 08:22:00,
2013-12-29 01:23:00,51.3,11.7,29.65,NW,308,9.0,11.4,20,-99.99,,,0.00,0,rob ver 1B,2013-12-29 08:23:00,
2013-12-29 01:24:00,51.3,11.9,29.65,NW,313,8.2,9.1,20,-99.99,,,0.00,0,rob ver 1B,2013-12-29 08:24:00,
2013-12-29 01:25:00,51.2,12.1,29.65,NW,316,8.0,9.1,20,-99.99,,,0.00,0,rob ver 1B,2013-12-29 08:25:00,
2013-12-29 01:26:00,51.1,12.1,29.65,NW,316,8.1,9.5,20,-99.99,,,0.00,0,rob ver 1B,2013-12-29 08:26:00,
2013-12-29 01:27:00,51.1,12.1,29.65,NW,316,8.2,9.9,20,-99.99,,,0.00,0,rob ver 1B,2013-12-29 08:27:00,
2013-12-29 01:28:00,51.1,12.0,29.65,NW,316,8.5,9.6,20,-99.99,,,0.00,0,rob ver 1B,2013-12-29 08:28:00,
2013-12-29 01:29:00,51.2,12.0,29.65,NW,316,8.5,10.0,20,-99.99,,,0.00,0,rob ver 1B,2013-12-29 08:29:00,
2013-12-29 01:30:00,51.2,11.8,29.65,NW,315,9.1,10.3,20,-99.99,,,0.00,0,rob ver 1B,2013-12-29 08:30:00,
2013-12-29 01:31:00,51.4,11.6,29.65,NW,312,8.9,10.0,19,-99.99,,,0.00,0,rob ver 1B,2013-12-29 08:31:00,
2013-12-29 01:32:00,51.6,11.7,29.65,NW,309,8.8,10.8,19,-99.99,,,0.00,0,rob ver 1B,2013-12-29 08:32:00,
2013-12-29 01:33:00,51.6,11.7,29.65,NW,309,8.8,9.9,19,-99.99,,,0.00,0,rob ver 1B,2013-12-29 08:33:00,
2013-12-29 01:34:00,51.5,11.8,29.65,NW,309,9.4,10.6,19,-99.99,,,0.00,0,rob ver 1B,2013-12-29 08:34:00,
2013-12-29 01:35:00,51.5,11.6,29.65,NW,305,9.3,10.8,19,-99.99,,,0.00,0,rob ver 1B,2013-12-29 08:35:00,
2013-12-29 01:36:00,51.6,11.5,29.65,WNW,303,8.8,11.1,19,-99.99,,,0.00,0,rob ver 1B,2013-12-29 08:36:00,
2013-12-29 01:37:00,51.6,11.6,29.65,WNW,301,9.0,10.5,19,-99.99,,,0.00,0,rob ver 1B,2013-12-29 08:37:00,
2013-12-29 01:38:00,51.6,11.7,29.65,WNW,301,9.4,11.9,20,-99.99,,,0.00,0,rob ver 1B,2013-12-29 08:38:00,
2013-12-29 01:39:00,51.5,11.6,29.65,WNW,302,10.1,11.6,19,-99.99,,,0.00,0,rob ver 1B,2013-12-29 08:39:00,
2013-12-29 01:40:00,51.5,11.6,29.65,NW,305,9.7,11.7,19,-99.99,,,0.00,0,rob ver 1B,2013-12-29 08:40:00,
2013-12-29 01:41:00,51.6,11.5,29.65,NW,306,9.2,10.8,19,-99.99,,,0.00,0,rob ver 1B,2013-12-29 08:41:00,
2013-12-29 01:42:00,51.7,11.6,29.65,NW,307,9.5,11.6,19,-99.99,,,0.00,0,rob ver 1B,2013-12-29 08:42:00,
2013-12-29 01:43:00,51.6,11.7,29.65,NW,308,8.8,10.1,20,-99.99,,,0.00,0,rob ver 1B,2013-12-29 08:43:00,
2013-12-29 01:44:00,51.5,11.8,29.65,NW,310,9.0,10.4,19,-99.99,,,0.00,0,rob ver 1B,2013-12-29 08:44:00,
2013-12-29 01:45:00,51.4,11.9,29.65,NW,309,8.3,9.4,20,-99.99,,,0.00,0,rob ver 1B,2013-12-29 08:45:00,
2013-12-29 01:46:00,51.3,11.9,29.65,NW,310,9.1,10.6,20,-99.99,,,0.00,0,rob ver 1B,2013-12-29 08:46:00,
2013-12-29 01:47:00,51.2,12.0,29.65,NW,309,8.6,10.3,20,-99.99,,,0.00,0,rob ver 1B,2013-12-29 08:47:00,
2013-12-29 01:48:00,51.2,12.1,29.65,NW,310,8.7,9.8,20,-99.99,,,0.00,0,rob ver 1B,2013-12-29 08:48:00,
2013-12-29 01:49:00,51.0,12.2,29.65,NW,311,8.5,9.8,20,-99.99,,,0.00,0,rob ver 1B,2013-12-29 08:49:00,
2013-12-29 01:50:00,50.9,12.3,29.65,NW,312,8.5,9.9,20,-99.99,,,0.00,0,rob ver 1B,2013-12-29 08:50:00,
2013-12-29 01:51:00,50.9,12.2,29.65,NW,311,9.0,11.0,20,-99.99,,,0.00,0,rob ver 1B,2013-12-29 08:51:00,
2013-12-29 01:52:00,50.9,12.3,29.65,NW,313,9.0,10.4,20,-99.99,,,0.00,0,rob ver 1B,2013-12-29 08:52:00,
2013-12-29 01:53:00,50.9,12.4,29.65,NW,313,8.5,10.2,21,-99.99,,,0.00,0,rob ver 1B,2013-12-29 08:53:00,
2013-12-29 01:54:00,50.8,12.4,29.65,NW,317,8.3,10.2,21,-99.99,,,0.00,0,rob ver 1B,2013-12-29 08:54:00,
2013-12-29 01:55:00,50.8,12.3,29.65,NW,318,8.5,10.2,20,-99.99,,,0.00,0,rob ver 1B,2013-12-29 08:55:00,
2013-12-29 01:56:00,50.9,12.2,29.65,NW,318,8.4,10.1,20,-99.99,,,0.00,0,rob ver 1B,2013-12-29 08:56:00,
2013-12-29 01:57:00,51.0,12.2,29.65,NW,318,8.4,9.9,20,-99.99,,,0.00,0,rob ver 1B,2013-12-29 08:57:00,
2013-12-29 01:58:00,51.1,12.1,29.65,NW,317,9.1,10.9,20,-99.99,,,0.00,0,rob ver 1B,2013-12-29 08:58:00,
2013-12-29 01:59:00,51.2,12.1,29.65,NW,314,8.8,10.2,20,-99.99,,,0.00,0,rob ver 1B,2013-12-29 08:59:00,
2013-12-29 02:00:00,51.3,12.0,29.65,NW,312,9.2,10.6,20,-99.99,,,0.00,0,rob ver 1B,2013-12-29 09:00:00,
2013-12-29 02:01:00,51.4,12.0,29.65,NW,313,8.9,10.6,20,-99.99,,,0.00,0,rob ver 1B,2013-12-29 09:01:00,
2013-12-29 02:02:00,51.4,12.0,29.65,NW,312,8.6,10.8,20,-99.99,,,0.00,0,rob ver 1B,2013-12-29 09:02:00,
2013-12-29 02:03:00,51.4,11.8,29.65,NW,311,9.2,10.9,19,-99.99,,,0.00,0,rob ver 1B,2013-12-29 09:03:00,
2013-12-29 02:04:00,51.5,11.8,29.65,NW,307,8.8,10.8,20,-99.99,,,0.00,0,rob ver 1B,2013-12-29 09:04:00,
2013-12-29 02:05:00,51.5,11.8,29.65,NW,308,9.2,10.4,20,-99.99,,,0.00,0,rob ver 1B,2013-12-29 09:05:00,
2013-12-29 02:06:00,51.5,11.7,29.65,NW,309,9.4,11.2,20,-99.99,,,0.00,0,rob ver 1B,2013-12-29 09:06:00,
2013-12-29 02:07:00,51.5,11.7,29.65,NW,311,9.8,12.4,19,-99.99,,,0.00,0,rob ver 1B,2013-12-29 09:07:00,
2013-12-29 02:08:00,51.5,11.7,29.65,NW,313,10.0,12.0,19,-99.99,,,0.00,0,rob ver 1B,2013-12-29 09:08:00,
2013-12-29 02:09:00,51.6,11.5,29.65,NW,312,10.3,11.9,19,-99.99,,,0.00,0,rob ver 1B,2013-12-29 09:09:00,
2013-12-29 02:10:00,51.8,11.4,29.65,NW,313,10.8,13.1,19,-99.99,,,0.00,0,rob ver 1B,2013-12-29 09:10:00,
2013-12-29 02:11:00,51.9,11.4,29.65,NW,313,10.6,12.6,19,-99.99,,,0.00,0,rob ver 1B,2013-12-29 09:11:00,
2013-12-29 02:12:00,52.0,11.4,29.65,NW,311,10.7,11.7,19,-99.99,,,0.00,0,rob ver 1B,2013-12-29 09:12:00,
2013-12-29 02:13:00,52.0,11.4,29.65,NW,310,10.3,11.5,19,-99.99,,,0.00,0,rob ver 1B,2013-12-29 09:13:00,
2013-12-29 02:14:00,52.1,11.4,29.65,NW,310,10.1,11.4,19,-99.99,,,0.00,0,rob ver 1B,2013-12-29 09:14:00,
2013-12-29 02:15:00,52.1,11.4,29.65,NW,308,9.8,11.4,19,-99.99,,,0.00,0,rob ver 1B,2013-12-29 09:15:00,
2013-12-29 02:16:00,52.0,11.4,29.65,NW,308,10.0,12.3,19,-99.99,,,0.00,0,rob ver 1B,2013-12-29 09:16:00,
2013-12-29 02:17:00,52.0,11.4,29.65,NW,308,10.0,12.2,19,-99.99,,,0.00,0,rob ver 1B,2013-12-29 09:17:00,
2013-12-29 02:18:00,52.0,11.4,29.65,NW,307,9.8,11.4,19,-99.99,,,0.00,0,rob ver 1B,2013-12-29 09:18:00,
2013-12-29 02:19:00,52.0,11.4,29.65,NW,307,10.0,11.8,19,-99.99,,,0.00,0,rob ver 1B,2013-12-29 09:19:00,
2013-12-29 02:20:00,52.0,11.4,29.65,NW,309,10.1,12.4,19,-99.99,,,0.00,0,rob ver 1B,2013-12-29 09:20:00,
2013-12-29 02:21:00,52.1,11.3,29.65,NW,307,10.9,12.3,19,-99.99,,,0.00,0,rob ver 1B,2013-12-29 09:21:00,
2013-12-29 02:22:00,52.3,11.2,29.65,NW,308,10.8,12.6,19,-99.99,,,0.00,0,rob ver 1B,2013-12-29 09:22:00,
2013-12-29 02:23:00,52.3,11.3,29.65,NW,308,9.9,11.5,19,-99.99,,,0.00,0,rob ver 1B,2013-12-29 09:23:00,
2013-12-29 02:24:00,52.3,11.3,29.65,NW,309,10.9,12.6,18,-99.99,,,0.00,0,rob ver 1B,2013-12-29 09:24:00,
2013-12-29 02:25:00,52.3,11.3,29.65,NW,309,10.9,13.1,18,-99.99,,,0.00,0,rob ver 1B,2013-12-29 09:25:00,
2013-12-29 02:26:00,52.4,11.2,29.65,NW,309,11.0,12.6,18,-99.99,,,0.00,0,rob ver 1B,2013-12-29 09:26:00,
2013-12-29 02:27:00,52.5,11.2,29.65,NW,308,11.0,12.6,18,-99.99,,,0.00,0,rob ver 1B,2013-12-29 09:27:00,
2013-12-29 02:28:00,52.6,11.2,29.65,NW,309,10.2,12.3,18,-99.99,,,0.00,0,rob ver 1B,2013-12-29 09:28:00,
2013-12-29 02:29:00,52.5,11.2,29.65,NW,307,10.0,11.7,18,-99.99,,,0.00,0,rob ver 1B,2013-12-29 09:29:00,
2013-12-29 02:30:00,52.5,11.3,29.65,NW,309,9.9,11.2,18,-99.99,,,0.00,0,rob ver 1B,2013-12-29 09:30:00,
2013-12-29 02:31:00,52.4,11.3,29.65,NW,309,9.9,11.7,18,-99.99,,,0.00,0,rob ver 1B,2013-12-29 09:31:00,
2013-12-29 02:32:00,52.4,11.3,29.65,NW,311,9.9,12.1,18,-99.99,,,0.00,0,rob ver 1B,2013-12-29 09:32:00,
2013-12-29 02:33:00,52.4,11.2,29.65,NW,309,9.9,12.0,19,-99.99,,,0.00,0,rob ver 1B,2013-12-29 09:33:00,
2013-12-29 02:34:00,52.4,11.2,29.65,NW,310,9.7,13.3,18,-99.99,,,0.00,0,rob ver 1B,2013-12-29 09:34:00,
2013-12-29 02:35:00,52.4,11.2,29.65,NW,308,10.3,13.6,18,-99.99,,,0.00,0,rob ver 1B,2013-12-29 09:35:00,
2013-12-29 02:36:00,52.4,11.2,29.65,NW,310,9.8,11.9,19,-99.99,,,0.00,0,rob ver 1B,2013-12-29 09:36:00,
2013-12-29 02:37:00,52.4,11.1,29.65,NW,310,10.7,11.9,18,-99.99,,,0.00,0,rob ver 1B,2013-12-29 09:37:00,
2013-12-29 02:38:00,52.4,11.0,29.65,NW,310,10.4,12.5,18,-99.99,,,0.00,0,rob ver 1B,2013-12-29 09:38:00,
2013-12-29 02:39:00,52.5,11.1,29.65,NW,310,10.7,14.0,18,-99.99,,,0.00,0,rob ver 1B,2013-12-29 09:39:00,
2013-12-29 02:40:00,52.5,11.0,29.65,NW,311,10.8,13.0,18,-99.99,,,0.00,0,rob ver 1B,2013-12-29 09:40:00,
2013-12-29 02:41:00,52.6,11.0,29.65,NW,309,10.9,12.9,18,-99.99,,,0.00,0,rob ver 1B,2013-12-29 09:41:00,
2013-12-29 02:42:00,52.6,10.9,29.65,NW,308,11.9,13.5,18,-99.99,,,0.00,0,rob ver 1B,2013-12-29 09:42:00,
2013-12-29 02:43:00,52.7,10.9,29.65,NW,306,11.9,13.6,18,-99.99,,,0.00,0,rob ver 1B,2013-12-29 09:43:00,
2013-12-29 02:44:00,52.8,10.8,29.65,NW,308,12.4,16.1,18,-99.99,,,0.00,0,rob ver 1B,2013-12-29 09:44:00,
2013-12-29 02:45:00,52.9,10.8,29.65,NW,306,13.0,16.1,18,-99.99,,,0.00,0,rob ver 1B,2013-12-29 09:45:00,
2013-12-29 02:46:00,53.0,10.7,29.65,NW,305,14.1,16.8,18,-99.99,,,0.00,0,rob ver 1B,2013-12-29 09:46:00,
2013-12-29 02:47:00,53.2,10.7,29.65,WNW,303,14.5,18.9,17,-99.99,,,0.00,0,rob ver 1B,2013-12-29 09:47:00,
2013-12-29 02:48:00,53.2,10.7,29.65,WNW,303,14.1,16.6,17,-99.99,,,0.00,0,rob ver 1B,2013-12-29 09:48:00,
2013-12-29 02:49:00,53.2,10.8,29.65,NW,305,13.3,15.9,17,-99.99,,,0.00,0,rob ver 1B,2013-12-29 09:49:00,
2013-12-29 02:50:00,53.2,10.8,29.65,WNW,303,13.8,16.3,18,-99.99,,,0.00,0,rob ver 1B,2013-12-29 09:50:00,
2013-12-29 02:51:00,53.1,10.9,29.65,NW,305,13.6,16.1,18,-99.99,,,0.00,0,rob ver 1B,2013-12-29 09:51:00,
2013-12-29 02:52:00,53.0,11.0,29.65,NW,304,11.8,14.0,18,-99.99,,,0.00,0,rob ver 1B,2013-12-29 09:52:00,
2013-12-29 02:53:00,52.8,11.1,29.65,WNW,303,11.4,13.9,18,-99.99,,,0.00,0,rob ver 1B,2013-12-29 09:53:00,
2013-12-29 02:54:00,52.7,11.1,29.65,NW,304,12.2,14.5,18,-99.99,,,0.00,0,rob ver 1B,2013-12-29 09:54:00,
2013-12-29 02:55:00,52.5,11.2,29.65,WNW,303,11.9,14.3,18,-99.99,,,0.00,0,rob ver 1B,2013-12-29 09:55:00,
2013-12-29 02:56:00,52.4,11.2,29.65,WNW,301,12.1,14.0,18,-99.99,,,0.00,0,rob ver 1B,2013-12-29 09:56:00,
2013-12-29 02:57:00,52.4,11.2,29.65,WNW,300,12.2,14.2,18,-99.99,,,0.00,0,rob ver 1B,2013-12-29 09:57:00,
2013-12-29 02:58:00,52.3,11.3,29.65,WNW,300,11.8,14.1,19,-99.99,,,0.00,0,rob ver 1B,2013-12-29 09:58:00,
2013-12-29 02:59:00,52.2,11.4,29.65,WNW,298,11.4,13.2,19,-99.99,,,0.00,0,rob ver 1B,2013-12-29 09:59:00,
2013-12-29 03:00:00,52.1,11.4,29.65,WNW,298,12.5,15.0,19,-99.99,,,0.00,0,rob ver 1B,2013-12-29 10:00:00,
2013-12-29 03:01:00,52.1,11.5,29.65,WNW,297,11.7,13.3,19,-99.99,,,0.00,0,rob ver 1B,2013-12-29 10:01:00,
2013-12-29 03:02:00,51.9,11.6,29.65,WNW,297,10.7,12.3,19,-99.99,,,0.00,0,rob ver 1B,2013-12-29 10:02:00,
2013-12-29 03:03:00,51.8,11.5,29.65,WNW,298,12.2,14.5,19,-99.99,,,0.00,0,rob ver 1B,2013-12-29 10:03:00,
2013-12-29 03:04:00,51.8,11.5,29.65,WNW,295,11.9,13.9,19,-99.99,,,0.00,0,rob ver 1B,2013-12-29 10:04:00,
2013-12-29 03:05:00,51.9,11.7,29.65,WNW,298,10.4,11.9,19,-99.99,,,0.00,0,rob ver 1B,2013-12-29 10:05:00,
2013-12-29 03:06:00,51.7,11.7,29.65,WNW,295,10.8,12.8,19,-99.99,,,0.00,0,rob ver 1B,2013-12-29 10:06:00,
2013-12-29 03:07:00,51.6,11.8,29.65,WNW,289,10.3,11.8,19,-99.99,,,0.00,0,rob ver 1B,2013-12-29 10:07:00,
2013-12-29 03:08:00,51.5,11.8,29.65,WNW,288,10.0,12.1,20,-99.99,,,0.00,0,rob ver 1B,2013-12-29 10:08:00,
2013-12-29 03:09:00,51.3,11.9,29.65,WNW,288,10.3,12.9,20,-99.99,,,0.00,0,rob ver 1B,2013-12-29 10:09:00,
2013-12-29 03:10:00,51.2,12.0,29.65,WNW,287,10.0,11.8,20,-99.99,,,0.00,0,rob ver 1B,2013-12-29 10:10:00,
2013-12-29 03:11:00,51.1,12.0,29.65,WNW,286,9.6,13.2,20,-99.99,,,0.00,0,rob ver 1B,2013-12-29 10:11:00,
2013-12-29 03:12:00,50.9,12.0,29.65,WNW,288,10.4,12.7,20,-99.99,,,0.00,0,rob ver 1B,2013-12-29 10:12:00,
2013-12-29 03:13:00,50.8,12.1,29.65,WNW,287,9.8,11.7,20,-99.99,,,0.00,0,rob ver 1B,2013-12-29 10:13:00,
2013-12-29 03:14:00,50.8,12.1,29.65,WNW,288,10.8,12.5,20,-99.99,,,0.00,0,rob ver 1B,2013-12-29 10:14:00,
2013-12-29 03:15:00,50.7,12.2,29.65,WNW,287,10.2,11.7,21,-99.99,,,0.00,0,rob ver 1B,2013-12-29 10:15:00,
2013-12-29 03:16:00,50.6,12.2,29.65,WNW,287,10.2,12.1,21,-99.99,,,0.00,0,rob ver 1B,2013-12-29 10:16:00,
2013-12-29 03:17:00,50.5,12.3,29.65,WNW,285,10.4,12.7,21,-99.99,,,0.00,0,rob ver 1B,2013-12-29 10:17:00,
2013-12-29 03:18:00,50.4,12.3,29.65,WNW,285,10.8,12.8,21,-99.99,,,0.00,0,rob ver 1B,2013-12-29 10:18:00,
2013-12-29 03:19:00,50.3,12.3,29.65,West,281,10.6,12.7,21,-99.99,,,0.00,0,rob ver 1B,2013-12-29 10:19:00,
2013-12-29 03:20:00,50.2,12.4,29.65,WNW,284,9.9,13.2,21,-99.99,,,0.00,0,rob ver 1B,2013-12-29 10:20:00,
2013-12-29 03:21:00,50.1,12.4,29.65,WNW,285,10.5,12.8,21,-99.99,,,0.00,0,rob ver 1B,2013-12-29 10:21:00,
2013-12-29 03:22:00,50.1,12.4,29.65,WNW,291,10.1,12.2,21,-99.99,,,0.00,0,rob ver 1B,2013-12-29 10:22:00,
2013-12-29 03:23:00,50.1,12.5,29.65,WNW,293,9.5,11.2,21,-99.99,,,0.00,0,rob ver 1B,2013-12-29 10:23:00,
2013-12-29 03:24:00,50.0,12.6,29.65,WNW,292,8.9,10.0,22,-99.99,,,0.00,0,rob ver 1B,2013-12-29 10:24:00,
2013-12-29 03:25:00,49.9,12.6,29.65,WNW,289,8.5,9.8,22,-99.99,,,0.00,0,rob ver 1B,2013-12-29 10:25:00,
2013-12-29 03:26:00,49.7,12.7,29.65,WNW,288,8.3,9.4,22,-99.99,,,0.00,0,rob ver 1B,2013-12-29 10:26:00,
2013-12-29 03:27:00,49.6,12.7,29.65,WNW,286,8.8,11.6,22,-99.99,,,0.00,0,rob ver 1B,2013-12-29 10:27:00,
2013-12-29 03:28:00,49.6,12.7,29.65,WNW,287,9.4,11.8,22,-99.99,,,0.00,0,rob ver 1B,2013-12-29 10:28:00,
2013-12-29 03:29:00,49.6,12.7,29.65,WNW,286,9.3,10.8,22,-99.99,,,0.00,0,rob ver 1B,2013-12-29 10:29:00,
2013-12-29 03:30:00,49.5,12.7,29.65,WNW,289,9.6,11.4,22,-99.99,,,0.00,0,rob ver 1B,2013-12-29 10:30:00,
2013-12-29 03:31:00,49.5,12.8,29.65,WNW,291,10.0,11.7,22,-99.99,,,0.00,0,rob ver 1B,2013-12-29 10:31:00,
2013-12-29 03:32:00,49.5,12.8,29.65,WNW,291,10.2,11.8,22,-99.99,,,0.00,0,rob ver 1B,2013-12-29 10:32:00,
2013-12-29 03:33:00,49.7,12.8,29.65,WNW,294,10.0,11.5,22,-99.99,,,0.00,0,rob ver 1B,2013-12-29 10:33:00,
2013-12-29 03:34:00,49.8,12.8,29.65,WNW,296,10.3,12.9,22,-99.99,,,0.00,0,rob ver 1B,2013-12-29 10:34:00,
2013-12-29 03:35:00,50.0,12.7,29.65,WNW,299,10.4,11.6,21,-99.99,,,0.00,0,rob ver 1B,2013-12-29 10:35:00,
2013-12-29 03:36:00,50.1,12.8,29.65,WNW,302,10.1,12.6,21,-99.99,,,0.00,0,rob ver 1B,2013-12-29 10:36:00,
2013-12-29 03:37:00,50.2,12.7,29.65,WNW,301,11.2,14.2,21,-99.99,,,0.00,0,rob ver 1B,2013-12-29 10:37:00,
2013-12-29 03:38:00,50.5,12.6,29.65,WNW,301,11.4,12.8,21,-99.99,,,0.00,0,rob ver 1B,2013-12-29 10:38:00,
2013-12-29 03:39:00,50.8,12.5,29.65,WNW,301,10.8,12.9,21,-99.99,,,0.00,0,rob ver 1B,2013-12-29 10:39:00,
2013-12-29 03:40:00,51.0,12.6,29.65,WNW,303,10.6,13.3,21,-99.99,,,0.00,0,rob ver 1B,2013-12-29 10:40:00,
2013-12-29 03:41:00,51.2,12.6,29.65,WNW,303,10.6,13.1,20,-99.99,,,0.00,0,rob ver 1B,2013-12-29 10:41:00,
2013-12-29 03:42:00,51.2,12.6,29.65,WNW,303,10.6,12.3,20,-99.99,,,0.00,0,rob ver 1B,2013-12-29 10:42:00,
2013-12-29 03:43:00,51.3,12.4,29.65,WNW,303,11.7,13.9,20,-99.99,,,0.00,0,rob ver 1B,2013-12-29 10:43:00,
2013-12-29 03:44:00,51.5,12.5,29.65,NW,305,11.6,13.8,20,-99.99,,,0.00,0,rob ver 1B,2013-12-29 10:44:00,
2013-12-29 03:45:00,51.6,12.5,29.65,WNW,302,11.7,13.2,20,-99.99,,,0.00,0,rob ver 1B,2013-12-29 10:45:00,
2013-12-29 03:46:00,51.7,12.5,29.65,WNW,302,10.4,12.0,20,-99.99,,,0.00,0,rob ver 1B,2013-12-29 10:46:00,
2013-12-29 03:47:00,51.7,12.6,29.65,WNW,299,10.6,12.7,20,-99.99,,,0.00,0,rob ver 1B,2013-12-29 10:47:00,
2013-12-29 03:48:00,51.7,12.7,29.65,WNW,299,10.1,13.0,20,-99.99,,,0.00,0,rob ver 1B,2013-12-29 10:48:00,
2013-12-29 03:49:00,51.5,12.8,29.65,WNW,296,10.2,12.1,21,-99.99,,,0.00,0,rob ver 1B,2013-12-29 10:49:00,
2013-12-29 03:50:00,51.3,12.9,29.65,WNW,292,9.1,11.1,21,-99.99,,,0.00,0,rob ver 1B,2013-12-29 10:50:00,
2013-12-29 03:51:00,51.2,12.9,29.65,WNW,290,8.7,10.6,21,-99.99,,,0.00,0,rob ver 1B,2013-12-29 10:51:00,
2013-12-29 03:52:00,51.1,12.9,29.65,WNW,298,9.6,12.3,21,-99.99,,,0.00,0,rob ver 1B,2013-12-29 10:52:00,
2013-12-29 03:53:00,51.2,12.9,29.65,WNW,303,9.6,11.9,21,-99.99,,,0.00,0,rob ver 1B,2013-12-29 10:53:00,
2013-12-29 03:54:00,51.2,12.8,29.65,WNW,303,10.7,12.8,20,-99.99,,,0.00,0,rob ver 1B,2013-12-29 10:54:00,
2013-12-29 03:55:00,51.3,12.7,29.65,NW,307,10.7,12.6,20,-99.99,,,0.00,0,rob ver 1B,2013-12-29 10:55:00,
2013-12-29 03:56:00,51.4,12.8,29.65,NW,310,9.9,12.9,20,-99.99,,,0.00,0,rob ver 1B,2013-12-29 10:56:00,
2013-12-29 03:57:00,51.3,12.9,29.65,NW,313,9.5,11.8,21,-99.99,,,0.00,0,rob ver 1B,2013-12-29 10:57:00,
2013-12-29 03:58:00,51.3,12.9,29.65,NW,312,10.4,11.8,21,-99.99,,,0.00,0,rob ver 1B,2013-12-29 10:58:00,
2013-12-29 03:59:00,51.3,13.0,29.65,NW,311,10.3,11.7,21,-99.99,,,0.00,0,rob ver 1B,2013-12-29 10:59:00,
2013-12-29 04:00:00,51.2,13.1,29.65,NW,309,10.5,12.1,21,-99.99,,,0.00,0,rob ver 1B,2013-12-29 11:00:00,
2013-12-29 04:01:00,51.1,13.1,29.65,NW,308,10.6,12.5,21,-99.99,,,0.00,0,rob ver 1B,2013-12-29 11:01:00,
2013-12-29 04:02:00,51.1,13.0,29.65,NW,306,10.5,12.5,21,-99.99,,,0.00,0,rob ver 1B,2013-12-29 11:02:00,
2013-12-29 04:03:00,51.0,13.0,29.65,NW,306,10.1,12.4,21,-99.99,,,0.00,0,rob ver 1B,2013-12-29 11:03:00,
2013-12-29 04:04:00,51.0,13.0,29.65,NW,307,9.7,11.3,21,-99.99,,,0.00,0,rob ver 1B,2013-12-29 11:04:00,
2013-12-29 04:05:00,51.0,13.0,29.65,NW,306,8.7,10.6,21,-99.99,,,0.00,0,rob ver 1B,2013-12-29 11:05:00,
2013-12-29 04:06:00,50.9,13.0,29.65,NW,304,9.2,10.5,21,-99.99,,,0.00,0,rob ver 1B,2013-12-29 11:06:00,
2013-12-29 04:07:00,51.0,12.9,29.65,NW,305,9.8,11.1,21,-99.99,,,0.00,0,rob ver 1B,2013-12-29 11:07:00,
2013-12-29 04:08:00,51.0,12.9,29.65,WNW,302,8.8,10.8,21,-99.99,,,0.00,0,rob ver 1B,2013-12-29 11:08:00,
2013-12-29 04:09:00,50.9,12.7,29.65,WNW,303,9.7,12.5,21,-99.99,,,0.00,0,rob ver 1B,2013-12-29 11:09:00,
2013-12-29 04:10:00,51.0,12.6,29.65,NW,304,10.6,13.0,21,-99.99,,,0.00,0,rob ver 1B,2013-12-29 11:10:00,
2013-12-29 04:11:00,51.2,12.5,29.65,WNW,300,10.9,13.1,20,-99.99,,,0.00,0,rob ver 1B,2013-12-29 11:11:00,
2013-12-29 04:12:00,51.3,12.5,29.65,WNW,303,10.2,11.6,20,-99.99,,,0.00,0,rob ver 1B,2013-12-29 11:12:00,
2013-12-29 04:13:00,51.4,12.5,29.65,NW,305,10.1,12.7,20,-99.99,,,0.00,0,rob ver 1B,2013-12-29 11:13:00,
2013-12-29 04:14:00,51.4,12.3,29.65,WNW,303,10.9,13.1,20,-99.99,,,0.00,0,rob ver 1B,2013-12-29 11:14:00,
2013-12-29 04:15:00,51.5,12.3,29.65,NW,304,10.6,13.7,20,-99.99,,,0.00,0,rob ver 1B,2013-12-29 11:15:00,
2013-12-29 04:16:00,51.5,12.3,29.65,NW,306,9.5,12.0,20,-99.99,,,0.00,0,rob ver 1B,2013-12-29 11:16:00,
2013-12-29 04:17:00,51.4,12.4,29.65,NW,307,10.0,12.6,20,-99.99,,,0.00,0,rob ver 1B,2013-12-29 11:17:00,
2013-12-29 04:18:00,51.3,12.5,29.65,NW,308,10.9,13.4,20,-99.99,,,0.00,0,rob ver 1B,2013-12-29 11:18:00,
2013-12-29 04:19:00,51.3,12.2,29.65,NW,307,10.3,13.1,20,-99.99,,,0.00,0,rob ver 1B,2013-12-29 11:19:00,
2013-12-29 04:20:00,51.4,12.4,29.65,NW,310,10.7,13.4,20,-99.99,,,0.00,0,rob ver 1B,2013-12-29 11:20:00,
2013-12-29 04:21:00,51.2,12.5,29.65,NW,309,10.0,12.5,20,-99.99,,,0.00,0,rob ver 1B,2013-12-29 11:21:00,
2013-12-29 04:22:00,51.1,12.5,29.65,NW,306,9.0,10.6,21,-99.99,,,0.00,0,rob ver 1B,2013-12-29 11:22:00,
2013-12-29 04:23:00,51.0,12.6,29.65,NW,305,9.1,11.4,21,-99.99,,,0.00,0,rob ver 1B,2013-12-29 11:23:00,
2013-12-29 04:24:00,50.8,12.7,29.65,NW,306,8.2,9.4,21,-99.99,,,0.00,0,rob ver 1B,2013-12-29 11:24:00,
2013-12-29 04:25:00,50.7,12.7,29.65,WNW,303,7.4,8.9,21,-99.99,,,0.00,0,rob ver 1B,2013-12-29 11:25:00,
2013-12-29 04:26:00,50.5,12.7,29.65,NW,306,8.1,10.6,21,-99.99,,,0.00,0,rob ver 1B,2013-12-29 11:26:00,
2013-12-29 04:27:00,50.3,12.8,29.65,NW,307,8.8,9.9,21,-99.99,,,0.00,0,rob ver 1B,2013-12-29 11:27:00,
2013-12-29 04:28:00,50.2,12.7,29.65,NW,305,7.9,9.7,21,-99.99,,,0.00,0,rob ver 1B,2013-12-29 11:28:00,
2013-12-29 04:29:00,50.2,12.6,29.65,WNW,302,8.5,10.4,21,-99.99,,,0.00,0,rob ver 1B,2013-12-29 11:29:00,
2013-12-29 04:30:00,50.3,12.5,29.65,NW,306,9.4,11.0,21,-99.99,,,0.00,0,rob ver 1B,2013-12-29 11:30:00,
2013-12-29 04:31:00,50.3,12.6,29.65,NW,304,8.3,9.7,21,-99.99,,,0.00,0,rob ver 1B,2013-12-29 11:31:00,
2013-12-29 04:32:00,50.4,12.4,29.65,WNW,297,8.6,10.6,21,-99.99,,,0.00,0,rob ver 1B,2013-12-29 11:32:00,
2013-12-29 04:33:00,50.5,12.6,29.65,WNW,294,8.4,9.6,21,-99.99,,,0.00,0,rob ver 1B,2013-12-29 11:33:00,
2013-12-29 04:34:00,50.3,12.8,29.65,WNW,292,7.9,8.9,22,-99.99,,,0.00,0,rob ver 1B,2013-12-29 11:34:00,
2013-12-29 04:35:00,50.0,12.8,29.65,WNW,287,7.4,8.1,22,-99.99,,,0.00,0,rob ver 1B,2013-12-29 11:35:00,
2013-12-29 04:36:00,49.9,12.7,29.65,WNW,285,7.8,9.5,22,-99.99,,,0.00,0,rob ver 1B,2013-12-29 11:36:00,
2013-12-29 04:37:00,49.9,12.6,29.65,WNW,287,8.2,9.7,22,-99.99,,,0.00,0,rob ver 1B,2013-12-29 11:37:00,
2013-12-29 04:38:00,49.9,12.6,29.65,WNW,294,7.4,8.5,22,-99.99,,,0.00,0,rob ver 1B,2013-12-29 11:38:00,
2013-12-29 04:39:00,49.7,12.8,29.65,WNW,300,7.8,8.8,22,-99.99,,,0.00,0,rob ver 1B,2013-12-29 11:39:00,
2013-12-29 04:40:00,49.6,12.8,29.65,WNW,299,7.5,8.5,22,-99.99,,,0.00,0,rob ver 1B,2013-12-29 11:40:00,
2013-12-29 04:41:00,49.4,13.0,29.65,WNW,299,7.4,8.4,22,-99.99,,,0.00,0,rob ver 1B,2013-12-29 11:41:00,
2013-12-29 04:42:00,49.2,13.0,29.65,WNW,296,7.4,8.4,23,-99.99,,,0.00,0,rob ver 1B,2013-12-29 11:42:00,
2013-12-29 04:43:00,49.0,13.0,29.65,WNW,294,7.0,7.9,23,-99.99,,,0.00,0,rob ver 1B,2013-12-29 11:43:00,
2013-12-29 04:44:00,48.9,13.0,29.65,WNW,294,6.5,7.0,23,-99.99,,,0.00,0,rob ver 1B,2013-12-29 11:44:00,
2013-12-29 04:45:00,48.8,13.0,29.65,WNW,296,6.8,8.5,23,-99.99,,,0.00,0,rob ver 1B,2013-12-29 11:45:00,
2013-12-29 04:46:00,48.7,13.1,29.65,WNW,294,6.4,7.5,23,-99.99,,,0.00,0,rob ver 1B,2013-12-29 11:46:00,
2013-12-29 04:47:00,48.6,13.0,29.65,WNW,294,7.0,9.5,23,-99.99,,,0.00,0,rob ver 1B,2013-12-29 11:47:00,
2013-12-29 04:48:00,48.7,13.0,29.65,WNW,294,8.0,9.1,23,-99.99,,,0.00,0,rob ver 1B,2013-12-29 11:48:00,
2013-12-29 04:49:00,48.7,13.1,29.65,WNW,293,7.7,8.8,23,-99.99,,,0.00,0,rob ver 1B,2013-12-29 11:49:00,
2013-12-29 04:50:00,48.6,13.2,29.65,WNW,293,7.5,8.7,23,-99.99,,,0.00,0,rob ver 1B,2013-12-29 11:50:00,
2013-12-29 04:51:00,48.5,13.2,29.65,WNW,290,8.0,9.0,23,-99.99,,,0.00,0,rob ver 1B,2013-12-29 11:51:00,
2013-12-29 04:52:00,48.4,13.2,29.65,WNW,285,7.4,8.4,24,-99.99,,,0.00,0,rob ver 1B,2013-12-29 11:52:00,
2013-12-29 04:53:00,48.3,13.2,29.65,WNW,282,7.3,8.6,24,-99.99,,,0.00,0,rob ver 1B,2013-12-29 11:53:00,
2013-12-29 04:54:00,48.2,13.2,29.65,WNW,283,7.5,9.1,24,-99.99,,,0.00,0,rob ver 1B,2013-12-29 11:54:00,
2013-12-29 04:55:00,48.2,13.3,29.65,WNW,287,7.7,9.5,24,-99.99,,,0.00,0,rob ver 1B,2013-12-29 11:55:00,
2013-12-29 04:56:00,48.2,13.3,29.65,WNW,284,6.9,8.1,24,-99.99,,,0.00,0,rob ver 1B,2013-12-29 11:56:00,
2013-12-29 04:57:00,48.1,13.3,29.65,West,276,6.7,7.6,24,-99.99,,,0.00,0,rob ver 1B,2013-12-29 11:57:00,
2013-12-29 04:58:00,47.9,13.4,29.68,West,277,7.0,8.5,24,-99.99,,,0.00,0,rob ver 1B,2013-12-29 11:58:00,
2013-12-29 04:59:00,47.8,13.5,29.65,West,281,7.4,8.7,24,-99.99,,,0.00,0,rob ver 1B,2013-12-29 11:59:00,
2013-12-29 05:00:00,47.7,13.4,29.65,West,279,7.6,9.6,24,-99.99,,,0.00,0,rob ver 1B,2013-12-29 12:00:00,
2013-12-29 05:01:00,47.7,13.4,29.65,West,278,7.0,8.0,24,-99.99,,,0.00,0,rob ver 1B,2013-12-29 12:01:00,
2013-12-29 05:02:00,47.6,13.4,29.65,WNW,287,7.4,8.9,24,-99.99,,,0.00,0,rob ver 1B,2013-12-29 12:02:00,
2013-12-29 05:03:00,47.6,13.5,29.65,WNW,291,7.3,9.0,25,-99.99,,,0.00,0,rob ver 1B,2013-12-29 12:03:00,
2013-12-29 05:04:00,47.6,13.5,29.65,WNW,292,7.2,8.4,25,-99.99,,,0.00,0,rob ver 1B,2013-12-29 12:04:00,
2013-12-29 05:05:00,47.6,13.5,29.68,WNW,289,6.5,8.1,24,-99.99,,,0.00,0,rob ver 1B,2013-12-29 12:05:00,
2013-12-29 05:06:00,47.6,13.5,29.65,WNW,289,6.4,8.0,24,-99.99,,,0.00,0,rob ver 1B,2013-12-29 12:06:00,
2013-12-29 05:07:00,47.7,13.5,29.65,WNW,288,6.0,7.1,25,-99.99,,,0.00,0,rob ver 1B,2013-12-29 12:07:00,
2013-12-29 05:08:00,47.6,13.6,29.68,WNW,285,5.2,6.0,25,-99.99,,,0.00,0,rob ver 1B,2013-12-29 12:08:00,
2013-12-29 05:09:00,47.5,13.6,29.68,WNW,288,4.9,5.7,25,-99.99,,,0.00,0,rob ver 1B,2013-12-29 12:09:00,
2013-12-29 05:10:00,47.5,13.7,29.68,WNW,293,4.6,5.6,25,-99.99,,,0.00,0,rob ver 1B,2013-12-29 12:10:00,
2013-12-29 05:11:00,47.4,13.7,29.68,WNW,294,4.0,5.6,25,-99.99,,,0.00,0,rob ver 1B,2013-12-29 12:11:00,
2013-12-29 05:12:00,47.4,13.6,29.68,WNW,303,3.0,4.0,25,-99.99,,,0.00,0,rob ver 1B,2013-12-29 12:12:00,
2013-12-29 05:13:00,47.4,13.5,29.68,NW,308,3.6,5.3,25,-99.99,,,0.00,0,rob ver 1B,2013-12-29 12:13:00,
2013-12-29 05:14:00,47.5,13.5,29.68,NW,314,3.2,5.6,25,-99.99,,,0.00,0,rob ver 1B,2013-12-29 12:14:00,
2013-12-29 05:15:00,47.6,13.7,29.68,NW,317,2.4,3.4,25,-99.99,,,0.00,0,rob ver 1B,2013-12-29 12:15:00,
2013-12-29 05:16:00,47.5,13.7,29.68,WNW,290,2.0,2.7,25,-99.99,,,0.00,0,rob ver 1B,2013-12-29 12:16:00,
2013-12-29 05:17:00,47.4,13.9,29.68,SSW,194,1.5,2.5,25,-99.99,,,0.00,0,rob ver 1B,2013-12-29 12:17:00,
2013-12-29 05:18:00,47.2,13.8,29.68,SE,126,0.5,1.3,25,-99.99,,,0.00,0,rob ver 1B,2013-12-29 12:18:00,
2013-12-29 05:19:00,47.1,13.7,29.68,ENE,61,0.5,0.9,25,-99.99,,,0.00,0,rob ver 1B,2013-12-29 12:19:00,
2013-12-29 05:20:00,47.0,13.7,29.68,NE,50,0.8,1.5,25,-99.99,,,0.00,0,rob ver 1B,2013-12-29 12:20:00,
2013-12-29 05:21:00,46.9,13.7,29.68,NE,36,1.8,2.8,25,-99.99,,,0.00,0,rob ver 1B,2013-12-29 12:21:00,
2013-12-29 05:22:00,47.0,13.7,29.68,NNE,31,2.4,2.8,25,-99.99,,,0.00,0,rob ver 1B,2013-12-29 12:22:00,
2013-12-29 05:23:00,47.1,13.7,29.65,North,6,3.1,4.2,25,-99.99,,,0.00,0,rob ver 1B,2013-12-29 12:23:00,
2013-12-29 05:24:00,47.2,13.7,29.68,North,9,3.6,5.0,25,-99.99,,,0.00,0,rob ver 1B,2013-12-29 12:24:00,
2013-12-29 05:25:00,47.2,13.7,29.68,North,6,4.1,5.1,25,-99.99,,,0.00,0,rob ver 1B,2013-12-29 12:25:00,
2013-12-29 05:26:00,47.4,13.5,29.65,North,5,4.4,5.0,25,-99.99,,,0.00,0,rob ver 1B,2013-12-29 12:26:00,
2013-12-29 05:27:00,47.5,13.5,29.65,North,359,4.8,5.7,24,-99.99,,,0.00,0,rob ver 1B,2013-12-29 12:27:00,
2013-12-29 05:28:00,47.7,13.4,29.65,North,5,5.4,6.5,24,-99.99,,,0.00,0,rob ver 1B,2013-12-29 12:28:00,
2013-12-29 05:29:00,47.8,13.2,29.65,NNW,347,5.9,7.9,24,-99.99,,,0.00,0,rob ver 1B,2013-12-29 12:29:00,
2013-12-29 05:30:00,48.2,13.1,29.65,NNW,339,6.0,7.3,24,-99.99,,,0.00,0,rob ver 1B,2013-12-29 12:30:00,
2013-12-29 05:31:00,48.3,13.2,29.68,NNW,338,6.2,7.8,23,-99.99,,,0.00,0,rob ver 1B,2013-12-29 12:31:00,
2013-12-29 05:32:00,48.4,13.2,29.68,NNW,331,6.2,7.9,23,-99.99,,,0.00,0,rob ver 1B,2013-12-29 12:32:00,
2013-12-29 05:33:00,48.4,13.2,29.65,NNW,327,6.1,7.0,23,-99.99,,,0.00,0,rob ver 1B,2013-12-29 12:33:00,
2013-12-29 05:34:00,48.4,13.2,29.68,NW,325,5.7,6.4,23,-99.99,,,0.00,0,rob ver 1B,2013-12-29 12:34:00,
2013-12-29 05:35:00,48.5,13.2,29.68,NW,323,5.6,6.9,23,-99.99,,,0.00,0,rob ver 1B,2013-12-29 12:35:00,
2013-12-29 05:36:00,48.5,13.3,29.68,NW,325,5.7,6.8,23,-99.99,,,0.00,0,rob ver 1B,2013-12-29 12:36:00,
2013-12-29 05:37:00,48.5,13.4,29.68,NW,326,5.7,6.7,24,-99.99,,,0.00,0,rob ver 1B,2013-12-29 12:37:00,
2013-12-29 05:38:00,48.3,13.4,29.68,NW,323,5.7,6.7,24,-99.99,,,0.00,0,rob ver 1B,2013-12-29 12:38:00,
2013-12-29 05:39:00,48.3,13.3,29.68,NW,326,6.3,7.6,24,-99.99,,,0.00,0,rob ver 1B,2013-12-29 12:39:00,
2013-12-29 05:40:00,48.4,13.3,29.68,NNW,327,6.1,7.4,24,-99.99,,,0.00,0,rob ver 1B,2013-12-29 12:40:00,
2013-12-29 05:41:00,48.3,13.3,29.68,NNW,327,5.6,6.2,24,-99.99,,,0.00,0,rob ver 1B,2013-12-29 12:41:00,
2013-12-29 05:42:00,48.3,13.2,29.68,NW,326,5.6,6.4,24,-99.99,,,0.00,0,rob ver 1B,2013-12-29 12:42:00,
2013-12-29 05:43:00,48.4,13.2,29.68,NW,326,5.4,6.6,23,-99.99,,,0.00,0,rob ver 1B,2013-12-29 12:43:00,
2013-12-29 05:44:00,48.4,13.2,29.68,NNW,327,5.4,6.5,24,-99.99,,,0.00,0,rob ver 1B,2013-12-29 12:44:00,
2013-12-29 05:45:00,48.3,13.4,29.68,NNW,330,5.3,6.0,24,-99.99,,,0.00,0,rob ver 1B,2013-12-29 12:45:00,
2013-12-29 05:46:00,48.1,13.5,29.68,NNW,329,5.6,6.7,24,-99.99,,,0.00,0,rob ver 1B,2013-12-29 12:46:00,
2013-12-29 05:47:00,47.9,13.4,29.68,NW,325,5.3,6.5,24,-99.99,,,0.00,0,rob ver 1B,2013-12-29 12:47:00,
2013-12-29 05:48:00,47.9,13.3,29.68,NW,322,5.0,5.7,24,-99.99,,,0.00,0,rob ver 1B,2013-12-29 12:48:00,
2013-12-29 05:49:00,47.8,13.5,29.68,NW,320,4.7,5.3,24,-99.99,,,0.00,0,rob ver 1B,2013-12-29 12:49:00,
2013-12-29 05:50:00,47.7,13.7,29.68,NW,314,5.0,5.4,25,-99.99,,,0.00,0,rob ver 1B,2013-12-29 12:50:00,
2013-12-29 05:51:00,47.4,13.8,29.68,NW,314,5.2,5.9,25,-99.99,,,0.00,0,rob ver 1B,2013-12-29 12:51:00,
2013-12-29 05:52:00,47.3,13.7,29.68,NW,316,5.6,6.5,25,-99.99,,,0.00,0,rob ver 1B,2013-12-29 12:52:00,
2013-12-29 05:53:00,47.2,13.9,29.68,NW,314,5.7,6.8,25,-99.99,,,0.00,0,rob ver 1B,2013-12-29 12:53:00,
2013-12-29 05:54:00,47.2,13.6,29.68,NW,315,6.5,7.6,25,-99.99,,,0.00,0,rob ver 1B,2013-12-29 12:54:00,
2013-12-29 05:55:00,47.2,13.6,29.68,NW,312,6.4,8.2,25,-99.99,,,0.00,0,rob ver 1B,2013-12-29 12:55:00,
2013-12-29 05:56:00,47.2,13.4,29.68,NW,311,6.6,7.8,25,-99.99,,,0.00,0,rob ver 1B,2013-12-29 12:56:00,
2013-12-29 05:57:00,47.2,13.4,29.68,NW,308,6.2,7.1,25,-99.99,,,0.00,0,rob ver 1B,2013-12-29 12:57:00,
2013-12-29 05:58:00,47.2,13.3,29.68,NW,306,6.2,6.8,25,-99.99,,,0.00,0,rob ver 1B,2013-12-29 12:58:00,
2013-12-29 05:59:00,47.1,13.3,29.68,NW,306,6.5,7.3,25,-99.99,,,0.00,0,rob ver 1B,2013-12-29 12:59:00,
2013-12-29 06:00:00,47.0,13.3,29.68,NW,310,6.4,7.0,25,-99.99,,,0.00,0,rob ver 1B,2013-12-29 13:00:00,
2013-12-29 06:01:00,46.9,13.4,29.68,NW,311,6.0,6.9,25,-99.99,,,0.00,0,rob ver 1B,2013-12-29 13:01:00,
2013-12-29 06:02:00,46.8,13.4,29.68,NW,311,6.0,7.0,25,-99.99,,,0.00,0,rob ver 1B,2013-12-29 13:02:00,
2013-12-29 06:03:00,46.8,13.3,29.68,NW,311,6.3,7.1,25,-99.99,,,0.00,0,rob ver 1B,2013-12-29 13:03:00,
2013-12-29 06:04:00,46.8,13.1,29.68,NW,310,6.4,7.4,25,-99.99,,,0.00,0,rob ver 1B,2013-12-29 13:04:00,
2013-12-29 06:05:00,46.9,13.0,29.68,NW,310,5.9,6.6,24,-99.99,,,0.00,0,rob ver 1B,2013-12-29 13:05:00,
2013-12-29 06:06:00,47.0,12.9,29.68,NW,308,5.9,6.6,24,-99.99,,,0.00,0,rob ver 1B,2013-12-29 13:06:00,
2013-12-29 06:07:00,47.1,12.8,29.68,NW,308,6.1,7.0,24,-99.99,,,0.00,0,rob ver 1B,2013-12-29 13:07:00,
2013-12-29 06:08:00,47.1,12.7,29.68,NW,308,6.4,7.7,24,-99.99,,,0.00,0,rob ver 1B,2013-12-29 13:08:00,
2013-12-29 06:09:00,47.2,12.6,29.68,NW,305,6.4,7.8,24,-99.99,,,0.00,0,rob ver 1B,2013-12-29 13:09:00,
2013-12-29 06:10:00,47.3,12.5,29.68,NW,309,6.5,7.5,24,-99.99,,,0.00,0,rob ver 1B,2013-12-29 13:10:00,
2013-12-29 06:11:00,47.4,12.6,29.68,NW,312,6.5,7.4,24,-99.99,,,0.00,0,rob ver 1B,2013-12-29 13:11:00,
2013-12-29 06:12:00,47.6,12.5,29.68,NW,311,6.6,8.2,23,-99.99,,,0.00,0,rob ver 1B,2013-12-29 13:12:00,
2013-12-29 06:13:00,47.7,12.6,29.68,NW,312,6.5,8.5,24,-99.99,,,0.00,0,rob ver 1B,2013-12-29 13:13:00,
2013-12-29 06:14:00,47.8,12.6,29.68,NW,315,6.7,7.8,24,-99.99,,,0.00,0,rob ver 1B,2013-12-29 13:14:00,
2013-12-29 06:15:00,47.8,12.6,29.68,NW,315,7.4,8.8,23,-99.99,,,0.00,0,rob ver 1B,2013-12-29 13:15:00,
2013-12-29 06:16:00,47.8,12.7,29.68,NW,314,7.3,8.3,23,-99.99,,,0.00,0,rob ver 1B,2013-12-29 13:16:00,
2013-12-29 06:17:00,47.8,12.7,29.68,NW,313,7.7,8.5,23,-99.99,,,0.00,0,rob ver 1B,2013-12-29 13:17:00,
2013-12-29 06:18:00,47.8,12.6,29.68,NW,314,7.9,9.0,24,-99.99,,,0.00,0,rob ver 1B,2013-12-29 13:18:00,
2013-12-29 06:19:00,47.8,12.8,29.68,NW,314,7.4,8.4,24,-99.99,,,0.00,0,rob ver 1B,2013-12-29 13:19:00,
2013-12-29 06:20:00,47.7,12.8,29.68,NW,313,7.2,8.3,24,-99.99,,,0.00,0,rob ver 1B,2013-12-29 13:20:00,
2013-12-29 06:21:00,47.6,12.9,29.68,NW,316,6.8,7.9,24,-99.99,,,0.00,0,rob ver 1B,2013-12-29 13:21:00,
2013-12-29 06:22:00,47.5,12.9,29.68,NW,315,6.6,7.7,24,-99.99,,,0.00,0,rob ver 1B,2013-12-29 13:22:00,
2013-12-29 06:23:00,47.4,13.0,29.68,NW,314,6.7,8.2,24,-99.99,,,0.00,0,rob ver 1B,2013-12-29 13:23:00,
2013-12-29 06:24:00,47.3,12.9,29.68,NW,313,6.8,8.8,24,-99.99,,,0.00,0,rob ver 1B,2013-12-29 13:24:00,
2013-12-29 06:25:00,47.2,12.8,29.68,NW,313,6.7,8.9,24,-99.99,,,0.00,0,rob ver 1B,2013-12-29 13:25:00,
2013-12-29 06:26:00,47.1,12.8,29.68,NW,310,6.7,7.8,24,-99.99,,,0.00,0,rob ver 1B,2013-12-29 13:26:00,
2013-12-29 06:27:00,47.0,12.7,29.68,NW,308,8.0,9.8,24,-99.99,,,0.00,0,rob ver 1B,2013-12-29 13:27:00,
2013-12-29 06:28:00,47.1,12.4,29.68,NW,307,9.0,10.8,24,-99.99,,,0.00,0,rob ver 1B,2013-12-29 13:28:00,
2013-12-29 06:29:00,47.2,12.1,29.68,NW,306,9.8,11.6,23,-99.99,,,0.00,0,rob ver 1B,2013-12-29 13:29:00,
2013-12-29 06:30:00,47.4,11.9,29.68,NW,306,10.6,13.2,23,-99.99,,,0.00,0,rob ver 1B,2013-12-29 13:30:00,
2013-12-29 06:31:00,47.6,11.8,29.68,NW,305,10.6,12.5,23,-99.99,,,0.00,0,rob ver 1B,2013-12-29 13:31:00,
2013-12-29 06:32:00,47.7,11.7,29.68,NW,305,10.9,13.0,22,-99.99,,,0.00,0,rob ver 1B,2013-12-29 13:32:00,
2013-12-29 06:33:00,47.8,11.6,29.68,NW,306,11.1,13.1,22,-99.99,,,0.00,0,rob ver 1B,2013-12-29 13:33:00,
2013-12-29 06:34:00,47.9,11.6,29.68,NW,306,10.3,12.0,22,-99.99,,,0.00,0,rob ver 1B,2013-12-29 13:34:00,
2013-12-29 06:35:00,47.9,11.7,29.68,NW,306,10.4,13.0,22,-99.99,,,0.00,0,rob ver 1B,2013-12-29 13:35:00,
2013-12-29 06:36:00,47.8,11.6,29.68,NW,305,10.7,12.3,22,-99.99,,,0.00,0,rob ver 1B,2013-12-29 13:36:00,
2013-12-29 06:37:00,47.9,11.5,29.68,WNW,303,10.9,13.7,22,-99.99,,,0.00,0,rob ver 1B,2013-12-29 13:37:00,
2013-12-29 06:38:00,47.9,11.5,29.68,NW,305,10.8,13.0,22,-99.99,,,0.00,0,rob ver 1B,2013-12-29 13:38:00,
2013-12-29 06:39:00,48.0,11.5,29.68,NW,304,10.0,11.9,22,-99.99,,,0.00,0,rob ver 1B,2013-12-29 13:39:00,
2013-12-29 06:40:00,48.0,11.4,29.68,WNW,303,10.3,11.8,22,-99.99,,,0.00,0,rob ver 1B,2013-12-29 13:40:00,
2013-12-29 06:41:00,48.1,11.4,29.68,NW,304,10.7,12.8,22,-99.99,,,0.00,0,rob ver 1B,2013-12-29 13:41:00,
2013-12-29 06:42:00,48.2,11.4,29.68,WNW,301,10.8,12.2,22,-99.99,,,0.00,0,rob ver 1B,2013-12-29 13:42:00,
2013-12-29 06:43:00,48.3,11.2,29.68,WNW,303,11.1,13.3,21,-99.99,,,0.00,0,rob ver 1B,2013-12-29 13:43:00,
2013-12-29 06:44:00,48.5,11.2,29.68,WNW,303,10.8,15.1,21,-99.99,,,0.00,0,rob ver 1B,2013-12-29 13:44:00,
2013-12-29 06:45:00,48.5,11.4,29.68,WNW,299,9.6,12.1,21,-99.99,,,0.00,0,rob ver 1B,2013-12-29 13:45:00,
2013-12-29 06:46:00,48.5,11.3,29.68,WNW,299,9.8,11.1,22,-99.99,,,0.00,0,rob ver 1B,2013-12-29 13:46:00,
2013-12-29 06:47:00,48.5,11.4,29.68,WNW,298,9.4,11.0,22,-99.99,,,0.00,0,rob ver 1B,2013-12-29 13:47:00,
2013-12-29 06:48:00,48.5,11.6,29.68,WNW,298,8.7,10.4,22,-99.99,,,0.00,0,rob ver 1B,2013-12-29 13:48:00,
2013-12-29 06:49:00,48.3,11.6,29.68,WNW,296,8.8,10.5,22,-99.99,,,0.00,0,rob ver 1B,2013-12-29 13:49:00,
2013-12-29 06:50:00,48.3,11.6,29.68,WNW,292,8.6,10.3,22,-99.99,,,0.00,0,rob ver 1B,2013-12-29 13:50:00,
2013-12-29 06:51:00,48.3,11.6,29.68,WNW,294,8.1,9.3,22,-99.99,,,0.00,0,rob ver 1B,2013-12-29 13:51:00,
2013-12-29 06:52:00,48.2,11.8,29.68,WNW,294,7.0,8.1,22,-99.99,,,0.00,0,rob ver 1B,2013-12-29 13:52:00,
2013-12-29 06:53:00,48.1,12.0,29.68,WNW,293,6.2,7.2,23,-99.99,,,0.00,0,rob ver 1B,2013-12-29 13:53:00,
2013-12-29 06:54:00,47.9,12.1,29.68,WNW,292,5.5,6.4,23,-99.99,,,0.00,0,rob ver 1B,2013-12-29 13:54:00,
2013-12-29 06:55:00,47.7,12.2,29.68,WNW,293,5.0,5.9,23,-99.99,,,0.00,0,rob ver 1B,2013-12-29 13:55:00,
2013-12-29 06:56:00,47.6,12.3,29.68,WNW,291,4.7,6.0,23,-99.99,,,0.00,0,rob ver 1B,2013-12-29 13:56:00,
2013-12-29 06:57:00,47.4,12.4,29.68,WNW,295,4.6,5.6,24,-99.99,,,0.00,0,rob ver 1B,2013-12-29 13:57:00,
2013-12-29 06:58:00,47.3,12.5,29.68,WNW,301,5.2,6.4,24,-99.99,,,0.00,0,rob ver 1B,2013-12-29 13:58:00,
2013-12-29 06:59:00,47.2,12.5,29.71,NW,308,4.9,5.7,24,-99.99,,,0.00,0,rob ver 1B,2013-12-29 13:59:00,
2013-12-29 07:00:00,47.0,12.6,29.68,NW,314,4.5,5.5,24,-99.99,,,0.00,0,rob ver 1B,2013-12-29 14:00:00,
2013-12-29 07:01:00,46.9,12.7,29.68,NW,320,3.5,4.5,24,-99.99,,,0.00,0,rob ver 1B,2013-12-29 14:01:00,
2013-12-29 07:02:00,46.9,12.7,29.71,NNW,329,3.5,4.4,24,-99.99,,,0.00,0,rob ver 1B,2013-12-29 14:02:00,
2013-12-29 07:03:00,46.9,12.7,29.68,NNW,335,3.8,4.9,24,-99.99,,,0.00,0,rob ver 1B,2013-12-29 14:03:00,
2013-12-29 07:04:00,46.9,12.7,29.68,NNW,339,3.9,5.5,24,-99.99,,,0.00,0,rob ver 1B,2013-12-29 14:04:00,
2013-12-29 07:05:00,46.8,12.7,29.68,NNW,344,4.1,5.8,24,-99.99,,,0.00,0,rob ver 1B,2013-12-29 14:05:00,
2013-12-29 07:06:00,46.8,12.7,29.68,NNW,346,4.3,5.9,24,-99.99,,,0.00,0,rob ver 1B,2013-12-29 14:06:00,
2013-12-29 07:07:00,46.7,12.8,29.68,North,351,4.3,4.9,25,-99.99,,,0.00,0,rob ver 1B,2013-12-29 14:07:00,
2013-12-29 07:08:00,46.6,12.8,29.68,North,6,3.8,4.2,25,-99.99,,,0.00,0,rob ver 1B,2013-12-29 14:08:00,
2013-12-29 07:09:00,46.4,12.8,29.71,North,7,3.4,4.5,25,-99.99,,,0.00,0,rob ver 1B,2013-12-29 14:09:00,
2013-12-29 07:10:00,46.4,12.8,29.68,North,10,3.0,3.8,25,-99.99,,,0.00,0,rob ver 1B,2013-12-29 14:10:00,
2013-12-29 07:11:00,46.3,12.8,29.68,North,8,2.8,4.0,25,-99.99,,,0.00,0,rob ver 1B,2013-12-29 14:11:00,
2013-12-29 07:12:00,46.3,12.8,29.71,NNW,346,3.0,3.4,25,-99.99,,,0.00,0,rob ver 1B,2013-12-29 14:12:00,
2013-12-29 07:13:00,46.2,12.9,29.68,NNW,333,2.6,3.3,25,-99.99,,,0.00,0,rob ver 1B,2013-12-29 14:13:00,
2013-12-29 07:14:00,46.2,12.9,29.68,NNW,328,3.1,3.8,25,-99.99,,,0.00,0,rob ver 1B,2013-12-29 14:14:00,
2013-12-29 07:15:00,46.2,13.1,29.71,NW,318,2.8,3.5,26,-99.99,,,0.00,0,rob ver 1B,2013-12-29 14:15:00,
2013-12-29 07:16:00,46.1,13.2,29.71,NW,308,2.4,2.6,26,-99.99,,,0.00,0,rob ver 1B,2013-12-29 14:16:00,
2013-12-29 07:17:00,46.0,13.2,29.71,WNW,298,2.5,2.8,26,-99.99,,,0.00,0,rob ver 1B,2013-12-29 14:17:00,
2013-12-29 07:18:00,45.8,13.3,29.71,WNW,286,2.7,3.0,26,-99.99,,,0.00,0,rob ver 1B,2013-12-29 14:18:00,
2013-12-29 07:19:00,45.7,13.1,29.71,WNW,284,3.0,3.5,26,-99.99,,,0.00,.33,rob ver 1B,2013-12-29 14:19:00,
2013-12-29 07:20:00,45.6,12.9,29.71,WNW,296,3.5,4.3,26,-99.99,,,0.00,.33,rob ver 1B,2013-12-29 14:20:00,
2013-12-29 07:21:00,45.8,12.9,29.71,NW,305,3.7,4.2,26,-99.99,,,0.00,.33,rob ver 1B,2013-12-29 14:21:00,
2013-12-29 07:22:00,45.8,13.0,29.71,NW,308,4.0,4.7,26,-99.99,,,0.00,.33,rob ver 1B,2013-12-29 14:22:00,
2013-12-29 07:23:00,45.8,13.0,29.71,NW,307,4.4,4.8,26,-99.99,,,0.00,.33,rob ver 1B,2013-12-29 14:23:00,
2013-12-29 07:24:00,45.8,13.2,29.71,NW,304,4.7,5.1,26,-99.99,,,0.00,.33,rob ver 1B,2013-12-29 14:24:00,
2013-12-29 07:25:00,45.8,13.3,29.71,NW,304,4.9,5.2,26,-99.99,,,0.00,.495,rob ver 1B,2013-12-29 14:25:00,
2013-12-29 07:26:00,45.7,13.3,29.71,NW,305,4.9,5.5,26,-99.99,,,0.00,.66,rob ver 1B,2013-12-29 14:26:00,
2013-12-29 07:27:00,45.6,13.5,29.71,NW,310,5.0,5.5,27,-99.99,,,0.00,.825,rob ver 1B,2013-12-29 14:27:00,
2013-12-29 07:28:00,45.3,13.6,29.71,NW,313,4.9,5.8,27,-99.99,,,0.00,1.32,rob ver 1B,2013-12-29 14:28:00,
2013-12-29 07:29:00,45.2,13.6,29.71,NW,313,5.1,5.7,27,-99.99,,,0.00,1.32,rob ver 1B,2013-12-29 14:29:00,
2013-12-29 07:30:00,45.2,13.6,29.71,NW,314,4.9,5.6,27,-99.99,,,0.00,1.651,rob ver 1B,2013-12-29 14:30:00,
2013-12-29 07:31:00,45.2,13.6,29.71,NW,311,5.3,6.2,27,-99.99,,,0.00,1.981,rob ver 1B,2013-12-29 14:31:00,
2013-12-29 07:32:00,45.2,13.4,29.71,NW,307,5.9,7.2,27,-99.99,,,0.00,2.311,rob ver 1B,2013-12-29 14:32:00,
2013-12-29 07:33:00,45.4,13.0,29.71,WNW,303,6.8,7.9,26,-99.99,,,0.00,2.971,rob ver 1B,2013-12-29 14:33:00,
2013-12-29 07:34:00,45.8,12.8,29.71,WNW,300,7.1,8.0,25,-99.99,,,0.00,3.301,rob ver 1B,2013-12-29 14:34:00,
2013-12-29 07:35:00,46.2,12.7,29.71,WNW,301,7.4,8.5,25,-99.99,,,0.00,3.961,rob ver 1B,2013-12-29 14:35:00,
2013-12-29 07:36:00,46.6,12.8,29.71,WNW,299,7.8,9.2,24,-99.99,,,0.00,4.291,rob ver 1B,2013-12-29 14:36:00,
2013-12-29 07:37:00,46.8,12.7,29.71,WNW,298,8.4,9.6,24,-99.99,,,0.00,4.787,rob ver 1B,2013-12-29 14:37:00,
2013-12-29 07:38:00,47.0,12.6,29.71,WNW,296,9.1,10.9,24,-99.99,,,0.00,5.117,rob ver 1B,2013-12-29 14:38:00,
2013-12-29 07:39:00,47.2,12.6,29.71,WNW,297,9.5,12.7,24,-99.99,,,0.00,5.612,rob ver 1B,2013-12-29 14:39:00,
2013-12-29 07:40:00,47.4,12.5,29.71,WNW,296,9.9,12.1,23,-99.99,,,0.00,6.437,rob ver 1B,2013-12-29 14:40:00,
2013-12-29 07:41:00,47.7,12.5,29.71,WNW,297,9.5,11.0,23,-99.99,,,0.00,6.932,rob ver 1B,2013-12-29 14:41:00,
2013-12-29 07:42:00,47.8,12.3,29.71,WNW,298,10.5,12.6,23,-99.99,,,0.00,8.58,rob ver 1B,2013-12-29 14:42:00,
2013-12-29 07:43:00,48.0,12.3,29.71,WNW,298,10.2,12.8,23,-99.99,,,0.00,10.89,rob ver 1B,2013-12-29 14:43:00,
2013-12-29 07:44:00,48.2,12.2,29.71,WNW,297,10.4,12.9,22,-99.99,,,0.00,12.87,rob ver 1B,2013-12-29 14:44:00,
2013-12-29 07:45:00,48.4,12.2,29.71,WNW,294,9.9,11.3,22,-99.99,,,0.00,15.85,rob ver 1B,2013-12-29 14:45:00,
2013-12-29 07:46:00,48.5,12.2,29.71,WNW,293,9.7,11.3,22,-99.99,,,0.00,19.81,rob ver 1B,2013-12-29 14:46:00,
2013-12-29 07:47:00,48.6,12.2,29.71,WNW,294,8.9,11.3,22,-99.99,,,0.00,21.79,rob ver 1B,2013-12-29 14:47:00,
2013-12-29 07:48:00,48.6,12.3,29.71,WNW,297,8.7,10.4,22,-99.99,,,0.00,23.11,rob ver 1B,2013-12-29 14:48:00,
2013-12-29 07:49:00,48.6,12.3,29.71,WNW,299,8.0,9.9,22,-99.99,,,0.00,25.42,rob ver 1B,2013-12-29 14:49:00,
2013-12-29 07:50:00,48.5,12.4,29.71,WNW,301,7.0,8.1,23,-99.99,,,0.00,27.73,rob ver 1B,2013-12-29 14:50:00,
2013-12-29 07:51:00,48.3,12.5,29.71,NW,307,6.9,8.6,23,-99.99,,,0.00,29.71,rob ver 1B,2013-12-29 14:51:00,
2013-12-29 07:52:00,48.0,12.9,29.71,NW,319,5.5,7.4,24,-99.99,,,0.00,32.02,rob ver 1B,2013-12-29 14:52:00,
2013-12-29 07:53:00,47.8,12.9,29.71,NW,322,5.2,5.9,24,-99.99,,,0.00,34,rob ver 1B,2013-12-29 14:53:00,
2013-12-29 07:54:00,47.7,12.8,29.71,NW,315,6.0,6.9,24,-99.99,,,0.00,36.64,rob ver 1B,2013-12-29 14:54:00,
2013-12-29 07:55:00,47.7,12.9,29.71,NW,308,6.1,7.5,24,-99.99,,,0.00,39.28,rob ver 1B,2013-12-29 14:55:00,
2013-12-29 07:56:00,47.7,12.8,29.71,NW,306,6.0,6.9,24,-99.99,,,0.00,41.76,rob ver 1B,2013-12-29 14:56:00,
2013-12-29 07:57:00,47.6,13.0,29.71,NW,306,5.9,6.9,24,-99.99,,,0.00,44.07,rob ver 1B,2013-12-29 14:57:00,
2013-12-29 07:58:00,47.5,13.1,29.71,NW,309,5.3,6.0,24,-99.99,,,0.00,46.22,rob ver 1B,2013-12-29 14:58:00,
2013-12-29 07:59:00,47.3,13.4,29.71,NW,311,4.7,5.3,25,-99.99,,,0.00,48.86,rob ver 1B,2013-12-29 14:59:00,
2013-12-29 08:00:00,47.1,13.5,29.71,NW,310,4.6,5.5,25,-99.99,,,0.00,51.5,rob ver 1B,2013-12-29 15:00:00,
2013-12-29 08:01:00,47.0,13.6,29.71,NW,309,4.2,5.4,25,-99.99,,,0.00,54.14,rob ver 1B,2013-12-29 15:01:00,
2013-12-29 08:02:00,46.8,13.6,29.71,NW,312,4.7,6.4,26,-99.99,,,0.00,56.78,rob ver 1B,2013-12-29 15:02:00,
2013-12-29 08:03:00,46.8,13.7,29.71,NW,312,4.5,5.1,26,-99.99,,,0.00,59.42,rob ver 1B,2013-12-29 15:03:00,
2013-12-29 08:04:00,46.7,13.8,29.71,NW,312,4.6,5.5,26,-99.99,,,0.00,62.06,rob ver 1B,2013-12-29 15:04:00,
2013-12-29 08:05:00,46.7,13.7,29.71,NW,307,5.0,5.9,26,-99.99,,,0.00,64.7,rob ver 1B,2013-12-29 15:05:00,
2013-12-29 08:06:00,46.7,13.7,29.71,NW,309,4.6,5.7,26,-99.99,,,0.00,67.01,rob ver 1B,2013-12-29 15:06:00,
2013-12-29 08:07:00,46.7,13.7,29.71,NW,313,5.1,6.0,26,-99.99,,,0.00,69.82,rob ver 1B,2013-12-29 15:07:00,
2013-12-29 08:08:00,46.6,14.1,29.71,NW,316,4.2,5.0,26,-99.99,,,0.00,72.1,rob ver 1B,2013-12-29 15:08:00,
2013-12-29 08:09:00,46.6,14.1,29.71,NW,307,4.3,4.9,26,-99.99,,,0.00,74.6,rob ver 1B,2013-12-29 15:09:00,
2013-12-29 08:10:00,46.6,13.9,29.71,NW,307,4.7,5.6,26,-99.99,,,0.00,77.4,rob ver 1B,2013-12-29 15:10:00,
2013-12-29 08:11:00,46.6,13.9,29.71,NNW,327,4.3,5.3,26,-99.99,,,0.00,80.1,rob ver 1B,2013-12-29 15:11:00,
2013-12-29 08:12:00,46.6,13.9,29.71,NNW,331,4.1,5.1,26,-99.99,,,0.00,82.9,rob ver 1B,2013-12-29 15:12:00,
2013-12-29 08:13:00,46.7,13.9,29.71,NNW,332,3.2,4.3,26,-99.99,,,0.00,85.5,rob ver 1B,2013-12-29 15:13:00,
2013-12-29 08:14:00,46.8,14.1,29.71,NNW,342,2.4,3.6,26,-99.99,,,0.00,88.1,rob ver 1B,2013-12-29 15:14:00,
2013-12-29 08:15:00,46.9,14.0,29.71,North,354,2.2,3.4,26,-99.99,,,0.00,90.8,rob ver 1B,2013-12-29 15:15:00,
2013-12-29 08:16:00,46.9,14.1,29.71,North,359,2.5,3.3,26,-99.99,,,0.00,93.6,rob ver 1B,2013-12-29 15:16:00,
2013-12-29 08:17:00,47.0,14.1,29.71,North,1,2.6,3.4,26,-99.99,,,0.00,96.1,rob ver 1B,2013-12-29 15:17:00,
2013-12-29 08:18:00,47.0,14.1,29.71,North,351,2.4,3.3,26,-99.99,,,0.00,99.2,rob ver 1B,2013-12-29 15:18:00,
2013-12-29 08:19:00,47.2,14.2,29.71,NNW,339,1.6,2.8,26,-99.99,,,0.00,101.5,rob ver 1B,2013-12-29 15:19:00,
2013-12-29 08:20:00,47.4,14.2,29.71,NW,326,1.7,2.3,25,-99.99,,,0.00,104,rob ver 1B,2013-12-29 15:20:00,
2013-12-29 08:21:00,47.7,14.3,29.71,NNW,328,0.9,1.6,25,-99.99,,,0.00,106.6,rob ver 1B,2013-12-29 15:21:00,
2013-12-29 08:22:00,48.0,14.4,29.71,NNW,342,0.6,1.5,25,-99.99,,,0.00,109.3,rob ver 1B,2013-12-29 15:22:00,
2013-12-29 08:23:00,48.5,14.5,29.71,NW,317,0.3,0.7,25,-99.99,,,0.00,112.2,rob ver 1B,2013-12-29 15:23:00,
2013-12-29 08:24:00,49.0,14.5,29.71,North,7,0.4,1.1,24,-99.99,,,0.00,115,rob ver 1B,2013-12-29 15:24:00,
2013-12-29 08:25:00,49.5,14.7,29.71,WNW,295,0.4,0.6,24,-99.99,,,0.00,117.5,rob ver 1B,2013-12-29 15:25:00,
2013-12-29 08:26:00,50.0,14.6,29.71,NW,315,1.0,1.6,23,-99.99,,,0.00,119.8,rob ver 1B,2013-12-29 15:26:00,
2013-12-29 08:27:00,50.1,14.3,29.71,NW,316,1.6,2.8,23,-99.99,,,0.00,123.1,rob ver 1B,2013-12-29 15:27:00,
2013-12-29 08:28:00,49.9,14.1,29.71,NW,324,2.0,2.9,23,-99.99,,,0.00,125.9,rob ver 1B,2013-12-29 15:28:00,
2013-12-29 08:29:00,49.8,14.1,29.71,NW,323,1.9,3.1,23,-99.99,,,0.00,128.7,rob ver 1B,2013-12-29 15:29:00,
2013-12-29 08:30:00,49.7,14.2,29.71,NNW,328,2.1,3.4,24,-99.99,,,0.00,131.5,rob ver 1B,2013-12-29 15:30:00,
2013-12-29 08:31:00,49.6,14.4,29.71,NW,321,2.6,3.5,24,-99.99,,,0.00,134.4,rob ver 1B,2013-12-29 15:31:00,
2013-12-29 08:32:00,49.7,14.2,29.71,NW,313,3.2,4.7,24,-99.99,,,0.00,137,rob ver 1B,2013-12-29 15:32:00,
2013-12-29 08:33:00,49.7,14.5,29.74,NW,305,3.5,4.8,23,-99.99,,,0.00,139.6,rob ver 1B,2013-12-29 15:33:00,
2013-12-29 08:34:00,49.8,14.0,29.71,WNW,302,4.0,5.0,23,-99.99,,,0.00,142.9,rob ver 1B,2013-12-29 15:34:00,
2013-12-29 08:35:00,49.9,14.4,29.71,WNW,297,3.2,3.7,23,-99.99,,,0.00,145.6,rob ver 1B,2013-12-29 15:35:00,
2013-12-29 08:36:00,50.1,14.1,29.74,WNW,302,3.5,5.1,23,-99.99,,,0.00,148.7,rob ver 1B,2013-12-29 15:36:00,
2013-12-29 08:37:00,50.2,13.9,29.71,NW,305,3.3,4.2,23,-99.99,,,0.00,151.2,rob ver 1B,2013-12-29 15:37:00,
2013-12-29 08:38:00,50.3,13.9,29.71,NW,306,3.3,4.2,22,-99.99,,,0.00,154.2,rob ver 1B,2013-12-29 15:38:00,
2013-12-29 08:39:00,50.5,13.8,29.74,WNW,302,3.4,4.3,22,-99.99,,,0.00,157.1,rob ver 1B,2013-12-29 15:39:00,
2013-12-29 08:40:00,50.7,13.9,29.74,WNW,303,3.2,3.7,22,-99.99,,,0.00,159.8,rob ver 1B,2013-12-29 15:40:00,
2013-12-29 08:41:00,50.8,13.9,29.71,NW,307,3.4,4.4,22,-99.99,,,0.00,162.7,rob ver 1B,2013-12-29 15:41:00,
2013-12-29 08:42:00,50.8,13.7,29.71,NW,313,3.7,4.3,22,-99.99,,,0.00,165.7,rob ver 1B,2013-12-29 15:42:00,
2013-12-29 08:43:00,50.9,13.8,29.74,NW,316,3.7,4.5,22,-99.99,,,0.00,168,rob ver 1B,2013-12-29 15:43:00,
2013-12-29 08:44:00,51.0,14.0,29.71,NW,318,3.6,4.2,22,-99.99,,,0.00,171.3,rob ver 1B,2013-12-29 15:44:00,
2013-12-29 08:45:00,51.1,14.4,29.71,NW,317,3.8,4.7,22,-99.99,,,0.00,174.1,rob ver 1B,2013-12-29 15:45:00,
2013-12-29 08:46:00,51.1,14.1,29.74,NW,312,4.1,4.5,22,-99.99,,,0.00,177.6,rob ver 1B,2013-12-29 15:46:00,
2013-12-29 08:47:00,51.2,14.6,29.71,NW,307,4.1,4.7,22,-99.99,,,0.00,180.6,rob ver 1B,2013-12-29 15:47:00,
2013-12-29 08:48:00,51.2,14.4,29.71,WNW,303,4.2,4.6,22,-99.99,,,0.00,183.4,rob ver 1B,2013-12-29 15:48:00,
2013-12-29 08:49:00,51.3,14.9,29.74,WNW,302,4.4,4.9,23,-99.99,,,0.00,185.9,rob ver 1B,2013-12-29 15:49:00,
2013-12-29 08:50:00,51.3,14.6,29.74,WNW,299,4.9,5.3,22,-99.99,,,0.00,189.2,rob ver 1B,2013-12-29 15:50:00,
2013-12-29 08:51:00,51.3,14.8,29.74,WNW,299,5.2,5.7,23,-99.99,,,0.00,192,rob ver 1B,2013-12-29 15:51:00,
2013-12-29 08:52:00,51.3,15.8,29.74,WNW,293,4.6,5.6,24,-99.99,,,0.00,194.4,rob ver 1B,2013-12-29 15:52:00,
2013-12-29 08:53:00,51.1,15.8,29.74,NW,306,5.6,6.2,23,-99.99,,,0.00,197.7,rob ver 1B,2013-12-29 15:53:00,
2013-12-29 08:54:00,51.0,15.1,29.74,NW,307,6.3,8.0,22,-99.99,,,0.00,201,rob ver 1B,2013-12-29 15:54:00,
2013-12-29 08:55:00,51.2,14.3,29.71,NW,306,7.1,8.4,22,-99.99,,,0.00,203.8,rob ver 1B,2013-12-29 15:55:00,
2013-12-29 08:56:00,51.4,14.0,29.74,NW,307,7.6,9.3,21,-99.99,,,0.00,206.6,rob ver 1B,2013-12-29 15:56:00,
2013-12-29 08:57:00,51.7,14.0,29.74,NW,308,7.2,8.4,21,-99.99,,,0.00,209.6,rob ver 1B,2013-12-29 15:57:00,
2013-12-29 08:58:00,51.9,13.7,29.71,NW,306,7.8,8.8,21,-99.99,,,0.00,212.3,rob ver 1B,2013-12-29 15:58:00,
2013-12-29 08:59:00,52.1,13.6,29.74,NW,307,8.1,9.4,21,-99.99,,,0.00,215.6,rob ver 1B,2013-12-29 15:59:00,
2013-12-29 09:00:00,52.3,13.8,29.74,NW,308,7.7,9.1,21,-99.99,,,0.00,218.9,rob ver 1B,2013-12-29 16:00:00,
2013-12-29 09:01:00,52.4,14.3,29.74,NW,314,6.8,8.4,21,-99.99,,,0.00,221.5,rob ver 1B,2013-12-29 16:01:00,
2013-12-29 09:02:00,52.5,14.3,29.74,NW,318,7.1,9.1,21,-99.99,,,0.00,224.1,rob ver 1B,2013-12-29 16:02:00,
2013-12-29 09:03:00,52.6,14.4,29.74,NW,316,6.4,7.7,22,-99.99,,,0.00,226.8,rob ver 1B,2013-12-29 16:03:00,
2013-12-29 09:04:00,52.7,14.0,29.74,NW,316,6.4,7.9,20,-99.99,,,0.00,230.1,rob ver 1B,2013-12-29 16:04:00,
2013-12-29 09:05:00,52.9,14.2,29.74,NW,318,5.2,6.2,21,-99.99,,,0.00,232.7,rob ver 1B,2013-12-29 16:05:00,
2013-12-29 09:06:00,53.1,14.1,29.74,NW,317,5.5,6.6,21,-99.99,,,0.00,236,rob ver 1B,2013-12-29 16:06:00,
2013-12-29 09:07:00,53.3,14.3,29.74,NW,314,5.0,6.7,21,-99.99,,,0.00,238.7,rob ver 1B,2013-12-29 16:07:00,
2013-12-29 09:08:00,53.4,14.2,29.74,NW,313,4.5,5.4,20,-99.99,,,0.00,242,rob ver 1B,2013-12-29 16:08:00,
2013-12-29 09:09:00,53.6,14.1,29.74,NW,316,4.3,5.5,20,-99.99,,,0.00,244.6,rob ver 1B,2013-12-29 16:09:00,
2013-12-29 09:10:00,53.8,14.2,29.74,NW,314,3.5,4.6,20,-99.99,,,0.00,247.4,rob ver 1B,2013-12-29 16:10:00,
2013-12-29 09:11:00,54.0,14.1,29.74,NW,322,3.1,4.4,20,-99.99,,,0.00,250.5,rob ver 1B,2013-12-29 16:11:00,
2013-12-29 09:12:00,54.2,14.1,29.74,NW,319,3.5,4.6,19,-99.99,,,0.00,253.2,rob ver 1B,2013-12-29 16:12:00,
2013-12-29 09:13:00,54.4,13.8,29.74,NW,315,3.6,4.6,19,-99.99,,,0.00,256.2,rob ver 1B,2013-12-29 16:13:00,
2013-12-29 09:14:00,54.5,13.5,29.74,NW,314,4.2,5.9,19,-99.99,,,0.00,259.1,rob ver 1B,2013-12-29 16:14:00,
2013-12-29 09:15:00,54.6,13.5,29.74,NW,318,4.1,5.4,19,-99.99,,,0.00,261.8,rob ver 1B,2013-12-29 16:15:00,
2013-12-29 09:16:00,54.7,13.6,29.74,NW,313,4.0,5.7,19,-99.99,,,0.00,265.1,rob ver 1B,2013-12-29 16:16:00,
2013-12-29 09:17:00,54.9,13.7,29.74,NW,313,3.3,4.0,18,-99.99,,,0.00,267.7,rob ver 1B,2013-12-29 16:17:00,
2013-12-29 09:18:00,55.0,13.1,29.74,NW,317,4.1,5.0,18,-99.99,,,0.00,270.8,rob ver 1B,2013-12-29 16:18:00,
2013-12-29 09:19:00,55.1,13.4,29.74,NW,312,4.3,5.5,19,-99.99,,,0.00,273.7,rob ver 1B,2013-12-29 16:19:00,
2013-12-29 09:20:00,55.1,13.5,29.74,NW,315,4.0,5.3,18,-99.99,,,0.00,276.3,rob ver 1B,2013-12-29 16:20:00,
2013-12-29 09:21:00,55.2,13.4,29.74,NW,307,4.2,5.3,18,-99.99,,,0.00,278.9,rob ver 1B,2013-12-29 16:21:00,
2013-12-29 09:22:00,55.3,13.0,29.74,NW,307,6.2,8.6,18,-99.99,,,0.00,282.2,rob ver 1B,2013-12-29 16:22:00,
2013-12-29 09:23:00,55.2,12.6,29.74,WNW,303,6.8,8.5,18,-99.99,,,0.00,284.9,rob ver 1B,2013-12-29 16:23:00,
2013-12-29 09:24:00,55.3,13.1,29.74,WNW,298,5.6,6.9,18,-99.99,,,0.00,288.2,rob ver 1B,2013-12-29 16:24:00,
2013-12-29 09:25:00,55.4,13.0,29.74,WNW,301,6.5,9.1,18,-99.99,,,0.00,290.8,rob ver 1B,2013-12-29 16:25:00,
2013-12-29 09:26:00,55.4,12.4,29.74,WNW,293,8.0,11.3,18,-99.99,,,0.00,294,rob ver 1B,2013-12-29 16:26:00,
2013-12-29 09:27:00,55.4,12.6,29.74,WNW,297,7.4,8.8,17,-99.99,,,0.00,296.4,rob ver 1B,2013-12-29 16:27:00,
2013-12-29 09:28:00,55.4,12.5,29.74,WNW,295,8.3,11.2,17,-99.99,,,0.00,299.7,rob ver 1B,2013-12-29 16:28:00,
2013-12-29 09:29:00,55.5,12.3,29.74,WNW,294,8.9,11.0,17,-99.99,,,0.00,302,rob ver 1B,2013-12-29 16:29:00,
2013-12-29 09:30:00,55.5,12.6,29.74,WNW,293,8.6,10.4,17,-99.99,,,0.00,305.3,rob ver 1B,2013-12-29 16:30:00,
2013-12-29 09:31:00,55.6,12.7,29.74,WNW,300,8.4,11.7,17,-99.99,,,0.00,308,rob ver 1B,2013-12-29 16:31:00,
2013-12-29 09:32:00,55.6,12.3,29.74,WNW,303,9.6,11.8,17,-99.99,,,0.00,310.6,rob ver 1B,2013-12-29 16:32:00,
2013-12-29 09:33:00,55.7,12.6,29.74,WNW,297,7.6,8.9,17,-99.99,,,0.00,313.2,rob ver 1B,2013-12-29 16:33:00,
2013-12-29 09:34:00,55.9,12.9,29.74,WNW,296,6.9,8.3,17,-99.99,,,0.00,316.5,rob ver 1B,2013-12-29 16:34:00,
2013-12-29 09:35:00,56.0,12.9,29.74,WNW,294,7.6,8.9,17,-99.99,,,0.00,319,rob ver 1B,2013-12-29 16:35:00,
2013-12-29 09:36:00,56.0,12.7,29.74,WNW,299,7.2,8.6,17,-99.99,,,0.00,322.1,rob ver 1B,2013-12-29 16:36:00,
2013-12-29 09:37:00,56.1,13.0,29.74,WNW,295,6.8,8.6,17,-99.99,,,0.00,324.8,rob ver 1B,2013-12-29 16:37:00,
2013-12-29 09:38:00,56.1,12.8,29.74,WNW,297,7.8,10.1,17,-99.99,,,0.00,327.6,rob ver 1B,2013-12-29 16:38:00,
2013-12-29 09:39:00,56.2,13.1,29.74,WNW,290,7.5,9.5,17,-99.99,,,0.00,330.1,rob ver 1B,2013-12-29 16:39:00,
2013-12-29 09:40:00,56.2,13.0,29.74,WNW,298,7.1,8.6,17,-99.99,,,0.00,332.9,rob ver 1B,2013-12-29 16:40:00,
2013-12-29 09:41:00,56.2,12.9,29.74,WNW,285,7.6,9.6,17,-99.99,,,0.00,335.7,rob ver 1B,2013-12-29 16:41:00,
2013-12-29 09:42:00,56.1,12.7,29.74,WNW,288,8.7,10.1,17,-99.99,,,0.00,338,rob ver 1B,2013-12-29 16:42:00,
2013-12-29 09:43:00,56.1,12.9,29.74,WNW,283,8.0,9.3,18,-99.99,,,0.00,341.1,rob ver 1B,2013-12-29 16:43:00,
2013-12-29 09:44:00,56.1,13.1,29.74,WNW,285,8.1,9.1,18,-99.99,,,0.00,343.6,rob ver 1B,2013-12-29 16:44:00,
2013-12-29 09:45:00,56.1,13.3,29.74,West,280,8.8,11.1,17,-99.99,,,0.00,346.5,rob ver 1B,2013-12-29 16:45:00,
2013-12-29 09:46:00,56.1,12.8,29.74,WNW,284,9.1,10.7,17,-99.99,,,0.00,348.9,rob ver 1B,2013-12-29 16:46:00,
2013-12-29 09:47:00,56.1,13.3,29.74,WNW,283,8.4,10.1,18,-99.99,,,0.00,351.7,rob ver 1B,2013-12-29 16:47:00,
2013-12-29 09:48:00,56.1,13.1,29.74,WNW,283,9.0,10.2,18,-99.99,,,0.00,354.5,rob ver 1B,2013-12-29 16:48:00,
2013-12-29 09:49:00,56.1,13.2,29.74,WNW,289,9.0,10.0,17,-99.99,,,0.00,357.1,rob ver 1B,2013-12-29 16:49:00,
2013-12-29 09:50:00,56.1,13.3,29.74,WNW,284,8.9,11.0,18,-99.99,,,0.00,359.7,rob ver 1B,2013-12-29 16:50:00,
2013-12-29 09:51:00,56.1,14.1,29.74,WNW,285,8.3,10.7,18,-99.99,,,0.00,361.7,rob ver 1B,2013-12-29 16:51:00,
2013-12-29 09:52:00,56.2,13.5,29.74,WNW,286,10.1,12.0,18,-99.99,,,0.00,364.5,rob ver 1B,2013-12-29 16:52:00,
2013-12-29 09:53:00,56.2,14.0,29.74,WNW,284,9.0,11.3,18,-99.99,,,0.00,367.7,rob ver 1B,2013-12-29 16:53:00,
2013-12-29 09:54:00,56.2,13.6,29.74,WNW,292,9.9,11.4,17,-99.99,,,0.00,369.6,rob ver 1B,2013-12-29 16:54:00,
2013-12-29 09:55:00,56.2,13.6,29.74,WNW,288,9.3,10.8,18,-99.99,,,0.00,372.3,rob ver 1B,2013-12-29 16:55:00,
2013-12-29 09:56:00,56.2,14.1,29.74,WNW,285,8.2,9.3,18,-99.99,,,0.00,374.9,rob ver 1B,2013-12-29 16:56:00,
2013-12-29 09:57:00,56.3,13.9,29.74,WNW,284,9.0,10.3,18,-99.99,,,0.00,377.6,rob ver 1B,2013-12-29 16:57:00,
2013-12-29 09:58:00,56.4,13.9,29.74,WNW,284,8.2,10.3,18,-99.99,,,0.00,379.5,rob ver 1B,2013-12-29 16:58:00,
2013-12-29 09:59:00,56.5,13.9,29.74,West,281,8.1,9.1,18,-99.99,,,0.00,382.2,rob ver 1B,2013-12-29 16:59:00,
2013-12-29 10:00:00,56.6,14.2,29.74,West,281,8.1,10.2,18,-99.99,,,0.00,385.3,rob ver 1B,2013-12-29 17:00:00,
2013-12-29 10:01:00,56.6,14.2,29.74,West,278,8.1,10.5,18,-99.99,,,0.00,388.1,rob ver 1B,2013-12-29 17:01:00,
2013-12-29 10:02:00,56.6,13.6,29.74,West,279,9.8,11.5,17,-99.99,,,0.00,390.1,rob ver 1B,2013-12-29 17:02:00,
2013-12-29 10:03:00,56.6,13.7,29.74,WNW,283,9.2,10.5,17,-99.99,,,0.00,392.2,rob ver 1B,2013-12-29 17:03:00,
2013-12-29 10:04:00,56.5,13.4,29.74,WNW,285,9.9,11.3,17,-99.99,,,0.00,394.9,rob ver 1B,2013-12-29 17:04:00,
2013-12-29 10:05:00,56.5,13.5,29.74,WNW,284,8.8,10.9,18,-99.99,,,0.00,397.4,rob ver 1B,2013-12-29 17:05:00,
2013-12-29 10:06:00,56.6,13.8,29.74,West,280,9.8,11.7,18,-99.99,,,0.00,400,rob ver 1B,2013-12-29 17:06:00,
2013-12-29 10:07:00,56.7,13.7,29.74,WNW,282,10.2,11.6,18,-99.99,,,0.00,402,rob ver 1B,2013-12-29 17:07:00,
2013-12-29 10:08:00,56.7,14.3,29.74,West,281,8.9,11.4,18,-99.99,,,0.00,404.1,rob ver 1B,2013-12-29 17:08:00,
2013-12-29 10:09:00,56.9,14.2,29.74,West,281,9.2,11.2,18,-99.99,,,0.00,406.6,rob ver 1B,2013-12-29 17:09:00,
2013-12-29 10:10:00,57.0,14.3,29.74,West,280,9.8,12.0,17,-99.99,,,0.00,409.2,rob ver 1B,2013-12-29 17:10:00,
2013-12-29 10:11:00,57.1,14.5,29.74,WNW,282,8.6,10.0,18,-99.99,,,0.00,411.9,rob ver 1B,2013-12-29 17:11:00,
2013-12-29 10:12:00,57.3,14.6,29.74,WNW,290,9.1,11.5,18,-99.99,,,0.00,413.8,rob ver 1B,2013-12-29 17:12:00,
2013-12-29 10:13:00,57.4,14.4,29.74,WNW,285,9.1,11.4,18,-99.99,,,0.00,416.3,rob ver 1B,2013-12-29 17:13:00,
2013-12-29 10:14:00,57.6,14.0,29.74,WNW,289,10.7,12.6,17,-99.99,,,0.00,418.5,rob ver 1B,2013-12-29 17:14:00,
2013-12-29 10:15:00,57.7,13.5,29.77,WNW,289,11.2,12.8,17,-99.99,,,0.00,421.1,rob ver 1B,2013-12-29 17:15:00,
2013-12-29 10:16:00,57.7,13.8,29.74,WNW,285,10.6,12.9,17,-99.99,,,0.00,422.8,rob ver 1B,2013-12-29 17:16:00,
2013-12-29 10:17:00,57.9,14.0,29.74,WNW,291,9.6,11.4,17,-99.99,,,0.00,425.1,rob ver 1B,2013-12-29 17:17:00,
2013-12-29 10:18:00,58.0,13.4,29.77,WNW,284,11.2,13.0,17,-99.99,,,0.00,427.7,rob ver 1B,2013-12-29 17:18:00,
2013-12-29 10:19:00,58.0,14.0,29.77,WNW,284,10.8,12.7,17,-99.99,,,0.00,430.2,rob ver 1B,2013-12-29 17:19:00,
2013-12-29 10:20:00,58.2,14.3,29.74,WNW,284,9.8,12.9,17,-99.99,,,0.00,431.8,rob ver 1B,2013-12-29 17:20:00,
2013-12-29 10:21:00,58.5,14.2,29.74,WNW,291,10.0,13.3,16,-99.99,,,0.00,434.6,rob ver 1B,2013-12-29 17:21:00,
2013-12-29 10:22:00,58.6,13.0,29.74,WNW,296,11.0,13.9,16,-99.99,,,0.00,436.8,rob ver 1B,2013-12-29 17:22:00,
2013-12-29 10:23:00,58.7,13.4,29.74,WNW,290,10.9,14.3,15,-99.99,,,0.00,438.8,rob ver 1B,2013-12-29 17:23:00,
2013-12-29 10:24:00,58.8,12.9,29.74,WNW,287,10.9,14.7,16,-99.99,,,0.00,440.9,rob ver 1B,2013-12-29 17:24:00,
2013-12-29 10:25:00,58.9,12.9,29.74,WNW,292,11.5,13.6,16,-99.99,,,0.00,443.2,rob ver 1B,2013-12-29 17:25:00,
2013-12-29 10:26:00,59.0,12.8,29.74,WNW,292,11.5,13.8,15,-99.99,,,0.00,445.5,rob ver 1B,2013-12-29 17:26:00,
2013-12-29 10:27:00,59.0,12.3,29.74,WNW,292,12.0,14.2,15,-99.99,,,0.00,447.5,rob ver 1B,2013-12-29 17:27:00,
2013-12-29 10:28:00,59.0,11.8,29.74,WNW,298,12.4,13.8,15,-99.99,,,0.00,450,rob ver 1B,2013-12-29 17:28:00,
2013-12-29 10:29:00,59.0,11.8,29.74,WNW,293,13.9,17.0,15,-99.99,,,0.00,451.8,rob ver 1B,2013-12-29 17:29:00,
2013-12-29 10:30:00,58.9,11.4,29.74,WNW,298,13.3,16.1,15,-99.99,,,0.00,454.1,rob ver 1B,2013-12-29 17:30:00,
2013-12-29 10:31:00,59.0,11.5,29.74,WNW,302,12.7,14.4,15,-99.99,,,0.00,456.1,rob ver 1B,2013-12-29 17:31:00,
2013-12-29 10:32:00,59.1,11.3,29.74,WNW,294,13.6,15.4,14,-99.99,,,0.00,458.2,rob ver 1B,2013-12-29 17:32:00,
2013-12-29 10:33:00,59.0,11.1,29.74,WNW,298,13.6,15.7,14,-99.99,,,0.00,460.2,rob ver 1B,2013-12-29 17:33:00,
2013-12-29 10:34:00,59.1,11.3,29.74,WNW,299,12.6,14.9,14,-99.99,,,0.00,462,rob ver 1B,2013-12-29 17:34:00,
2013-12-29 10:35:00,59.1,11.6,29.74,WNW,295,12.3,15.7,15,-99.99,,,0.00,464.5,rob ver 1B,2013-12-29 17:35:00,
2013-12-29 10:36:00,59.1,11.6,29.74,WNW,293,12.8,15.5,15,-99.99,,,0.00,466.1,rob ver 1B,2013-12-29 17:36:00,
2013-12-29 10:37:00,59.3,11.7,29.74,WNW,294,10.9,13.2,15,-99.99,,,0.00,468.3,rob ver 1B,2013-12-29 17:37:00,
2013-12-29 10:38:00,59.4,11.7,29.74,WNW,295,12.8,15.1,14,-99.99,,,0.00,470.2,rob ver 1B,2013-12-29 17:38:00,
2013-12-29 10:39:00,59.4,11.7,29.74,WNW,297,12.8,14.9,15,-99.99,,,0.00,472.2,rob ver 1B,2013-12-29 17:39:00,
2013-12-29 10:40:00,59.4,11.6,29.74,NW,306,12.9,15.4,14,-99.99,,,0.00,474.5,rob ver 1B,2013-12-29 17:40:00,
2013-12-29 10:41:00,59.5,11.7,29.74,NW,306,12.5,14.7,14,-99.99,,,0.00,475.8,rob ver 1B,2013-12-29 17:41:00,
2013-12-29 10:42:00,59.7,12.0,29.74,WNW,303,12.5,14.9,15,-99.99,,,0.00,478.6,rob ver 1B,2013-12-29 17:42:00,
2013-12-29 10:43:00,59.8,12.1,29.74,WNW,296,13.5,17.2,15,-99.99,,,0.00,479.1,rob ver 1B,2013-12-29 17:43:00,
2013-12-29 10:44:00,59.9,12.1,29.74,WNW,295,14.3,16.1,14,-99.99,,,0.00,482.6,rob ver 1B,2013-12-29 17:44:00,
2013-12-29 10:45:00,60.0,12.1,29.74,WNW,303,13.5,16.6,14,-99.99,,,0.00,484.2,rob ver 1B,2013-12-29 17:45:00,
2013-12-29 10:46:00,60.1,12.3,29.74,WNW,297,13.4,16.0,15,-99.99,,,0.00,485.4,rob ver 1B,2013-12-29 17:46:00,
2013-12-29 10:47:00,60.2,12.3,29.74,NW,304,13.2,15.8,14,-99.99,,,0.00,487.9,rob ver 1B,2013-12-29 17:47:00,
2013-12-29 10:48:00,60.2,12.4,29.77,WNW,303,13.1,16.3,14,-99.99,,,0.00,489.5,rob ver 1B,2013-12-29 17:48:00,
2013-12-29 10:49:00,60.2,12.1,29.74,NW,308,13.7,16.7,14,-99.99,,,0.00,491.3,rob ver 1B,2013-12-29 17:49:00,
2013-12-29 10:50:00,60.1,12.3,29.74,NW,307,14.5,17.3,14,-99.99,,,0.00,493.3,rob ver 1B,2013-12-29 17:50:00,
2013-12-29 10:51:00,60.2,12.6,29.77,NW,306,11.5,15.0,15,-99.99,,,0.00,495.3,rob ver 1B,2013-12-29 17:51:00,
2013-12-29 10:52:00,60.3,13.2,29.77,WNW,298,10.0,12.5,15,-99.99,,,0.00,496.6,rob ver 1B,2013-12-29 17:52:00,
2013-12-29 10:53:00,60.3,13.1,29.74,WNW,295,10.2,12.5,15,-99.99,,,0.00,498.2,rob ver 1B,2013-12-29 17:53:00,
2013-12-29 10:54:00,60.2,13.2,29.74,WNW,294,10.6,13.8,15,-99.99,,,0.00,499.6,rob ver 1B,2013-12-29 17:54:00,
2013-12-29 10:55:00,60.3,12.4,29.74,NW,309,13.8,16.6,14,-99.99,,,0.00,501.9,rob ver 1B,2013-12-29 17:55:00,
2013-12-29 10:56:00,60.4,12.1,29.74,NW,304,14.7,18.5,14,-99.99,,,0.00,503.5,rob ver 1B,2013-12-29 17:56:00,
2013-12-29 10:57:00,60.5,12.0,29.74,NW,312,14.3,16.9,14,-99.99,,,0.00,505.3,rob ver 1B,2013-12-29 17:57:00,
2013-12-29 10:58:00,60.5,12.2,29.74,NW,311,13.1,15.9,14,-99.99,,,0.00,506.8,rob ver 1B,2013-12-29 17:58:00,
2013-12-29 10:59:00,60.7,11.9,29.74,NW,311,14.5,18.1,14,-99.99,,,0.00,508.6,rob ver 1B,2013-12-29 17:59:00,
2013-12-29 11:00:00,60.8,12.2,29.74,NW,312,12.7,15.2,14,-99.99,,,0.00,510.3,rob ver 1B,2013-12-29 18:00:00,
2013-12-29 11:01:00,61.0,12.3,29.74,NW,305,12.8,15.2,14,-99.99,,,0.00,511.8,rob ver 1B,2013-12-29 18:01:00,
2013-12-29 11:02:00,61.2,12.2,29.74,NW,306,13.1,15.1,14,-99.99,,,0.00,513.7,rob ver 1B,2013-12-29 18:02:00,
2013-12-29 11:03:00,61.2,12.3,29.74,NW,313,12.9,14.6,14,-99.99,,,0.00,515.1,rob ver 1B,2013-12-29 18:03:00,
2013-12-29 11:04:00,61.3,12.5,29.74,NW,306,10.3,12.2,14,-99.99,,,0.00,516.7,rob ver 1B,2013-12-29 18:04:00,
2013-12-29 11:05:00,61.6,12.6,29.74,WNW,297,12.4,15.5,14,-99.99,,,0.00,518.2,rob ver 1B,2013-12-29 18:05:00,
2013-12-29 11:06:00,61.7,12.4,29.74,WNW,298,12.1,14.5,14,-99.99,,,0.00,520.2,rob ver 1B,2013-12-29 18:06:00,
2013-12-29 11:07:00,61.7,12.5,29.74,NW,309,11.5,13.5,14,-99.99,,,0.00,521.6,rob ver 1B,2013-12-29 18:07:00,
2013-12-29 11:08:00,61.9,12.3,29.74,NW,309,12.2,15.5,14,-99.99,,,0.00,523,rob ver 1B,2013-12-29 18:08:00,
2013-12-29 11:09:00,61.8,12.2,29.74,NW,314,13.1,15.7,14,-99.99,,,0.00,524.3,rob ver 1B,2013-12-29 18:09:00,
2013-12-29 11:10:00,61.8,12.1,29.74,NW,307,11.8,14.6,14,-99.99,,,0.00,525.3,rob ver 1B,2013-12-29 18:10:00,
2013-12-29 11:11:00,62.1,12.6,29.74,WNW,303,11.1,14.0,13,-99.99,,,0.00,526.9,rob ver 1B,2013-12-29 18:11:00,
2013-12-29 11:12:00,62.3,12.4,29.74,WNW,299,12.4,16.0,13,-99.99,,,0.00,528.4,rob ver 1B,2013-12-29 18:12:00,
2013-12-29 11:13:00,62.5,12.5,29.74,NW,311,12.4,15.3,13,-99.99,,,0.00,529.2,rob ver 1B,2013-12-29 18:13:00,
2013-12-29 11:14:00,62.5,12.7,29.74,NW,318,10.5,12.8,13,-99.99,,,0.00,531.2,rob ver 1B,2013-12-29 18:14:00,
2013-12-29 11:15:00,62.5,12.3,29.74,NW,326,11.2,13.8,13,-99.99,,,0.00,532.9,rob ver 1B,2013-12-29 18:15:00,
2013-12-29 11:16:00,62.5,12.4,29.74,NW,317,12.6,15.5,13,-99.99,,,0.00,534.3,rob ver 1B,2013-12-29 18:16:00,
2013-12-29 11:17:00,62.4,12.2,29.74,NW,318,13.5,15.4,14,-99.99,,,0.00,535.7,rob ver 1B,2013-12-29 18:17:00,
2013-12-29 11:18:00,62.3,12.4,29.74,NW,317,11.9,15.0,13,-99.99,,,0.00,537,rob ver 1B,2013-12-29 18:18:00,
2013-12-29 11:19:00,62.3,12.1,29.74,NNW,328,11.3,13.7,13,-99.99,,,0.00,538.8,rob ver 1B,2013-12-29 18:19:00,
2013-12-29 11:20:00,62.3,12.4,29.74,NW,317,10.3,13.6,14,-99.99,,,0.00,539.3,rob ver 1B,2013-12-29 18:20:00,
2013-12-29 11:21:00,62.7,12.5,29.74,NW,305,10.5,12.0,13,-99.99,,,0.00,540.9,rob ver 1B,2013-12-29 18:21:00,
2013-12-29 11:22:00,63.1,12.5,29.74,NW,306,10.5,13.7,13,-99.99,,,0.00,541.8,rob ver 1B,2013-12-29 18:22:00,
2013-12-29 11:23:00,63.2,12.5,29.74,NW,313,11.2,13.4,13,-99.99,,,0.00,543.4,rob ver 1B,2013-12-29 18:23:00,
2013-12-29 11:24:00,63.1,12.5,29.74,NW,304,11.8,15.2,13,-99.99,,,0.00,544.2,rob ver 1B,2013-12-29 18:24:00,
2013-12-29 11:25:00,63.2,12.6,29.74,WNW,299,10.9,13.3,13,-99.99,,,0.00,545.7,rob ver 1B,2013-12-29 18:25:00,
2013-12-29 11:26:00,63.2,12.1,29.74,NW,307,12.5,14.6,13,-99.99,,,0.00,546.7,rob ver 1B,2013-12-29 18:26:00,
2013-12-29 11:27:00,63.0,12.3,29.74,NW,311,11.1,13.8,13,-99.99,,,0.00,548.4,rob ver 1B,2013-12-29 18:27:00,
2013-12-29 11:28:00,63.1,12.7,29.74,NW,315,10.2,12.6,13,-99.99,,,0.00,549,rob ver 1B,2013-12-29 18:28:00,
2013-12-29 11:29:00,63.2,12.1,29.74,NW,312,11.1,14.8,13,-99.99,,,0.00,550,rob ver 1B,2013-12-29 18:29:00,
2013-12-29 11:30:00,63.1,12.4,29.74,NW,313,10.4,12.3,13,-99.99,,,0.00,551.3,rob ver 1B,2013-12-29 18:30:00,
2013-12-29 11:31:00,63.2,12.2,29.74,NW,314,11.5,14.3,13,-99.99,,,0.00,552.5,rob ver 1B,2013-12-29 18:31:00,
2013-12-29 11:32:00,63.2,11.9,29.74,NW,312,11.7,13.9,13,-99.99,,,0.00,554.1,rob ver 1B,2013-12-29 18:32:00,
2013-12-29 11:33:00,63.2,12.4,29.74,NW,315,10.8,13.7,13,-99.99,,,0.00,555.1,rob ver 1B,2013-12-29 18:33:00,
2013-12-29 11:34:00,63.5,12.4,29.74,NW,310,10.0,12.7,13,-99.99,,,0.00,557.2,rob ver 1B,2013-12-29 18:34:00,
2013-12-29 11:35:00,63.8,11.8,29.74,WNW,303,11.6,13.9,12,-99.99,,,0.00,557.6,rob ver 1B,2013-12-29 18:35:00,
2013-12-29 11:36:00,63.7,12.0,29.74,WNW,296,11.0,13.4,13,-99.99,,,0.00,558.6,rob ver 1B,2013-12-29 18:36:00,
2013-12-29 11:37:00,63.9,11.9,29.74,NW,308,11.0,13.4,12,-99.99,,,0.00,559.5,rob ver 1B,2013-12-29 18:37:00,
2013-12-29 11:38:00,64.0,11.8,29.74,WNW,302,11.8,15.1,12,-99.99,,,0.00,560.5,rob ver 1B,2013-12-29 18:38:00,
2013-12-29 11:39:00,63.9,11.6,29.74,NW,318,10.5,13.3,12,-99.99,,,0.00,562.2,rob ver 1B,2013-12-29 18:39:00,
2013-12-29 11:40:00,63.8,11.8,29.74,NW,325,9.1,13.2,12,-99.99,,,0.00,562.7,rob ver 1B,2013-12-29 18:40:00,
2013-12-29 11:41:00,63.9,12.3,29.74,NW,312,10.1,13.7,12,-99.99,,,0.00,564.1,rob ver 1B,2013-12-29 18:41:00,
2013-12-29 11:42:00,64.0,12.3,29.74,NW,306,9.1,11.3,13,-99.99,,,0.00,564.3,rob ver 1B,2013-12-29 18:42:00,
2013-12-29 11:43:00,64.3,12.7,29.74,NW,308,8.9,11.3,12,-99.99,,,0.00,565.8,rob ver 1B,2013-12-29 18:43:00,
2013-12-29 11:44:00,64.6,12.1,29.74,NW,304,11.2,13.6,12,-99.99,,,0.00,565.4,rob ver 1B,2013-12-29 18:44:00,
2013-12-29 11:45:00,64.4,11.8,29.74,NW,306,11.3,13.7,12,-99.99,,,0.00,567.6,rob ver 1B,2013-12-29 18:45:00,
2013-12-29 11:46:00,64.3,11.6,29.74,WNW,301,11.2,13.5,12,-99.99,,,0.00,568.7,rob ver 1B,2013-12-29 18:46:00,
2013-12-29 11:47:00,64.2,11.9,29.74,NW,309,9.8,12.1,12,-99.99,,,0.00,569.4,rob ver 1B,2013-12-29 18:47:00,
2013-12-29 11:48:00,64.2,11.9,29.74,NW,307,10.1,12.7,12,-99.99,,,0.00,570.4,rob ver 1B,2013-12-29 18:48:00,
2013-12-29 11:49:00,64.2,12.0,29.74,WNW,296,10.8,14.7,12,-99.99,,,0.00,571,rob ver 1B,2013-12-29 18:49:00,
2013-12-29 11:50:00,64.3,12.0,29.74,WNW,288,9.9,11.1,12,-99.99,,,0.00,572.5,rob ver 1B,2013-12-29 18:50:00,
2013-12-29 11:51:00,64.4,11.7,29.74,WNW,291,9.3,11.1,12,-99.99,,,0.00,573.2,rob ver 1B,2013-12-29 18:51:00,
2013-12-29 11:52:00,64.5,12.3,29.74,NW,306,9.9,11.7,12,-99.99,,,0.00,573.5,rob ver 1B,2013-12-29 18:52:00,
2013-12-29 11:53:00,64.5,11.6,29.74,NW,315,9.9,12.2,12,-99.99,,,0.00,574.7,rob ver 1B,2013-12-29 18:53:00,
2013-12-29 11:54:00,64.4,11.7,29.74,NW,318,6.6,8.1,12,-99.99,,,0.00,575.6,rob ver 1B,2013-12-29 18:54:00,
2013-12-29 11:55:00,64.6,12.4,29.74,NW,313,7.1,12.5,12,-99.99,,,0.00,575.8,rob ver 1B,2013-12-29 18:55:00,
2013-12-29 11:56:00,64.8,11.8,29.74,NW,319,9.3,12.6,12,-99.99,,,0.00,576.3,rob ver 1B,2013-12-29 18:56:00,
2013-12-29 11:57:00,64.6,11.8,29.74,NNW,328,8.8,11.1,12,-99.99,,,0.00,577.5,rob ver 1B,2013-12-29 18:57:00,
2013-12-29 11:58:00,64.5,12.0,29.74,NNW,328,7.5,8.6,12,-99.99,,,0.00,578.6,rob ver 1B,2013-12-29 18:58:00,
2013-12-29 11:59:00,64.7,12.0,29.74,NW,306,9.8,12.5,12,-99.99,,,0.00,579.3,rob ver 1B,2013-12-29 18:59:00,
2013-12-29 12:00:00,64.7,11.5,29.74,NW,309,9.6,13.7,12,-99.99,,,0.00,579.4,rob ver 1B,2013-12-29 19:00:00,
2013-12-29 12:01:00,64.7,11.4,29.74,NW,306,11.8,13.6,12,-99.99,,,0.00,579.9,rob ver 1B,2013-12-29 19:01:00,
2013-12-29 12:02:00,64.8,11.7,29.74,NW,307,11.9,13.8,12,-99.99,,,0.00,581.2,rob ver 1B,2013-12-29 19:02:00,
2013-12-29 12:03:00,64.7,11.3,29.74,NW,311,9.8,11.1,12,-99.99,,,0.00,581.2,rob ver 1B,2013-12-29 19:03:00,
2013-12-29 12:04:00,64.6,11.4,29.74,NW,309,8.3,10.0,12,-99.99,,,0.00,581.9,rob ver 1B,2013-12-29 19:04:00,
2013-12-29 12:05:00,64.9,12.1,29.74,NW,319,8.4,11.0,12,-99.99,,,0.00,582.4,rob ver 1B,2013-12-29 19:05:00,
2013-12-29 12:06:00,65.0,11.4,29.74,NNW,327,7.1,9.8,12,-99.99,,,0.00,583.2,rob ver 1B,2013-12-29 19:06:00,
2013-12-29 12:07:00,65.0,11.7,29.74,NW,308,8.7,11.8,12,-99.99,,,0.00,583.2,rob ver 1B,2013-12-29 19:07:00,
2013-12-29 12:08:00,65.2,11.5,29.74,WNW,298,9.3,11.0,11,-99.99,,,0.00,583.5,rob ver 1B,2013-12-29 19:08:00,
2013-12-29 12:09:00,65.2,11.5,29.74,WNW,301,9.9,12.6,12,-99.99,,,0.00,584.5,rob ver 1B,2013-12-29 19:09:00,
2013-12-29 12:10:00,65.2,11.8,29.71,WNW,300,9.7,12.6,12,-99.99,,,0.00,584.5,rob ver 1B,2013-12-29 19:10:00,
2013-12-29 12:11:00,65.4,12.0,29.74,WNW,303,9.1,11.6,12,-99.99,,,0.00,585.2,rob ver 1B,2013-12-29 19:11:00,
2013-12-29 12:12:00,65.5,12.4,29.74,NW,318,8.1,10.3,12,-99.99,,,0.00,585.4,rob ver 1B,2013-12-29 19:12:00,
2013-12-29 12:13:00,65.6,12.0,29.71,NW,326,7.5,10.2,11,-99.99,,,0.00,586,rob ver 1B,2013-12-29 19:13:00,
2013-12-29 12:14:00,65.7,11.8,29.71,NNW,330,5.9,8.0,12,-99.99,,,0.00,586.5,rob ver 1B,2013-12-29 19:14:00,
2013-12-29 12:15:00,65.8,12.3,29.74,NW,321,6.1,8.1,12,-99.99,,,0.00,587,rob ver 1B,2013-12-29 19:15:00,
2013-12-29 12:16:00,65.9,12.1,29.71,NNW,342,7.1,8.5,12,-99.99,,,0.00,587.8,rob ver 1B,2013-12-29 19:16:00,
2013-12-29 12:17:00,65.8,11.7,29.71,NW,315,8.9,10.8,11,-99.99,,,0.00,587.5,rob ver 1B,2013-12-29 19:17:00,
2013-12-29 12:18:00,65.7,11.9,29.71,NW,320,7.9,10.1,12,-99.99,,,0.00,588.6,rob ver 1B,2013-12-29 19:18:00,
2013-12-29 12:19:00,65.9,11.5,29.71,NW,314,7.5,10.6,11,-99.99,,,0.00,588.8,rob ver 1B,2013-12-29 19:19:00,
2013-12-29 12:20:00,65.8,11.6,29.71,NW,311,8.0,10.8,11,-99.99,,,0.00,588.8,rob ver 1B,2013-12-29 19:20:00,
2013-12-29 12:21:00,65.7,11.4,29.71,WNW,299,8.7,10.0,11,-99.99,,,0.00,589.1,rob ver 1B,2013-12-29 19:21:00,
2013-12-29 12:22:00,65.9,11.9,29.71,WNW,301,8.0,10.2,11,-99.99,,,0.00,588.3,rob ver 1B,2013-12-29 19:22:00,
2013-12-29 12:23:00,66.0,11.1,29.71,NW,305,9.9,11.8,11,-99.99,,,0.00,590.1,rob ver 1B,2013-12-29 19:23:00,
2013-12-29 12:24:00,65.8,11.2,29.71,WNW,303,8.6,9.8,11,-99.99,,,0.00,590.1,rob ver 1B,2013-12-29 19:24:00,
2013-12-29 12:25:00,65.7,11.2,29.71,NNW,331,7.5,10.6,11,-99.99,,,0.00,589.4,rob ver 1B,2013-12-29 19:25:00,
2013-12-29 12:26:00,65.8,11.0,29.71,NW,312,8.3,10.6,11,-99.99,,,0.00,590.8,rob ver 1B,2013-12-29 19:26:00,
2013-12-29 12:27:00,65.6,10.9,29.71,NW,316,6.7,9.3,11,-99.99,,,0.00,590.6,rob ver 1B,2013-12-29 19:27:00,
2013-12-29 12:28:00,65.8,11.8,29.71,NW,309,8.5,10.3,11,-99.99,,,0.00,590.9,rob ver 1B,2013-12-29 19:28:00,
2013-12-29 12:29:00,66.1,11.4,29.71,NW,307,8.3,9.5,11,-99.99,,,0.00,591.2,rob ver 1B,2013-12-29 19:29:00,
2013-12-29 12:30:00,66.2,11.3,29.71,WNW,294,5.9,8.7,11,-99.99,,,0.00,591.4,rob ver 1B,2013-12-29 19:30:00,
2013-12-29 12:31:00,66.2,11.6,29.71,WNW,302,7.8,11.3,12,-99.99,,,0.00,592.1,rob ver 1B,2013-12-29 19:31:00,
2013-12-29 12:32:00,66.3,11.9,29.71,NW,323,7.3,8.9,11,-99.99,,,0.00,591.4,rob ver 1B,2013-12-29 19:32:00,
2013-12-29 12:33:00,66.4,11.4,29.71,NNW,330,7.6,9.1,11,-99.99,,,0.00,591.7,rob ver 1B,2013-12-29 19:33:00,
2013-12-29 12:34:00,66.2,11.5,29.71,NW,324,6.6,8.8,11,-99.99,,,0.00,592,rob ver 1B,2013-12-29 19:34:00,
2013-12-29 12:35:00,66.1,11.7,29.71,NW,323,5.4,7.5,11,-99.99,,,0.00,591.2,rob ver 1B,2013-12-29 19:35:00,
2013-12-29 12:36:00,66.3,12.3,29.71,West,276,7.0,9.8,11,-99.99,,,0.00,591.5,rob ver 1B,2013-12-29 19:36:00,
2013-12-29 12:37:00,66.6,12.3,29.71,NW,304,10.5,13.2,11,-99.99,,,0.00,591.4,rob ver 1B,2013-12-29 19:37:00,
2013-12-29 12:38:00,66.5,12.2,29.71,NW,315,8.1,10.8,11,-99.99,,,0.00,591.5,rob ver 1B,2013-12-29 19:38:00,
2013-12-29 12:39:00,66.5,12.2,29.71,NW,306,9.1,11.4,11,-99.99,,,0.00,591.9,rob ver 1B,2013-12-29 19:39:00,
2013-12-29 12:40:00,66.4,11.9,29.71,WNW,303,9.6,12.0,11,-99.99,,,0.00,591.9,rob ver 1B,2013-12-29 19:40:00,
2013-12-29 12:41:00,66.3,12.1,29.71,WNW,299,8.6,10.2,11,-99.99,,,0.00,591.9,rob ver 1B,2013-12-29 19:41:00,
2013-12-29 12:42:00,66.3,12.2,29.71,WNW,287,7.3,9.7,12,-99.99,,,0.00,591.4,rob ver 1B,2013-12-29 19:42:00,
2013-12-29 12:43:00,66.5,12.3,29.71,WNW,295,7.4,8.9,11,-99.99,,,0.00,592,rob ver 1B,2013-12-29 19:43:00,
2013-12-29 12:44:00,66.5,12.3,29.71,West,278,6.7,10.8,11,-99.99,,,0.00,591.9,rob ver 1B,2013-12-29 19:44:00,
2013-12-29 12:45:00,66.7,12.0,29.71,West,274,9.0,11.5,11,-99.99,,,0.00,591.7,rob ver 1B,2013-12-29 19:45:00,
2013-12-29 12:46:00,66.6,12.1,29.71,WNW,298,10.4,11.6,11,-99.99,,,0.00,592.5,rob ver 1B,2013-12-29 19:46:00,
2013-12-29 12:47:00,66.7,12.2,29.71,NW,315,8.0,10.4,11,-99.99,,,0.00,590.5,rob ver 1B,2013-12-29 19:47:00,
2013-12-29 12:48:00,66.8,12.1,29.71,NNW,344,5.7,7.5,11,-99.99,,,0.00,591.4,rob ver 1B,2013-12-29 19:48:00,
2013-12-29 12:49:00,67.0,12.0,29.71,NNW,342,6.7,9.1,11,-99.99,,,0.00,591,rob ver 1B,2013-12-29 19:49:00,
2013-12-29 12:50:00,67.0,12.1,29.71,NW,322,6.8,12.3,11,-99.99,,,0.00,590.7,rob ver 1B,2013-12-29 19:50:00,
2013-12-29 12:51:00,67.0,12.2,29.71,NW,314,10.9,13.6,11,-99.99,,,0.00,591.2,rob ver 1B,2013-12-29 19:51:00,
2013-12-29 12:52:00,66.9,12.1,29.71,NW,309,10.7,13.3,11,-99.99,,,0.00,590.7,rob ver 1B,2013-12-29 19:52:00,
2013-12-29 12:53:00,66.6,11.9,29.71,NW,316,6.7,10.2,11,-99.99,,,0.00,589.7,rob ver 1B,2013-12-29 19:53:00,
2013-12-29 12:54:00,66.7,12.2,29.71,WNW,302,7.9,11.6,11,-99.99,,,0.00,589.7,rob ver 1B,2013-12-29 19:54:00,
2013-12-29 12:55:00,66.8,12.1,29.71,WNW,298,8.8,10.9,11,-99.99,,,0.00,589.5,rob ver 1B,2013-12-29 19:55:00,
2013-12-29 12:56:00,66.7,11.8,29.71,WNW,293,8.2,11.1,11,-99.99,,,0.00,589.2,rob ver 1B,2013-12-29 19:56:00,
2013-12-29 12:57:00,66.8,11.9,29.71,WNW,296,10.7,13.8,11,-99.99,,,0.00,588.7,rob ver 1B,2013-12-29 19:57:00,
2013-12-29 12:58:00,66.7,11.8,29.71,WNW,296,9.3,13.7,11,-99.99,,,0.00,588.9,rob ver 1B,2013-12-29 19:58:00,
2013-12-29 12:59:00,66.8,11.9,29.71,WNW,292,10.7,16.7,11,-99.99,,,0.00,588.9,rob ver 1B,2013-12-29 19:59:00,
2013-12-29 13:00:00,66.8,11.9,29.71,WNW,292,12.3,14.4,11,-99.99,,,0.00,587.7,rob ver 1B,2013-12-29 20:00:00,
2013-12-29 13:01:00,66.8,11.8,29.71,WNW,285,10.5,12.9,11,-99.99,,,0.00,587.1,rob ver 1B,2013-12-29 20:01:00,
2013-12-29 13:02:00,66.8,11.8,29.71,WNW,302,10.0,12.2,11,-99.99,,,0.00,587.1,rob ver 1B,2013-12-29 20:02:00,
2013-12-29 13:03:00,66.8,11.9,29.71,WNW,302,8.1,9.6,11,-99.99,,,0.00,586.1,rob ver 1B,2013-12-29 20:03:00,
2013-12-29 13:04:00,66.9,11.9,29.71,WNW,293,10.1,13.5,11,-99.99,,,0.00,587.4,rob ver 1B,2013-12-29 20:04:00,
2013-12-29 13:05:00,66.7,11.6,29.71,WNW,294,10.8,13.4,11,-99.99,,,0.00,586.4,rob ver 1B,2013-12-29 20:05:00,
2013-12-29 13:06:00,66.6,11.5,29.71,WNW,295,8.1,9.7,11,-99.99,,,0.00,585.1,rob ver 1B,2013-12-29 20:06:00,
2013-12-29 13:07:00,66.6,12.0,29.71,WNW,303,8.3,12.2,12,-99.99,,,0.00,585.2,rob ver 1B,2013-12-29 20:07:00,
2013-12-29 13:08:00,66.9,12.2,29.71,WNW,296,8.7,11.3,11,-99.99,,,0.00,583.8,rob ver 1B,2013-12-29 20:08:00,
2013-12-29 13:09:00,67.1,11.7,29.71,West,274,9.3,11.6,11,-99.99,,,0.00,583.9,rob ver 1B,2013-12-29 20:09:00,
2013-12-29 13:10:00,67.0,12.0,29.71,WNW,292,8.5,10.6,11,-99.99,,,0.00,583.8,rob ver 1B,2013-12-29 20:10:00,
2013-12-29 13:11:00,67.2,12.0,29.71,WNW,293,8.3,12.1,11,-99.99,,,0.00,583.1,rob ver 1B,2013-12-29 20:11:00,
2013-12-29 13:12:00,67.3,11.8,29.71,WNW,285,9.5,11.7,11,-99.99,,,0.00,581.8,rob ver 1B,2013-12-29 20:12:00,
2013-12-29 13:13:00,67.2,11.6,29.71,West,276,8.6,10.9,11,-99.99,,,0.00,581.8,rob ver 1B,2013-12-29 20:13:00,
2013-12-29 13:14:00,67.1,11.2,29.71,WNW,289,7.0,10.0,11,-99.99,,,0.00,581.6,rob ver 1B,2013-12-29 20:14:00,
2013-12-29 13:15:00,67.2,11.7,29.71,WNW,285,8.9,15.6,11,-99.99,,,0.00,580.8,rob ver 1B,2013-12-29 20:15:00,
2013-12-29 13:16:00,67.3,11.3,29.71,WNW,292,10.1,12.8,11,-99.99,,,0.00,580.5,rob ver 1B,2013-12-29 20:16:00,
2013-12-29 13:17:00,67.2,11.1,29.71,WNW,293,8.1,10.9,11,-99.99,,,0.00,579.1,rob ver 1B,2013-12-29 20:17:00,
2013-12-29 13:18:00,67.2,11.4,29.71,West,276,8.1,11.1,10,-99.99,,,0.00,578.5,rob ver 1B,2013-12-29 20:18:00,
2013-12-29 13:19:00,67.2,11.1,29.71,WNW,285,8.7,10.0,11,-99.99,,,0.00,578,rob ver 1B,2013-12-29 20:19:00,
2013-12-29 13:20:00,67.2,11.4,29.71,WNW,290,7.0,9.4,11,-99.99,,,0.00,577.6,rob ver 1B,2013-12-29 20:20:00,
2013-12-29 13:21:00,67.4,11.5,29.71,WNW,302,9.8,12.3,10,-99.99,,,0.00,577.2,rob ver 1B,2013-12-29 20:21:00,
2013-12-29 13:22:00,67.4,11.2,29.71,WNW,300,8.2,11.1,10,-99.99,,,0.00,575.8,rob ver 1B,2013-12-29 20:22:00,
2013-12-29 13:23:00,67.4,11.2,29.71,WNW,300,8.8,11.7,11,-99.99,,,0.00,575.2,rob ver 1B,2013-12-29 20:23:00,
2013-12-29 13:24:00,67.4,11.6,29.68,NW,315,7.5,9.3,11,-99.99,,,0.00,576,rob ver 1B,2013-12-29 20:24:00,
2013-12-29 13:25:00,67.6,11.2,29.68,WNW,299,8.8,11.5,11,-99.99,,,0.00,573.5,rob ver 1B,2013-12-29 20:25:00,
2013-12-29 13:26:00,67.5,11.2,29.68,NW,321,9.5,11.7,11,-99.99,,,0.00,573.9,rob ver 1B,2013-12-29 20:26:00,
2013-12-29 13:27:00,67.3,10.6,29.68,NW,310,9.4,11.6,10,-99.99,,,0.00,572.1,rob ver 1B,2013-12-29 20:27:00,
2013-12-29 13:28:00,67.2,10.8,29.68,NW,305,9.7,11.1,10,-99.99,,,0.00,570.9,rob ver 1B,2013-12-29 20:28:00,
2013-12-29 13:29:00,67.2,10.9,29.68,NW,313,9.5,11.5,11,-99.99,,,0.00,570.4,rob ver 1B,2013-12-29 20:29:00,
2013-12-29 13:30:00,67.3,10.5,29.68,NW,317,9.8,12.0,10,-99.99,,,0.00,569.2,rob ver 1B,2013-12-29 20:30:00,
2013-12-29 13:31:00,67.1,10.2,29.68,WNW,301,4.7,7.1,10,-99.99,,,0.00,568.6,rob ver 1B,2013-12-29 20:31:00,
2013-12-29 13:32:00,67.3,10.9,29.68,NW,305,6.4,9.2,10,-99.99,,,0.00,567.4,rob ver 1B,2013-12-29 20:32:00,
2013-12-29 13:33:00,67.7,10.6,29.68,NW,306,7.8,10.7,10,-99.99,,,0.00,567.1,rob ver 1B,2013-12-29 20:33:00,
2013-12-29 13:34:00,67.7,10.3,29.68,WNW,302,6.7,9.5,10,-99.99,,,0.00,566,rob ver 1B,2013-12-29 20:34:00,
2013-12-29 13:35:00,67.7,10.5,29.68,NW,312,6.5,8.2,10,-99.99,,,0.00,565.3,rob ver 1B,2013-12-29 20:35:00,
2013-12-29 13:36:00,67.7,10.5,29.68,WNW,303,7.0,8.5,10,-99.99,,,0.00,564.1,rob ver 1B,2013-12-29 20:36:00,
2013-12-29 13:37:00,67.9,10.9,29.68,WNW,291,5.2,7.0,10,-99.99,,,0.00,563,rob ver 1B,2013-12-29 20:37:00,
2013-12-29 13:38:00,68.1,11.7,29.68,WNW,298,6.1,10.4,11,-99.99,,,0.00,561.8,rob ver 1B,2013-12-29 20:38:00,
2013-12-29 13:39:00,68.2,12.0,29.68,WNW,285,9.2,11.1,11,-99.99,,,0.00,561.8,rob ver 1B,2013-12-29 20:39:00,
2013-12-29 13:40:00,68.2,12.0,29.68,West,278,11.1,14.7,11,-99.99,,,0.00,560.2,rob ver 1B,2013-12-29 20:40:00,
2013-12-29 13:41:00,68.1,11.9,29.68,WNW,301,11.3,13.1,11,-99.99,,,0.00,560.7,rob ver 1B,2013-12-29 20:41:00,
2013-12-29 13:42:00,68.0,11.6,29.68,WNW,302,11.7,14.5,10,-99.99,,,0.00,558.9,rob ver 1B,2013-12-29 20:42:00,
2013-12-29 13:43:00,67.9,11.6,29.68,WNW,298,10.0,12.1,10,-99.99,,,0.00,557,rob ver 1B,2013-12-29 20:43:00,
2013-12-29 13:44:00,67.9,11.5,29.68,WNW,290,9.3,11.0,10,-99.99,,,0.00,556.2,rob ver 1B,2013-12-29 20:44:00,
2013-12-29 13:45:00,67.8,11.4,29.68,WNW,284,9.0,12.2,10,-99.99,,,0.00,555.2,rob ver 1B,2013-12-29 20:45:00,
2013-12-29 13:46:00,67.7,11.1,29.68,West,279,8.5,12.1,11,-99.99,,,0.00,554.1,rob ver 1B,2013-12-29 20:46:00,
2013-12-29 13:47:00,67.8,11.2,29.68,WNW,283,9.6,11.5,10,-99.99,,,0.00,553.6,rob ver 1B,2013-12-29 20:47:00,
2013-12-29 13:48:00,67.9,10.9,29.68,West,280,9.8,11.5,10,-99.99,,,0.00,551.6,rob ver 1B,2013-12-29 20:48:00,
2013-12-29 13:49:00,67.7,11.7,29.68,WNW,285,6.2,9.4,11,-99.99,,,0.00,549.5,rob ver 1B,2013-12-29 20:49:00,
2013-12-29 13:50:00,67.7,12.2,29.68,WNW,293,5.7,7.6,11,-99.99,,,0.00,548.6,rob ver 1B,2013-12-29 20:50:00,
2013-12-29 13:51:00,67.8,11.6,29.68,WNW,298,7.1,10.3,11,-99.99,,,0.00,547.3,rob ver 1B,2013-12-29 20:51:00,
2013-12-29 13:52:00,67.7,11.2,29.68,WNW,299,5.7,7.2,10,-99.99,,,0.00,546.2,rob ver 1B,2013-12-29 20:52:00,
2013-12-29 13:53:00,67.8,11.4,29.68,WNW,301,6.7,8.3,11,-99.99,,,0.00,544.3,rob ver 1B,2013-12-29 20:53:00,
2013-12-29 13:54:00,67.8,12.0,29.68,WNW,295,7.0,9.6,11,-99.99,,,0.00,543.7,rob ver 1B,2013-12-29 20:54:00,
2013-12-29 13:55:00,67.9,12.0,29.68,WNW,282,6.4,8.0,11,-99.99,,,0.00,542.4,rob ver 1B,2013-12-29 20:55:00,
2013-12-29 13:56:00,68.0,12.3,29.68,West,278,4.3,5.8,11,-99.99,,,0.00,541,rob ver 1B,2013-12-29 20:56:00,
2013-12-29 13:57:00,68.1,12.5,29.68,West,267,6.3,8.9,11,-99.99,,,0.00,540.7,rob ver 1B,2013-12-29 20:57:00,
2013-12-29 13:58:00,68.2,12.4,29.68,West,268,8.1,9.6,11,-99.99,,,0.00,539.2,rob ver 1B,2013-12-29 20:58:00,
2013-12-29 13:59:00,68.2,12.3,29.68,WSW,256,7.3,10.1,11,-99.99,,,0.00,537.7,rob ver 1B,2013-12-29 20:59:00,
2013-12-29 14:00:00,68.3,12.1,29.68,West,278,10.0,11.7,10,-99.99,,,0.00,534.9,rob ver 1B,2013-12-29 21:00:00,
2013-12-29 14:01:00,68.1,11.2,29.68,WNW,285,7.4,9.6,10,-99.99,,,0.00,534.6,rob ver 1B,2013-12-29 21:01:00,
2013-12-29 14:02:00,67.9,11.4,29.68,WNW,286,7.2,10.0,10,-99.99,,,0.00,532.9,rob ver 1B,2013-12-29 21:02:00,
2013-12-29 14:03:00,67.8,11.7,29.68,WNW,293,9.3,12.3,11,-99.99,,,0.00,531.6,rob ver 1B,2013-12-29 21:03:00,
2013-12-29 14:04:00,67.7,11.3,29.68,WNW,303,8.3,12.7,10,-99.99,,,0.00,530,rob ver 1B,2013-12-29 21:04:00,
2013-12-29 14:05:00,67.6,11.5,29.68,NW,319,7.2,9.3,11,-99.99,,,0.00,528.3,rob ver 1B,2013-12-29 21:05:00,
2013-12-29 14:06:00,67.7,11.8,29.68,West,273,5.5,7.9,11,-99.99,,,0.00,527,rob ver 1B,2013-12-29 21:06:00,
2013-12-29 14:07:00,67.8,11.8,29.68,West,275,8.5,10.7,11,-99.99,,,0.00,526,rob ver 1B,2013-12-29 21:07:00,
2013-12-29 14:08:00,67.9,12.3,29.68,West,270,7.7,9.4,11,-99.99,,,0.00,524.2,rob ver 1B,2013-12-29 21:08:00,
2013-12-29 14:09:00,68.1,12.0,29.68,WNW,286,8.0,10.1,10,-99.99,,,0.00,523.9,rob ver 1B,2013-12-29 21:09:00,
2013-12-29 14:10:00,68.3,11.3,29.68,WNW,297,10.3,12.4,10,-99.99,,,0.00,522.1,rob ver 1B,2013-12-29 21:10:00,
2013-12-29 14:11:00,68.4,11.5,29.68,WNW,290,11.4,13.9,11,-99.99,,,0.00,519.2,rob ver 1B,2013-12-29 21:11:00,
2013-12-29 14:12:00,68.1,11.3,29.68,WNW,290,10.4,12.7,10,-99.99,,,0.00,517.9,rob ver 1B,2013-12-29 21:12:00,
2013-12-29 14:13:00,68.0,11.3,29.68,NW,306,8.8,11.2,11,-99.99,,,0.00,516.1,rob ver 1B,2013-12-29 21:13:00,
2013-12-29 14:14:00,68.0,11.5,29.68,WNW,299,8.6,10.3,10,-99.99,,,0.00,515.1,rob ver 1B,2013-12-29 21:14:00,
2013-12-29 14:15:00,68.0,11.3,29.68,WNW,293,6.7,8.7,11,-99.99,,,0.00,512.8,rob ver 1B,2013-12-29 21:15:00,
2013-12-29 14:16:00,68.0,11.6,29.68,WNW,293,8.2,10.1,11,-99.99,,,0.00,511.3,rob ver 1B,2013-12-29 21:16:00,
2013-12-29 14:17:00,68.0,11.9,29.68,NW,308,6.6,10.6,11,-99.99,,,0.00,509,rob ver 1B,2013-12-29 21:17:00,
2013-12-29 14:18:00,68.1,12.3,29.68,West,280,8.7,13.5,11,-99.99,,,0.00,508,rob ver 1B,2013-12-29 21:18:00,
2013-12-29 14:19:00,68.2,12.1,29.68,West,280,12.0,14.2,11,-99.99,,,0.00,506.9,rob ver 1B,2013-12-29 21:19:00,
2013-12-29 14:20:00,68.1,12.1,29.68,WNW,297,10.1,12.1,11,-99.99,,,0.00,504.6,rob ver 1B,2013-12-29 21:20:00,
2013-12-29 14:21:00,68.1,12.1,29.68,WNW,299,8.5,10.6,11,-99.99,,,0.00,502.9,rob ver 1B,2013-12-29 21:21:00,
2013-12-29 14:22:00,68.0,12.3,29.68,West,268,8.8,11.6,11,-99.99,,,0.00,501.3,rob ver 1B,2013-12-29 21:22:00,
2013-12-29 14:23:00,67.9,12.1,29.68,WNW,299,6.0,9.0,11,-99.99,,,0.00,499.8,rob ver 1B,2013-12-29 21:23:00,
2013-12-29 14:24:00,67.6,12.0,29.68,NNW,328,5.7,8.7,11,-99.99,,,0.00,497.5,rob ver 1B,2013-12-29 21:24:00,
2013-12-29 14:25:00,67.7,12.1,29.68,WNW,285,5.9,8.9,11,-99.99,,,0.00,496.5,rob ver 1B,2013-12-29 21:25:00,
2013-12-29 14:26:00,67.7,12.3,29.68,West,276,6.2,8.3,11,-99.99,,,0.00,494.3,rob ver 1B,2013-12-29 21:26:00,
2013-12-29 14:27:00,67.9,12.1,29.68,WSW,256,8.3,10.4,11,-99.99,,,0.00,492.9,rob ver 1B,2013-12-29 21:27:00,
2013-12-29 14:28:00,68.0,12.0,29.68,West,263,7.7,10.9,11,-99.99,,,0.00,491.7,rob ver 1B,2013-12-29 21:28:00,
2013-12-29 14:29:00,68.1,12.2,29.68,West,266,7.7,10.1,11,-99.99,,,0.00,490.2,rob ver 1B,2013-12-29 21:29:00,
2013-12-29 14:30:00,68.2,12.3,29.68,WSW,256,7.5,9.8,11,-99.99,,,0.00,487.7,rob ver 1B,2013-12-29 21:30:00,
2013-12-29 14:31:00,68.3,11.9,29.65,WNW,286,9.7,11.7,10,-99.99,,,0.00,485.3,rob ver 1B,2013-12-29 21:31:00,
2013-12-29 14:32:00,68.3,11.7,29.65,WNW,289,8.5,10.3,10,-99.99,,,0.00,484.4,rob ver 1B,2013-12-29 21:32:00,
2013-12-29 14:33:00,68.3,11.6,29.65,WNW,291,8.8,11.8,11,-99.99,,,0.00,482.1,rob ver 1B,2013-12-29 21:33:00,
2013-12-29 14:34:00,68.3,11.8,29.65,WNW,302,9.5,11.7,10,-99.99,,,0.00,480.6,rob ver 1B,2013-12-29 21:34:00,
2013-12-29 14:35:00,68.3,11.5,29.68,WNW,295,7.0,9.6,10,-99.99,,,0.00,479.2,rob ver 1B,2013-12-29 21:35:00,
2013-12-29 14:36:00,68.1,11.4,29.65,WNW,291,6.7,8.9,10,-99.99,,,0.00,476.5,rob ver 1B,2013-12-29 21:36:00,
2013-12-29 14:37:00,68.1,11.4,29.68,WNW,291,5.4,8.5,10,-99.99,,,0.00,475,rob ver 1B,2013-12-29 21:37:00,
2013-12-29 14:38:00,68.2,10.9,29.68,WNW,300,5.5,9.5,10,-99.99,,,0.00,472.2,rob ver 1B,2013-12-29 21:38:00,
2013-12-29 14:39:00,68.4,10.8,29.68,WNW,288,6.2,8.1,10,-99.99,,,0.00,470.6,rob ver 1B,2013-12-29 21:39:00,
2013-12-29 14:40:00,68.4,10.5,29.65,NW,305,7.9,10.4,9,-99.99,,,0.00,469.1,rob ver 1B,2013-12-29 21:40:00,
2013-12-29 14:41:00,68.4,10.1,29.68,NW,315,8.7,10.8,9,-99.99,,,0.00,466.6,rob ver 1B,2013-12-29 21:41:00,
2013-12-29 14:42:00,68.4,9.8,29.68,NW,315,7.7,10.6,10,-99.99,,,0.00,465.6,rob ver 1B,2013-12-29 21:42:00,
2013-12-29 14:43:00,68.5,9.8,29.68,NW,317,7.1,8.7,10,-99.99,,,0.00,463,rob ver 1B,2013-12-29 21:43:00,
2013-12-29 14:44:00,68.4,9.6,29.65,NW,304,4.5,6.2,10,-99.99,,,0.00,460.4,rob ver 1B,2013-12-29 21:44:00,
2013-12-29 14:45:00,68.5,9.9,29.65,NNW,330,4.6,7.0,9,-99.99,,,0.00,458.7,rob ver 1B,2013-12-29 21:45:00,
2013-12-29 14:46:00,68.6,9.9,29.68,NNW,340,3.1,5.4,10,-99.99,,,0.00,456.9,rob ver 1B,2013-12-29 21:46:00,
2013-12-29 14:47:00,68.8,9.9,29.65,North,350,4.5,5.6,9,-99.99,,,0.00,453.9,rob ver 1B,2013-12-29 21:47:00,
2013-12-29 14:48:00,68.9,10.3,29.65,North,357,3.3,5.1,10,-99.99,,,0.00,452.8,rob ver 1B,2013-12-29 21:48:00,
2013-12-29 14:49:00,69.0,10.4,29.65,NNW,340,3.1,5.2,10,-99.99,,,0.00,450,rob ver 1B,2013-12-29 21:49:00,
2013-12-29 14:50:00,69.3,10.8,29.68,WNW,297,4.5,7.7,10,-99.99,,,0.00,448.2,rob ver 1B,2013-12-29 21:50:00,
2013-12-29 14:51:00,69.3,10.8,29.68,WNW,297,5.4,7.4,10,-99.99,,,0.00,445.5,rob ver 1B,2013-12-29 21:51:00,
2013-12-29 14:52:00,69.1,10.7,29.65,WNW,291,4.0,6.4,10,-99.99,,,0.00,443.5,rob ver 1B,2013-12-29 21:52:00,
2013-12-29 14:53:00,69.1,11.3,29.65,WNW,284,5.9,9.3,10,-99.99,,,0.00,441.4,rob ver 1B,2013-12-29 21:53:00,
2013-12-29 14:54:00,69.0,11.0,29.68,WNW,282,6.7,9.1,10,-99.99,,,0.00,438.9,rob ver 1B,2013-12-29 21:54:00,
2013-12-29 14:55:00,68.8,10.6,29.68,West,267,6.4,8.4,10,-99.99,,,0.00,437,rob ver 1B,2013-12-29 21:55:00,
2013-12-29 14:56:00,68.6,10.5,29.68,West,267,5.1,6.5,10,-99.99,,,0.00,435.1,rob ver 1B,2013-12-29 21:56:00,
2013-12-29 14:57:00,68.6,10.8,29.68,West,271,3.9,4.9,10,-99.99,,,0.00,432.8,rob ver 1B,2013-12-29 21:57:00,
2013-12-29 14:58:00,68.6,11.2,29.68,WNW,282,6.4,8.7,10,-99.99,,,0.00,430.4,rob ver 1B,2013-12-29 21:58:00,
2013-12-29 14:59:00,68.7,10.9,29.68,WNW,289,7.1,8.3,10,-99.99,,,0.00,428.7,rob ver 1B,2013-12-29 21:59:00,
2013-12-29 15:00:00,68.7,11.0,29.68,WNW,285,6.7,8.7,10,-99.99,,,0.00,426.4,rob ver 1B,2013-12-29 22:00:00,
2013-12-29 15:01:00,68.6,10.8,29.65,West,278,6.1,7.9,10,-99.99,,,0.00,424.6,rob ver 1B,2013-12-29 22:01:00,
2013-12-29 15:02:00,68.6,10.8,29.68,WNW,287,7.9,9.7,10,-99.99,,,0.00,422.4,rob ver 1B,2013-12-29 22:02:00,
2013-12-29 15:03:00,68.5,10.8,29.68,WNW,300,5.9,7.8,10,-99.99,,,0.00,419.8,rob ver 1B,2013-12-29 22:03:00,
2013-12-29 15:04:00,68.4,10.7,29.65,West,277,5.8,7.9,10,-99.99,,,0.00,417.2,rob ver 1B,2013-12-29 22:04:00,
2013-12-29 15:05:00,68.5,11.0,29.65,West,271,5.4,7.7,10,-99.99,,,0.00,415.2,rob ver 1B,2013-12-29 22:05:00,
2013-12-29 15:06:00,68.6,11.4,29.68,WNW,288,6.2,8.5,10,-99.99,,,0.00,413,rob ver 1B,2013-12-29 22:06:00,
2013-12-29 15:07:00,68.8,11.5,29.65,NW,318,6.2,9.8,10,-99.99,,,0.00,410.6,rob ver 1B,2013-12-29 22:07:00,
2013-12-29 15:08:00,68.9,11.4,29.65,NW,322,6.7,8.9,10,-99.99,,,0.00,407.6,rob ver 1B,2013-12-29 22:08:00,
2013-12-29 15:09:00,69.0,11.1,29.65,NW,321,7.0,9.4,10,-99.99,,,0.00,405.3,rob ver 1B,2013-12-29 22:09:00,
2013-12-29 15:10:00,68.9,10.7,29.65,NW,316,6.7,7.9,10,-99.99,,,0.00,402.7,rob ver 1B,2013-12-29 22:10:00,
2013-12-29 15:11:00,68.8,11.0,29.65,NW,324,4.7,5.8,10,-99.99,,,0.00,400,rob ver 1B,2013-12-29 22:11:00,
2013-12-29 15:12:00,68.9,11.5,29.65,NW,317,6.0,7.8,10,-99.99,,,0.00,398.2,rob ver 1B,2013-12-29 22:12:00,
2013-12-29 15:13:00,68.9,11.2,29.65,NW,318,7.0,8.2,10,-99.99,,,0.00,396.1,rob ver 1B,2013-12-29 22:13:00,
2013-12-29 15:14:00,68.8,11.3,29.65,NW,314,5.2,6.7,10,-99.99,,,0.00,393.9,rob ver 1B,2013-12-29 22:14:00,
2013-12-29 15:15:00,68.9,11.1,29.65,NW,325,4.2,5.8,10,-99.99,,,0.00,390.8,rob ver 1B,2013-12-29 22:15:00,
2013-12-29 15:16:00,68.9,10.9,29.65,NW,323,3.5,5.0,10,-99.99,,,0.00,388.8,rob ver 1B,2013-12-29 22:16:00,
2013-12-29 15:17:00,68.8,10.8,29.65,NNW,333,3.5,4.7,10,-99.99,,,0.00,386.2,rob ver 1B,2013-12-29 22:17:00,
2013-12-29 15:18:00,68.8,10.7,29.65,WNW,301,3.6,5.9,10,-99.99,,,0.00,383.5,rob ver 1B,2013-12-29 22:18:00,
2013-12-29 15:19:00,68.9,10.9,29.65,West,281,2.6,3.3,10,-99.99,,,0.00,381.2,rob ver 1B,2013-12-29 22:19:00,
2013-12-29 15:20:00,69.0,11.4,29.65,WNW,303,1.8,2.7,10,-99.99,,,0.00,378.7,rob ver 1B,2013-12-29 22:20:00,
2013-12-29 15:21:00,69.3,11.0,29.65,NW,326,2.0,4.4,10,-99.99,,,0.00,375.6,rob ver 1B,2013-12-29 22:21:00,
2013-12-29 15:22:00,69.3,11.3,29.65,NW,319,4.7,9.8,10,-99.99,,,0.00,373.5,rob ver 1B,2013-12-29 22:22:00,
2013-12-29 15:23:00,69.2,10.9,29.65,NW,306,6.9,8.8,10,-99.99,,,0.00,371.3,rob ver 1B,2013-12-29 22:23:00,
2013-12-29 15:24:00,69.0,10.9,29.65,West,269,6.0,8.1,10,-99.99,,,0.00,368.4,rob ver 1B,2013-12-29 22:24:00,
2013-12-29 15:25:00,68.9,10.8,29.65,West,277,5.8,8.0,10,-99.99,,,0.00,365.6,rob ver 1B,2013-12-29 22:25:00,
2013-12-29 15:26:00,68.8,10.7,29.65,West,277,4.7,6.0,10,-99.99,,,0.00,363.1,rob ver 1B,2013-12-29 22:26:00,
2013-12-29 15:27:00,68.8,11.0,29.65,West,276,5.9,10.0,10,-99.99,,,0.00,360.1,rob ver 1B,2013-12-29 22:27:00,
2013-12-29 15:28:00,68.7,10.7,29.65,WNW,282,7.5,9.5,10,-99.99,,,0.00,357.8,rob ver 1B,2013-12-29 22:28:00,
2013-12-29 15:29:00,68.6,11.1,29.65,WNW,300,4.0,6.2,10,-99.99,,,0.00,355.2,rob ver 1B,2013-12-29 22:29:00,
2013-12-29 15:30:00,68.7,11.4,29.65,WNW,292,3.0,4.2,10,-99.99,,,0.00,352.7,rob ver 1B,2013-12-29 22:30:00,
2013-12-29 15:31:00,69.0,11.3,29.65,West,274,4.6,6.2,10,-99.99,,,0.00,349.9,rob ver 1B,2013-12-29 22:31:00,
2013-12-29 15:32:00,69.1,11.5,29.65,NW,314,4.1,5.4,10,-99.99,,,0.00,346.8,rob ver 1B,2013-12-29 22:32:00,
2013-12-29 15:33:00,69.1,11.2,29.65,NNW,331,8.0,9.8,10,-99.99,,,0.00,344.8,rob ver 1B,2013-12-29 22:33:00,
2013-12-29 15:34:00,68.9,11.2,29.65,NNW,338,5.1,7.2,10,-99.99,,,0.00,341.8,rob ver 1B,2013-12-29 22:34:00,
2013-12-29 15:35:00,68.9,11.3,29.65,North,357,5.2,7.1,10,-99.99,,,0.00,339.3,rob ver 1B,2013-12-29 22:35:00,
2013-12-29 15:36:00,69.0,11.2,29.65,NNW,332,4.1,5.9,10,-99.99,,,0.00,336.7,rob ver 1B,2013-12-29 22:36:00,
2013-12-29 15:37:00,69.1,11.6,29.65,NW,310,5.1,7.1,10,-99.99,,,0.00,334.2,rob ver 1B,2013-12-29 22:37:00,
2013-12-29 15:38:00,69.2,10.9,29.65,WNW,296,6.2,7.6,10,-99.99,,,0.00,331.6,rob ver 1B,2013-12-29 22:38:00,
2013-12-29 15:39:00,69.0,10.9,29.65,West,265,4.4,5.5,10,-99.99,,,0.00,328.8,rob ver 1B,2013-12-29 22:39:00,
2013-12-29 15:40:00,68.9,11.0,29.65,WNW,289,4.5,6.4,10,-99.99,,,0.00,326.1,rob ver 1B,2013-12-29 22:40:00,
2013-12-29 15:41:00,68.8,11.1,29.65,West,276,5.8,7.0,10,-99.99,,,0.00,323.3,rob ver 1B,2013-12-29 22:41:00,
2013-12-29 15:42:00,68.8,11.0,29.65,West,281,6.8,7.9,10,-99.99,,,0.00,320.7,rob ver 1B,2013-12-29 22:42:00,
2013-12-29 15:43:00,68.7,11.0,29.65,WNW,295,6.9,8.5,10,-99.99,,,0.00,318.2,rob ver 1B,2013-12-29 22:43:00,
2013-12-29 15:44:00,68.7,10.8,29.65,WNW,293,5.1,5.9,10,-99.99,,,0.00,315.6,rob ver 1B,2013-12-29 22:44:00,
2013-12-29 15:45:00,68.7,10.9,29.65,WNW,295,3.6,4.9,10,-99.99,,,0.00,313,rob ver 1B,2013-12-29 22:45:00,
2013-12-29 15:46:00,68.8,11.2,29.65,WNW,290,4.9,7.5,10,-99.99,,,0.00,309.7,rob ver 1B,2013-12-29 22:46:00,
2013-12-29 15:47:00,68.8,10.8,29.68,West,279,4.7,6.5,10,-99.99,,,0.00,307,rob ver 1B,2013-12-29 22:47:00,
2013-12-29 15:48:00,68.8,11.0,29.65,WNW,289,6.0,8.2,10,-99.99,,,0.00,304.9,rob ver 1B,2013-12-29 22:48:00,
2013-12-29 15:49:00,68.8,10.8,29.65,WNW,284,5.9,7.3,10,-99.99,,,0.00,301.7,rob ver 1B,2013-12-29 22:49:00,
2013-12-29 15:50:00,68.8,10.8,29.68,WNW,293,3.9,4.9,10,-99.99,,,0.00,299.1,rob ver 1B,2013-12-29 22:50:00,
2013-12-29 15:51:00,68.8,10.7,29.68,WNW,290,3.8,4.9,10,-99.99,,,0.00,296.3,rob ver 1B,2013-12-29 22:51:00,
2013-12-29 15:52:00,68.8,10.7,29.65,WNW,299,3.5,5.2,10,-99.99,,,0.00,293.7,rob ver 1B,2013-12-29 22:52:00,
2013-12-29 15:53:00,68.8,10.7,29.65,WNW,285,3.4,4.6,10,-99.99,,,0.00,290.5,rob ver 1B,2013-12-29 22:53:00,
2013-12-29 15:54:00,68.9,10.8,29.65,West,270,2.4,3.2,10,-99.99,,,0.00,287.4,rob ver 1B,2013-12-29 22:54:00,
2013-12-29 15:55:00,69.0,11.0,29.68,West,270,2.1,3.1,10,-99.99,,,0.00,285.2,rob ver 1B,2013-12-29 22:55:00,
2013-12-29 15:56:00,69.1,11.4,29.65,WNW,296,5.2,7.4,10,-99.99,,,0.00,281.9,rob ver 1B,2013-12-29 22:56:00,
2013-12-29 15:57:00,69.2,11.2,29.65,WNW,287,5.4,6.8,10,-99.99,,,0.00,279.3,rob ver 1B,2013-12-29 22:57:00,
2013-12-29 15:58:00,69.2,11.2,29.65,WNW,287,6.3,7.8,10,-99.99,,,0.00,276.3,rob ver 1B,2013-12-29 22:58:00,
2013-12-29 15:59:00,69.0,10.5,29.65,WNW,286,6.8,8.7,10,-99.99,,,0.00,273.7,rob ver 1B,2013-12-29 22:59:00,
2013-12-29 16:00:00,68.9,10.7,29.65,WNW,291,5.8,7.6,10,-99.99,,,0.00,270.9,rob ver 1B,2013-12-29 23:00:00,
2013-12-29 16:01:00,68.8,10.8,29.65,WNW,301,6.8,8.9,10,-99.99,,,0.00,267.4,rob ver 1B,2013-12-29 23:01:00,
2013-12-29 16:02:00,68.8,11.2,29.65,WNW,287,6.6,8.2,10,-99.99,,,0.00,264.8,rob ver 1B,2013-12-29 23:02:00,
2013-12-29 16:03:00,68.9,10.9,29.65,West,276,8.3,9.4,10,-99.99,,,0.00,262.2,rob ver 1B,2013-12-29 23:03:00,
2013-12-29 16:04:00,68.8,10.6,29.65,West,271,7.4,9.1,10,-99.99,,,0.00,259.5,rob ver 1B,2013-12-29 23:04:00,
2013-12-29 16:05:00,68.7,10.7,29.65,WNW,286,6.1,7.7,10,-99.99,,,0.00,256.2,rob ver 1B,2013-12-29 23:05:00,
2013-12-29 16:06:00,68.7,10.6,29.65,West,269,5.6,6.4,10,-99.99,,,0.00,253.6,rob ver 1B,2013-12-29 23:06:00,
2013-12-29 16:07:00,68.7,10.7,29.65,West,259,5.5,6.5,10,-99.99,,,0.00,250.6,rob ver 1B,2013-12-29 23:07:00,
2013-12-29 16:08:00,68.7,10.6,29.65,West,264,5.8,8.6,10,-99.99,,,0.00,247.7,rob ver 1B,2013-12-29 23:08:00,
2013-12-29 16:09:00,68.8,10.8,29.65,West,279,7.1,10.8,10,-99.99,,,0.00,244.5,rob ver 1B,2013-12-29 23:09:00,
2013-12-29 16:10:00,68.8,10.9,29.65,WNW,290,4.1,5.8,10,-99.99,,,0.00,241.7,rob ver 1B,2013-12-29 23:10:00,
2013-12-29 16:11:00,68.9,10.5,29.65,WNW,284,3.7,4.8,10,-99.99,,,0.00,238.4,rob ver 1B,2013-12-29 23:11:00,
2013-12-29 16:12:00,69.0,11.2,29.65,West,279,5.3,7.2,10,-99.99,,,0.00,235.9,rob ver 1B,2013-12-29 23:12:00,
2013-12-29 16:13:00,69.0,10.7,29.65,WNW,293,7.0,8.1,10,-99.99,,,0.00,233.1,rob ver 1B,2013-12-29 23:13:00,
2013-12-29 16:14:00,68.9,10.4,29.65,WNW,296,5.6,7.0,10,-99.99,,,0.00,230.5,rob ver 1B,2013-12-29 23:14:00,
2013-12-29 16:15:00,68.8,10.4,29.65,WNW,286,6.1,7.2,10,-99.99,,,0.00,227.9,rob ver 1B,2013-12-29 23:15:00,
2013-12-29 16:16:00,68.8,10.4,29.65,WNW,294,5.4,6.3,10,-99.99,,,0.00,224.9,rob ver 1B,2013-12-29 23:16:00,
2013-12-29 16:17:00,68.7,10.4,29.65,NW,304,3.6,4.6,10,-99.99,,,0.00,221.9,rob ver 1B,2013-12-29 23:17:00,
2013-12-29 16:18:00,68.9,10.7,29.65,NW,306,3.9,6.0,10,-99.99,,,0.00,219.3,rob ver 1B,2013-12-29 23:18:00,
2013-12-29 16:19:00,68.9,10.4,29.65,NW,307,4.2,5.2,10,-99.99,,,0.00,216,rob ver 1B,2013-12-29 23:19:00,
2013-12-29 16:20:00,68.9,11.0,29.65,WNW,297,7.2,9.8,10,-99.99,,,0.00,213.4,rob ver 1B,2013-12-29 23:20:00,
2013-12-29 16:21:00,68.9,10.3,29.65,WNW,302,8.5,9.7,10,-99.99,,,0.00,210.7,rob ver 1B,2013-12-29 23:21:00,
2013-12-29 16:22:00,68.7,10.2,29.65,NW,307,6.9,8.0,10,-99.99,,,0.00,207.4,rob ver 1B,2013-12-29 23:22:00,
2013-12-29 16:23:00,68.7,10.3,29.65,NW,305,5.7,6.8,10,-99.99,,,0.00,204.8,rob ver 1B,2013-12-29 23:23:00,
2013-12-29 16:24:00,68.7,10.6,29.65,WNW,288,5.7,7.0,10,-99.99,,,0.00,201.5,rob ver 1B,2013-12-29 23:24:00,
2013-12-29 16:25:00,68.7,10.3,29.65,WNW,289,5.6,7.1,10,-99.99,,,0.00,198.9,rob ver 1B,2013-12-29 23:25:00,
2013-12-29 16:26:00,68.7,10.4,29.65,West,276,6.0,7.2,9,-99.99,,,0.00,196.2,rob ver 1B,2013-12-29 23:26:00,
2013-12-29 16:27:00,68.7,10.3,29.65,West,273,4.8,5.6,10,-99.99,,,0.00,193.1,rob ver 1B,2013-12-29 23:27:00,
2013-12-29 16:28:00,68.8,10.6,29.65,WNW,284,6.2,8.0,10,-99.99,,,0.00,190.3,rob ver 1B,2013-12-29 23:28:00,
2013-12-29 16:29:00,68.7,10.7,29.65,WNW,292,6.3,7.0,10,-99.99,,,0.00,187.5,rob ver 1B,2013-12-29 23:29:00,
2013-12-29 16:30:00,68.7,10.2,29.65,NW,310,6.4,7.7,10,-99.99,,,0.00,184.3,rob ver 1B,2013-12-29 23:30:00,
2013-12-29 16:31:00,68.6,10.6,29.65,WNW,288,6.0,7.9,10,-99.99,,,0.00,181.7,rob ver 1B,2013-12-29 23:31:00,
2013-12-29 16:32:00,68.6,10.1,29.65,West,273,7.6,9.7,9,-99.99,,,0.00,178.4,rob ver 1B,2013-12-29 23:32:00,
2013-12-29 16:33:00,68.6,10.3,29.65,West,277,7.8,9.8,10,-99.99,,,0.00,175.8,rob ver 1B,2013-12-29 23:33:00,
2013-12-29 16:34:00,68.6,10.4,29.65,West,276,6.6,8.4,10,-99.99,,,0.00,173.1,rob ver 1B,2013-12-29 23:34:00,
2013-12-29 16:35:00,68.6,10.5,29.65,WNW,286,6.4,7.9,10,-99.99,,,0.00,170,rob ver 1B,2013-12-29 23:35:00,
2013-12-29 16:36:00,68.6,9.9,29.65,WNW,294,7.5,8.6,9,-99.99,,,0.00,167.2,rob ver 1B,2013-12-29 23:36:00,
2013-12-29 16:37:00,68.5,10.1,29.65,WNW,294,7.2,8.7,10,-99.99,,,0.00,164.6,rob ver 1B,2013-12-29 23:37:00,
2013-12-29 16:38:00,68.4,10.2,29.65,West,270,6.1,8.5,10,-99.99,,,0.00,161.9,rob ver 1B,2013-12-29 23:38:00,
2013-12-29 16:39:00,68.4,9.9,29.65,West,265,6.5,7.4,10,-99.99,,,0.00,159.3,rob ver 1B,2013-12-29 23:39:00,
2013-12-29 16:40:00,68.4,9.8,29.65,West,271,5.7,6.3,10,-99.99,,,0.00,156.6,rob ver 1B,2013-12-29 23:40:00,
2013-12-29 16:41:00,68.4,9.9,29.65,West,270,5.1,6.0,10,-99.99,,,0.00,153.8,rob ver 1B,2013-12-29 23:41:00,
2013-12-29 16:42:00,68.4,9.9,29.65,West,268,7.1,8.4,10,-99.99,,,0.00,151,rob ver 1B,2013-12-29 23:42:00,
2013-12-29 16:43:00,68.4,10.5,29.65,WNW,292,7.8,9.8,10,-99.99,,,0.00,148.6,rob ver 1B,2013-12-29 23:43:00,
2013-12-29 16:44:00,68.3,10.6,29.65,NW,310,5.2,6.5,10,-99.99,,,0.00,145.4,rob ver 1B,2013-12-29 23:44:00,
2013-12-29 16:45:00,68.3,10.7,29.65,NW,310,5.5,6.4,10,-99.99,,,0.00,143,rob ver 1B,2013-12-29 23:45:00,
2013-12-29 16:46:00,68.3,10.3,29.65,NW,307,5.6,6.4,10,-99.99,,,0.00,140.2,rob ver 1B,2013-12-29 23:46:00,
2013-12-29 16:47:00,68.3,10.3,29.65,WNW,295,6.1,7.2,10,-99.99,,,0.00,136.9,rob ver 1B,2013-12-29 23:47:00,
2013-12-29 16:48:00,68.3,10.1,29.65,WNW,301,6.6,7.2,10,-99.99,,,0.00,134.2,rob ver 1B,2013-12-29 23:48:00,
2013-12-29 16:49:00,68.3,10.2,29.65,WNW,298,6.5,7.7,10,-99.99,,,0.00,131.6,rob ver 1B,2013-12-29 23:49:00,
2013-12-29 16:50:00,68.3,10.0,29.65,WNW,290,5.8,6.9,10,-99.99,,,0.00,128.4,rob ver 1B,2013-12-29 23:50:00,
2013-12-29 16:51:00,68.3,9.9,29.65,WNW,295,5.6,6.5,10,-99.99,,,0.00,125.6,rob ver 1B,2013-12-29 23:51:00,
2013-12-29 16:52:00,68.2,10.3,29.65,WNW,298,5.2,6.2,10,-99.99,,,0.00,122.7,rob ver 1B,2013-12-29 23:52:00,
2013-12-29 16:53:00,68.2,10.5,29.65,WNW,297,5.4,7.0,10,-99.99,,,0.00,119.7,rob ver 1B,2013-12-29 23:53:00,
2013-12-29 16:54:00,68.2,10.8,29.65,WNW,288,6.3,7.8,10,-99.99,,,0.00,116.7,rob ver 1B,2013-12-29 23:54:00,
2013-12-29 16:55:00,68.1,11.1,29.65,WNW,283,6.7,7.9,10,-99.99,,,0.00,114.4,rob ver 1B,2013-12-29 23:55:00,
2013-12-29 16:56:00,68.0,11.3,29.65,West,281,7.0,8.5,11,-99.99,,,0.00,111.8,rob ver 1B,2013-12-29 23:56:00,
2013-12-29 16:57:00,67.9,11.5,29.65,West,281,7.5,9.3,11,-99.99,,,0.00,109.6,rob ver 1B,2013-12-29 23:57:00,
2013-12-29 16:58:00,67.8,11.7,29.65,West,279,7.0,8.3,11,-99.99,,,0.00,107.2,rob ver 1B,2013-12-29 23:58:00,
2013-12-29 16:59:00,67.7,12.0,29.65,West,278,7.1,8.3,11,-99.99,,,0.00,104.4,rob ver 1B,2013-12-29 23:59:00,
2013-12-29 17:00:00,67.6,12.3,29.65,West,273,7.1,9.2,11,-99.99,,,0.00,101.6,rob ver 1B,2013-12-30 00:00:00,
2013-12-29 17:01:00,67.5,12.6,29.65,West,273,6.7,9.3,11,-99.99,,,0.00,98.9,rob ver 1B,2013-12-30 00:01:00,
2013-12-29 17:02:00,67.4,12.7,29.65,West,266,7.2,9.6,11,-99.99,,,0.00,96,rob ver 1B,2013-12-30 00:02:00,
2013-12-29 17:03:00,67.3,12.7,29.65,West,264,7.1,9.0,11,-99.99,,,0.00,93.3,rob ver 1B,2013-12-30 00:03:00,
2013-12-29 17:04:00,67.2,12.9,29.65,West,261,6.6,8.6,12,-99.99,,,0.00,90.7,rob ver 1B,2013-12-30 00:04:00,
2013-12-29 17:05:00,67.1,13.1,29.65,West,263,6.2,7.6,12,-99.99,,,0.00,88.7,rob ver 1B,2013-12-30 00:05:00,
2013-12-29 17:06:00,67.0,13.1,29.65,West,263,6.4,7.8,12,-99.99,,,0.00,86.1,rob ver 1B,2013-12-30 00:06:00,
2013-12-29 17:07:00,66.9,13.4,29.65,West,260,5.3,7.2,12,-99.99,,,0.00,83.8,rob ver 1B,2013-12-30 00:07:00,
2013-12-29 17:08:00,66.8,13.3,29.65,West,262,5.6,6.7,12,-99.99,,,0.00,80.6,rob ver 1B,2013-12-30 00:08:00,
2013-12-29 17:09:00,66.7,13.3,29.65,West,263,5.5,6.8,12,-99.99,,,0.00,78,rob ver 1B,2013-12-30 00:09:00,
2013-12-29 17:10:00,66.7,13.3,29.65,West,261,6.0,7.0,12,-99.99,,,0.00,75.5,rob ver 1B,2013-12-30 00:10:00,
2013-12-29 17:11:00,66.6,12.9,29.65,West,264,6.9,8.0,12,-99.99,,,0.00,72.9,rob ver 1B,2013-12-30 00:11:00,
2013-12-29 17:12:00,66.5,12.9,29.65,West,265,5.9,7.0,12,-99.99,,,0.00,70.2,rob ver 1B,2013-12-30 00:12:00,
2013-12-29 17:13:00,66.4,13.2,29.65,West,266,5.2,6.3,12,-99.99,,,0.00,67.93,rob ver 1B,2013-12-30 00:13:00,
2013-12-29 17:14:00,66.3,13.1,29.65,West,263,5.4,6.7,12,-99.99,,,0.00,65.63,rob ver 1B,2013-12-30 00:14:00,
2013-12-29 17:15:00,66.3,12.9,29.65,West,264,6.0,7.4,12,-99.99,,,0.00,63.65,rob ver 1B,2013-12-30 00:15:00,
2013-12-29 17:16:00,66.2,13.1,29.65,West,264,5.0,6.5,12,-99.99,,,0.00,61.01,rob ver 1B,2013-12-30 00:16:00,
2013-12-29 17:17:00,66.2,13.0,29.65,West,262,5.5,6.6,12,-99.99,,,0.00,58.54,rob ver 1B,2013-12-30 00:17:00,
2013-12-29 17:18:00,66.1,13.0,29.65,West,264,5.3,6.6,12,-99.99,,,0.00,56.23,rob ver 1B,2013-12-30 00:18:00,
2013-12-29 17:19:00,66.1,13.1,29.65,West,262,5.8,7.4,12,-99.99,,,0.00,53.75,rob ver 1B,2013-12-30 00:19:00,
2013-12-29 17:20:00,66.0,13.0,29.65,West,260,5.3,6.3,12,-99.99,,,0.00,51.45,rob ver 1B,2013-12-30 00:20:00,
2013-12-29 17:21:00,65.9,13.3,29.65,West,262,4.8,5.5,12,-99.99,,,0.00,48.97,rob ver 1B,2013-12-30 00:21:00,
2013-12-29 17:22:00,65.8,13.5,29.65,West,259,4.1,4.8,12,-99.99,,,0.00,46.5,rob ver 1B,2013-12-30 00:22:00,
2013-12-29 17:23:00,65.7,13.6,29.65,WSW,258,4.0,5.0,13,-99.99,,,0.00,43.86,rob ver 1B,2013-12-30 00:23:00,
2013-12-29 17:24:00,65.6,13.7,29.65,West,260,3.7,4.4,13,-99.99,,,0.00,41.39,rob ver 1B,2013-12-30 00:24:00,
2013-12-29 17:25:00,65.5,13.8,29.65,West,259,3.6,4.3,13,-99.99,,,0.00,39.24,rob ver 1B,2013-12-30 00:25:00,
2013-12-29 17:26:00,65.4,14.0,29.65,WSW,258,3.7,4.3,13,-99.99,,,0.00,36.93,rob ver 1B,2013-12-30 00:26:00,
2013-12-29 17:27:00,65.2,14.0,29.65,WSW,258,3.8,5.1,13,-99.99,,,0.00,34.63,rob ver 1B,2013-12-30 00:27:00,
2013-12-29 17:28:00,65.1,14.0,29.65,West,259,4.0,4.7,13,-99.99,,,0.00,32.32,rob ver 1B,2013-12-30 00:28:00,
2013-12-29 17:29:00,65.0,14.1,29.65,West,260,3.9,4.5,13,-99.99,,,0.00,29.68,rob ver 1B,2013-12-30 00:29:00,
2013-12-29 17:30:00,64.8,14.1,29.65,West,260,3.7,4.3,13,-99.99,,,0.00,27.37,rob ver 1B,2013-12-30 00:30:00,
2013-12-29 17:31:00,64.7,14.0,29.65,West,261,3.7,4.3,13,-99.99,,,0.00,25.06,rob ver 1B,2013-12-30 00:31:00,
2013-12-29 17:32:00,64.5,14.1,29.65,West,262,3.5,4.1,13,-99.99,,,0.00,23.08,rob ver 1B,2013-12-30 00:32:00,
2013-12-29 17:33:00,64.4,14.1,29.65,West,262,3.5,4.1,13,-99.99,,,0.00,21.11,rob ver 1B,2013-12-30 00:33:00,
2013-12-29 17:34:00,64.3,14.1,29.65,West,263,3.4,4.1,14,-99.99,,,0.00,18.47,rob ver 1B,2013-12-30 00:34:00,
2013-12-29 17:35:00,64.1,14.2,29.65,West,262,3.3,3.9,14,-99.99,,,0.00,13.85,rob ver 1B,2013-12-30 00:35:00,
2013-12-29 17:36:00,63.9,14.2,29.65,West,264,3.4,3.9,14,-99.99,,,0.00,9.23,rob ver 1B,2013-12-30 00:36:00,
2013-12-29 17:37:00,63.8,14.2,29.65,West,263,3.2,3.8,14,-99.99,,,0.00,7.59,rob ver 1B,2013-12-30 00:37:00,
2013-12-29 17:38:00,63.6,14.1,29.65,West,262,3.2,3.5,14,-99.99,,,0.00,6.926,rob ver 1B,2013-12-30 00:38:00,
2013-12-29 17:39:00,63.5,14.1,29.65,West,262,3.0,3.4,14,-99.99,,,0.00,6.266,rob ver 1B,2013-12-30 00:39:00,
2013-12-29 17:40:00,63.4,14.1,29.65,West,261,2.9,3.5,14,-99.99,,,0.00,5.936,rob ver 1B,2013-12-30 00:40:00,
2013-12-29 17:41:00,63.3,14.0,29.68,West,261,3.0,3.4,14,-99.99,,,0.00,5.277,rob ver 1B,2013-12-30 00:41:00,
2013-12-29 17:42:00,63.2,14.0,29.65,West,260,2.9,3.3,14,-99.99,,,0.00,4.617,rob ver 1B,2013-12-30 00:42:00,
2013-12-29 17:43:00,63.2,13.9,29.65,WSW,257,3.1,3.9,14,-99.99,,,0.00,3.958,rob ver 1B,2013-12-30 00:43:00,
2013-12-29 17:44:00,63.1,14.1,29.65,West,259,3.0,3.5,14,-99.99,,,0.00,3.628,rob ver 1B,2013-12-30 00:44:00,
2013-12-29 17:45:00,63.0,14.2,29.68,West,260,2.9,3.2,14,-99.99,,,0.00,3.298,rob ver 1B,2013-12-30 00:45:00,
2013-12-29 17:46:00,62.9,14.1,29.65,West,261,2.7,3.4,14,-99.99,,,0.00,2.803,rob ver 1B,2013-12-30 00:46:00,
2013-12-29 17:47:00,62.7,14.2,29.65,WSW,256,2.8,3.2,14,-99.99,,,0.00,2.638,rob ver 1B,2013-12-30 00:47:00,
2013-12-29 17:48:00,62.6,14.2,29.65,WSW,255,2.8,3.1,14,-99.99,,,0.00,1.979,rob ver 1B,2013-12-30 00:48:00,
2013-12-29 17:49:00,62.5,14.1,29.65,WSW,257,2.7,3.0,14,-99.99,,,0.00,1.649,rob ver 1B,2013-12-30 00:49:00,
2013-12-29 17:50:00,62.4,14.1,29.65,West,259,2.5,2.8,14,-99.99,,,0.00,1.319,rob ver 1B,2013-12-30 00:50:00,
2013-12-29 17:51:00,62.4,14.1,29.65,West,262,2.5,2.8,15,-99.99,,,0.00,1.319,rob ver 1B,2013-12-30 00:51:00,
2013-12-29 17:52:00,62.3,14.1,29.65,West,259,2.3,2.7,15,-99.99,,,0.00,.989,rob ver 1B,2013-12-30 00:52:00,
2013-12-29 17:53:00,62.3,14.1,29.65,West,259,2.4,2.7,15,-99.99,,,0.00,.989,rob ver 1B,2013-12-30 00:53:00,
2013-12-29 17:54:00,62.2,14.3,29.65,WSW,242,2.3,2.4,15,-99.99,,,0.00,.989,rob ver 1B,2013-12-30 00:54:00,
2013-12-29 17:55:00,62.1,14.4,29.65,SW,234,2.2,2.5,15,-99.99,,,0.00,.989,rob ver 1B,2013-12-30 00:55:00,
2013-12-29 17:56:00,62.0,15.0,29.65,SW,230,2.5,2.8,15,-99.99,,,0.00,.66,rob ver 1B,2013-12-30 00:56:00,
2013-12-29 17:57:00,61.8,15.4,29.65,SW,228,2.9,3.2,16,-99.99,,,0.00,.33,rob ver 1B,2013-12-30 00:57:00,
2013-12-29 17:58:00,61.6,15.2,29.65,SW,232,3.1,3.4,16,-99.99,,,0.00,.33,rob ver 1B,2013-12-30 00:58:00,
2013-12-29 17:59:00,61.5,14.6,29.68,SW,231,3.2,3.4,15,-99.99,,,0.00,.33,rob ver 1B,2013-12-30 00:59:00,
2013-12-29 18:00:00,61.4,14.1,29.65,SW,234,2.9,3.2,15,-99.99,,,0.00,.33,rob ver 1B,2013-12-30 01:00:00,
2013-12-29 18:01:00,61.3,14.6,29.65,WSW,242,2.6,2.8,16,-99.99,,,0.00,.33,rob ver 1B,2013-12-30 01:01:00,
2013-12-29 18:02:00,61.2,15.3,29.65,WSW,243,2.6,3.0,16,-99.99,,,0.00,.165,rob ver 1B,2013-12-30 01:02:00,
2013-12-29 18:03:00,61.1,15.5,29.65,WSW,242,2.8,3.4,15,-99.99,,,0.00,0,rob ver 1B,2013-12-30 01:03:00,
2013-12-29 18:04:00,60.9,15.1,29.65,WSW,247,2.9,3.7,16,-99.99,,,0.00,0,rob ver 1B,2013-12-30 01:04:00,
2013-12-29 18:05:00,60.9,15.0,29.65,WSW,249,2.9,3.5,16,-99.99,,,0.00,0,rob ver 1B,2013-12-30 01:05:00,
2013-12-29 18:06:00,60.8,14.0,29.65,WSW,247,3.2,3.8,15,-99.99,,,0.00,0,rob ver 1B,2013-12-30 01:06:00,
2013-12-29 18:07:00,60.8,13.7,29.65,WSW,249,3.2,3.8,15,-99.99,,,0.00,0,rob ver 1B,2013-12-30 01:07:00,
2013-12-29 18:08:00,60.8,14.0,29.65,WSW,252,2.8,3.2,16,-99.99,,,0.00,0,rob ver 1B,2013-12-30 01:08:00,
2013-12-29 18:09:00,60.8,15.4,29.65,WSW,253,2.5,2.9,16,-99.99,,,0.00,0,rob ver 1B,2013-12-30 01:09:00,
2013-12-29 18:10:00,60.7,15.6,29.65,WSW,253,2.5,2.7,17,-99.99,,,0.00,0,rob ver 1B,2013-12-30 01:10:00,
2013-12-29 18:11:00,60.5,15.8,29.65,WSW,251,2.8,3.2,17,-99.99,,,0.00,0,rob ver 1B,2013-12-30 01:11:00,
2013-12-29 18:12:00,60.4,15.2,29.65,WSW,257,3.2,3.5,16,-99.99,,,0.00,0,rob ver 1B,2013-12-30 01:12:00,
2013-12-29 18:13:00,60.3,14.7,29.65,West,261,3.1,3.4,16,-99.99,,,0.00,0,rob ver 1B,2013-12-30 01:13:00,
2013-12-29 18:14:00,60.3,15.0,29.65,West,266,2.9,3.4,16,-99.99,,,0.00,0,rob ver 1B,2013-12-30 01:14:00,
2013-12-29 18:15:00,60.3,15.1,29.65,West,269,2.9,3.2,16,-99.99,,,0.00,0,rob ver 1B,2013-12-30 01:15:00,
2013-12-29 18:16:00,60.3,15.2,29.65,West,281,2.7,3.1,16,-99.99,,,0.00,0,rob ver 1B,2013-12-30 01:16:00,
2013-12-29 18:17:00,60.3,14.8,29.65,West,281,2.7,3.0,16,-99.99,,,0.00,0,rob ver 1B,2013-12-30 01:17:00,
2013-12-29 18:18:00,60.3,14.7,29.65,WNW,282,2.7,2.9,16,-99.99,,,0.00,0,rob ver 1B,2013-12-30 01:18:00,
2013-12-29 18:19:00,60.3,14.6,29.65,WNW,285,2.8,3.1,16,-99.99,,,0.00,0,rob ver 1B,2013-12-30 01:19:00,
2013-12-29 18:20:00,60.3,14.5,29.65,West,274,3.0,3.8,16,-99.99,,,0.00,0,rob ver 1B,2013-12-30 01:20:00,
2013-12-29 18:21:00,60.3,14.2,29.65,West,279,2.9,3.6,16,-99.99,,,0.00,0,rob ver 1B,2013-12-30 01:21:00,
2013-12-29 18:22:00,60.3,14.6,29.65,West,273,2.7,3.2,16,-99.99,,,0.00,0,rob ver 1B,2013-12-30 01:22:00,
2013-12-29 18:23:00,60.3,13.3,29.65,West,266,2.7,2.8,15,-99.99,,,0.00,0,rob ver 1B,2013-12-30 01:23:00,
2013-12-29 18:24:00,60.3,13.2,29.65,West,262,2.7,3.1,15,-99.99,,,0.00,0,rob ver 1B,2013-12-30 01:24:00,
2013-12-29 18:25:00,60.3,13.3,29.65,WSW,255,2.4,2.6,15,-99.99,,,0.00,0,rob ver 1B,2013-12-30 01:25:00,
2013-12-29 18:26:00,60.3,13.6,29.65,WSW,254,2.5,2.9,15,-99.99,,,0.00,0,rob ver 1B,2013-12-30 01:26:00,
2013-12-29 18:27:00,60.3,13.8,29.65,WSW,250,2.4,2.8,15,-99.99,,,0.00,0,rob ver 1B,2013-12-30 01:27:00,
2013-12-29 18:28:00,60.2,13.3,29.65,WSW,241,2.4,2.6,15,-99.99,,,0.00,0,rob ver 1B,2013-12-30 01:28:00,
2013-12-29 18:29:00,60.2,13.9,29.68,WSW,238,2.3,2.6,16,-99.99,,,0.00,0,rob ver 1B,2013-12-30 01:29:00,
2013-12-29 18:30:00,60.1,14.2,29.65,SW,232,2.4,2.7,16,-99.99,,,0.00,0,rob ver 1B,2013-12-30 01:30:00,
2013-12-29 18:31:00,60.0,14.3,29.65,SW,232,2.4,2.8,16,-99.99,,,0.00,0,rob ver 1B,2013-12-30 01:31:00,
2013-12-29 18:32:00,60.0,14.6,29.68,SW,229,2.4,2.7,16,-99.99,,,0.00,0,rob ver 1B,2013-12-30 01:32:00,
2013-12-29 18:33:00,59.9,14.7,29.68,SW,230,2.4,2.7,16,-99.99,,,0.00,0,rob ver 1B,2013-12-30 01:33:00,
2013-12-29 18:34:00,59.8,14.9,29.68,SW,227,2.4,2.7,17,-99.99,,,0.00,0,rob ver 1B,2013-12-30 01:34:00,
2013-12-29 18:35:00,59.7,15.0,29.68,SW,228,2.7,2.9,17,-99.99,,,0.00,0,rob ver 1B,2013-12-30 01:35:00,
2013-12-29 18:36:00,59.6,14.9,29.68,SW,228,2.4,2.8,17,-99.99,,,0.00,0,rob ver 1B,2013-12-30 01:36:00,
2013-12-29 18:37:00,59.5,14.9,29.68,SW,224,1.9,2.3,17,-99.99,,,0.00,0,rob ver 1B,2013-12-30 01:37:00,
2013-12-29 18:38:00,59.4,15.0,29.68,SSW,213,1.3,1.6,17,-99.99,,,0.00,0,rob ver 1B,2013-12-30 01:38:00,
2013-12-29 18:39:00,59.3,15.1,29.68,SSE,157,0.8,1.5,17,-99.99,,,0.00,0,rob ver 1B,2013-12-30 01:39:00,
2013-12-29 18:40:00,59.0,16.1,29.68,ENE,77,4.9,7.5,19,-99.99,,,0.00,0,rob ver 1B,2013-12-30 01:40:00,
2013-12-29 18:41:00,58.3,17.3,29.68,ENE,68,6.2,7.7,20,-99.99,,,0.00,0,rob ver 1B,2013-12-30 01:41:00,
2013-12-29 18:42:00,57.7,17.2,29.68,ENE,72,6.3,8.1,19,-99.99,,,0.00,0,rob ver 1B,2013-12-30 01:42:00,
2013-12-29 18:43:00,57.7,16.6,29.68,ENE,77,6.4,7.3,19,-99.99,,,0.00,0,rob ver 1B,2013-12-30 01:43:00,
2013-12-29 18:44:00,57.9,15.8,29.68,East,83,4.3,5.8,18,-99.99,,,0.00,0,rob ver 1B,2013-12-30 01:44:00,
2013-12-29 18:45:00,58.2,15.0,29.68,East,80,2.0,2.6,17,-99.99,,,0.00,0,rob ver 1B,2013-12-30 01:45:00,
2013-12-29 18:46:00,58.6,15.1,29.68,East,82,1.9,2.1,17,-99.99,,,0.00,0,rob ver 1B,2013-12-30 01:46:00,
2013-12-29 18:47:00,58.7,15.0,29.68,ESE,115,1.7,2.4,17,-99.99,,,0.00,0,rob ver 1B,2013-12-30 01:47:00,
2013-12-29 18:48:00,58.9,14.7,29.68,ESE,123,2.7,3.1,17,-99.99,,,0.00,0,rob ver 1B,2013-12-30 01:48:00,
2013-12-29 18:49:00,59.0,14.5,29.68,SE,126,2.7,3.0,17,-99.99,,,0.00,0,rob ver 1B,2013-12-30 01:49:00,
2013-12-29 18:50:00,59.1,14.8,29.68,SE,130,2.9,3.2,17,-99.99,,,0.00,0,rob ver 1B,2013-12-30 01:50:00,
2013-12-29 18:51:00,59.1,14.9,29.68,ESE,120,3.0,3.3,16,-99.99,,,0.00,0,rob ver 1B,2013-12-30 01:51:00,
2013-12-29 18:52:00,59.2,14.0,29.68,ESE,119,2.8,3.1,16,-99.99,,,0.00,0,rob ver 1B,2013-12-30 01:52:00,
2013-12-29 18:53:00,59.4,12.8,29.68,SE,128,2.5,2.9,15,-99.99,,,0.00,0,rob ver 1B,2013-12-30 01:53:00,
2013-12-29 18:54:00,59.6,12.9,29.68,SE,131,2.4,2.7,15,-99.99,,,0.00,0,rob ver 1B,2013-12-30 01:54:00,
2013-12-29 18:55:00,59.7,13.6,29.68,SE,129,2.4,2.6,15,-99.99,,,0.00,0,rob ver 1B,2013-12-30 01:55:00,
2013-12-29 18:56:00,59.7,13.5,29.68,ESE,118,2.0,2.4,16,-99.99,,,0.00,0,rob ver 1B,2013-12-30 01:56:00,
2013-12-29 18:57:00,59.6,13.8,29.68,ESE,104,1.8,2.1,16,-99.99,,,0.00,0,rob ver 1B,2013-12-30 01:57:00,
2013-12-29 18:58:00,59.6,12.9,29.68,SE,137,1.5,1.8,15,-99.99,,,0.00,0,rob ver 1B,2013-12-30 01:58:00,
2013-12-29 18:59:00,59.7,12.5,29.68,SSE,162,1.8,2.5,15,-99.99,,,0.00,0,rob ver 1B,2013-12-30 01:59:00,
2013-12-29 19:00:00,59.8,12.9,29.68,SSE,147,1.6,1.9,16,-99.99,,,0.00,0,rob ver 1B,2013-12-30 02:00:00,
2013-12-29 19:01:00,59.7,14.2,29.68,East,91,1.3,1.6,16,-99.99,,,0.00,0,rob ver 1B,2013-12-30 02:01:00,
2013-12-29 19:02:00,59.5,13.7,29.68,East,94,1.4,1.8,15,-99.99,,,0.00,0,rob ver 1B,2013-12-30 02:02:00,
2013-12-29 19:03:00,59.5,12.9,29.68,East,99,1.3,1.7,15,-99.99,,,0.00,0,rob ver 1B,2013-12-30 02:03:00,
2013-12-29 19:04:00,59.6,12.8,29.68,East,80,1.5,1.9,15,-99.99,,,0.00,0,rob ver 1B,2013-12-30 02:04:00,
2013-12-29 19:05:00,59.7,12.6,29.68,ENE,64,1.4,1.7,15,-99.99,,,0.00,0,rob ver 1B,2013-12-30 02:05:00,
2013-12-29 19:06:00,59.9,12.8,29.68,ENE,66,1.5,1.8,15,-99.99,,,0.00,0,rob ver 1B,2013-12-30 02:06:00,
2013-12-29 19:07:00,60.0,12.9,29.68,ENE,71,1.4,1.5,15,-99.99,,,0.00,0,rob ver 1B,2013-12-30 02:07:00,
2013-12-29 19:08:00,60.1,12.8,29.68,East,83,0.9,1.4,15,-99.99,,,0.00,0,rob ver 1B,2013-12-30 02:08:00,
2013-12-29 19:09:00,60.2,12.9,29.68,East,94,1.1,1.3,15,-99.99,,,0.00,0,rob ver 1B,2013-12-30 02:09:00,
2013-12-29 19:10:00,60.3,13.0,29.68,ESE,118,0.9,1.2,15,-99.99,,,0.00,0,rob ver 1B,2013-12-30 02:10:00,
2013-12-29 19:11:00,60.4,13.0,29.68,ESE,118,1.4,3.1,15,-99.99,,,0.00,0,rob ver 1B,2013-12-30 02:11:00,
2013-12-29 19:12:00,60.2,14.0,29.68,ENE,60,3.3,4.6,16,-99.99,,,0.00,0,rob ver 1B,2013-12-30 02:12:00,
2013-12-29 19:13:00,59.9,14.1,29.68,ENE,72,2.5,3.2,16,-99.99,,,0.00,0,rob ver 1B,2013-12-30 02:13:00,
2013-12-29 19:14:00,60.0,13.3,29.68,ENE,69,2.6,2.9,15,-99.99,,,0.00,0,rob ver 1B,2013-12-30 02:14:00,
2013-12-29 19:15:00,60.1,13.5,29.68,ENE,73,2.5,2.9,16,-99.99,,,0.00,0,rob ver 1B,2013-12-30 02:15:00,
2013-12-29 19:16:00,60.1,14.1,29.68,East,86,1.4,2.5,16,-99.99,,,0.00,0,rob ver 1B,2013-12-30 02:16:00,
2013-12-29 19:17:00,60.1,14.9,29.68,NE,45,0.6,1.1,17,-99.99,,,0.00,0,rob ver 1B,2013-12-30 02:17:00,
2013-12-29 19:18:00,59.8,15.1,29.68,East,81,0.4,0.7,17,-99.99,,,0.00,0,rob ver 1B,2013-12-30 02:18:00,
2013-12-29 19:19:00,59.6,15.2,29.68,ENE,63,0.7,1.0,17,-99.99,,,0.00,0,rob ver 1B,2013-12-30 02:19:00,
2013-12-29 19:20:00,59.3,15.3,29.68,North,5,1.5,2.8,18,-99.99,,,0.00,0,rob ver 1B,2013-12-30 02:20:00,
2013-12-29 19:21:00,58.9,16.3,29.68,North,354,2.4,2.9,18,-99.99,,,0.00,0,rob ver 1B,2013-12-30 02:21:00,
2013-12-29 19:22:00,58.6,16.4,29.68,NNE,15,1.7,2.3,18,-99.99,,,0.00,0,rob ver 1B,2013-12-30 02:22:00,
2013-12-29 19:23:00,58.6,16.3,29.68,NE,47,1.6,2.0,18,-99.99,,,0.00,0,rob ver 1B,2013-12-30 02:23:00,
2013-12-29 19:24:00,58.7,16.1,29.68,NE,51,1.9,2.5,18,-99.99,,,0.00,0,rob ver 1B,2013-12-30 02:24:00,
2013-12-29 19:25:00,58.8,15.5,29.68,NE,46,1.1,1.6,18,-99.99,,,0.00,0,rob ver 1B,2013-12-30 02:25:00,
2013-12-29 19:26:00,58.9,16.5,29.68,North,350,1.3,2.8,20,-99.99,,,0.00,0,rob ver 1B,2013-12-30 02:26:00,
2013-12-29 19:27:00,58.5,17.8,29.68,NW,326,2.2,3.0,19,-99.99,,,0.00,0,rob ver 1B,2013-12-30 02:27:00,
2013-12-29 19:28:00,58.1,16.9,29.68,NW,326,1.2,1.7,19,-99.99,,,0.00,0,rob ver 1B,2013-12-30 02:28:00,
2013-12-29 19:29:00,58.0,17.1,29.68,NNW,345,1.8,2.3,20,-99.99,,,0.00,0,rob ver 1B,2013-12-30 02:29:00,
2013-12-29 19:30:00,58.1,17.7,29.68,NNE,14,2.2,2.7,20,-99.99,,,0.00,0,rob ver 1B,2013-12-30 02:30:00,
2013-12-29 19:31:00,58.2,17.9,29.68,NE,42,1.8,2.1,20,-99.99,,,0.00,0,rob ver 1B,2013-12-30 02:31:00,
2013-12-29 19:32:00,58.3,17.7,29.68,ENE,67,1.2,1.4,20,-99.99,,,0.00,0,rob ver 1B,2013-12-30 02:32:00,
2013-12-29 19:33:00,58.6,17.5,29.68,NE,42,1.3,1.7,20,-99.99,,,0.00,0,rob ver 1B,2013-12-30 02:33:00,
2013-12-29 19:34:00,58.8,18.0,29.68,NE,45,1.6,1.8,20,-99.99,,,0.00,0,rob ver 1B,2013-12-30 02:34:00,
2013-12-29 19:35:00,58.6,18.0,29.68,North,2,2.9,3.6,20,-99.99,,,0.00,0,rob ver 1B,2013-12-30 02:35:00,
2013-12-29 19:36:00,58.1,18.3,29.68,NNW,342,3.5,4.0,21,-99.99,,,0.00,0,rob ver 1B,2013-12-30 02:36:00,
2013-12-29 19:37:00,58.0,18.6,29.68,NNW,348,2.9,3.6,21,-99.99,,,0.00,0,rob ver 1B,2013-12-30 02:37:00,
2013-12-29 19:38:00,58.2,18.7,29.68,North,357,2.0,2.4,21,-99.99,,,0.00,0,rob ver 1B,2013-12-30 02:38:00,
2013-12-29 19:39:00,58.4,18.6,29.68,NNW,343,1.3,1.7,20,-99.99,,,0.00,0,rob ver 1B,2013-12-30 02:39:00,
2013-12-29 19:40:00,58.7,17.8,29.68,SSW,192,0.8,1.5,18,-99.99,,,0.00,0,rob ver 1B,2013-12-30 02:40:00,
2013-12-29 19:41:00,58.7,18.5,29.68,WNW,293,2.0,2.6,20,-99.99,,,0.00,0,rob ver 1B,2013-12-30 02:41:00,
2013-12-29 19:42:00,58.5,18.8,29.68,NNW,340,1.3,2.3,21,-99.99,,,0.00,0,rob ver 1B,2013-12-30 02:42:00,
2013-12-29 19:43:00,58.3,19.4,29.68,SSW,198,0.7,1.4,22,-99.99,,,0.00,0,rob ver 1B,2013-12-30 02:43:00,
2013-12-29 19:44:00,57.8,19.3,29.68,North,352,1.2,1.6,21,-99.99,,,0.00,0,rob ver 1B,2013-12-30 02:44:00,
2013-12-29 19:45:00,57.5,19.0,29.68,NNW,328,0.7,1.4,22,-99.99,,,0.00,0,rob ver 1B,2013-12-30 02:45:00,
2013-12-29 19:46:00,57.2,19.4,29.68,NW,312,2.0,3.0,22,-99.99,,,0.00,0,rob ver 1B,2013-12-30 02:46:00,
2013-12-29 19:47:00,56.8,19.3,29.68,North,2,1.2,1.7,23,-99.99,,,0.00,0,rob ver 1B,2013-12-30 02:47:00,
2013-12-29 19:48:00,56.5,19.5,29.68,NNE,19,1.3,1.6,23,-99.99,,,0.00,0,rob ver 1B,2013-12-30 02:48:00,
2013-12-29 19:49:00,56.4,19.5,29.68,NNE,29,2.0,2.8,23,-99.99,,,0.00,0,rob ver 1B,2013-12-30 02:49:00,
2013-12-29 19:50:00,56.5,19.6,29.68,NE,35,2.9,3.5,23,-99.99,,,0.00,0,rob ver 1B,2013-12-30 02:50:00,
2013-12-29 19:51:00,56.5,19.5,29.68,NNE,26,2.9,3.4,23,-99.99,,,0.00,0,rob ver 1B,2013-12-30 02:51:00,
2013-12-29 19:52:00,56.4,19.6,29.68,NNE,19,2.8,3.1,23,-99.99,,,0.00,0,rob ver 1B,2013-12-30 02:52:00,
2013-12-29 19:53:00,56.5,19.7,29.68,North,10,2.4,2.8,23,-99.99,,,0.00,0,rob ver 1B,2013-12-30 02:53:00,
2013-12-29 19:54:00,56.6,19.7,29.68,North,353,2.2,2.5,23,-99.99,,,0.00,0,rob ver 1B,2013-12-30 02:54:00,
2013-12-29 19:55:00,56.4,19.8,29.68,North,1,2.0,2.4,23,-99.99,,,0.00,0,rob ver 1B,2013-12-30 02:55:00,
2013-12-29 19:56:00,56.3,19.9,29.68,North,2,2.4,2.6,23,-99.99,,,0.00,0,rob ver 1B,2013-12-30 02:56:00,
2013-12-29 19:57:00,56.3,19.9,29.68,North,5,2.1,2.5,23,-99.99,,,0.00,0,rob ver 1B,2013-12-30 02:57:00,
2013-12-29 19:58:00,56.2,19.9,29.68,North,0,1.7,2.0,23,-99.99,,,0.00,0,rob ver 1B,2013-12-30 02:58:00,
2013-12-29 19:59:00,56.2,19.8,29.68,NNW,347,1.2,1.4,23,-99.99,,,0.00,0,rob ver 1B,2013-12-30 02:59:00,
2013-12-29 20:00:00,56.2,19.9,29.68,NNW,331,1.3,1.6,24,-99.99,,,0.00,0,rob ver 1B,2013-12-30 03:00:00,
2013-12-29 20:01:00,56.3,20.0,29.68,NW,321,1.8,2.1,23,-99.99,,,0.00,0,rob ver 1B,2013-12-30 03:01:00,
2013-12-29 20:02:00,56.5,20.1,29.68,NNW,329,1.9,2.1,23,-99.99,,,0.00,0,rob ver 1B,2013-12-30 03:02:00,
2013-12-29 20:03:00,56.6,20.1,29.68,NW,318,2.3,2.5,23,-99.99,,,0.00,0,rob ver 1B,2013-12-30 03:03:00,
2013-12-29 20:04:00,56.8,20.1,29.68,NW,318,2.3,2.6,23,-99.99,,,0.00,0,rob ver 1B,2013-12-30 03:04:00,
2013-12-29 20:05:00,56.9,20.1,29.68,NW,315,1.8,2.1,23,-99.99,,,0.00,0,rob ver 1B,2013-12-30 03:05:00,
2013-12-29 20:06:00,57.2,19.9,29.68,NW,306,1.5,1.7,22,-99.99,,,0.00,0,rob ver 1B,2013-12-30 03:06:00,
2013-12-29 20:07:00,57.5,19.6,29.68,WNW,289,1.6,3.6,23,-99.99,,,0.00,0,rob ver 1B,2013-12-30 03:07:00,
2013-12-29 20:08:00,57.7,20.3,29.68,WNW,287,3.1,4.3,23,-99.99,,,0.00,0,rob ver 1B,2013-12-30 03:08:00,
2013-12-29 20:09:00,57.5,20.2,29.68,WNW,290,1.0,1.7,23,-99.99,,,0.00,0,rob ver 1B,2013-12-30 03:09:00,
2013-12-29 20:10:00,57.4,19.7,29.68,NW,313,2.0,3.8,23,-99.99,,,0.00,0,rob ver 1B,2013-12-30 03:10:00,
2013-12-29 20:11:00,57.5,20.4,29.68,WNW,291,1.6,2.9,22,-99.99,,,0.00,0,rob ver 1B,2013-12-30 03:11:00,
2013-12-29 20:12:00,57.3,19.7,29.68,West,271,1.2,1.9,23,-99.99,,,0.00,0,rob ver 1B,2013-12-30 03:12:00,
2013-12-29 20:13:00,57.1,20.6,29.68,WSW,242,2.0,2.4,24,-99.99,,,0.00,0,rob ver 1B,2013-12-30 03:13:00,
2013-12-29 20:14:00,56.8,20.8,29.68,SW,229,1.8,2.3,24,-99.99,,,0.00,0,rob ver 1B,2013-12-30 03:14:00,
2013-12-29 20:15:00,56.3,20.5,29.68,SW,218,2.1,2.3,24,-99.99,,,0.00,0,rob ver 1B,2013-12-30 03:15:00,
2013-12-29 20:16:00,56.0,20.2,29.68,SW,231,2.2,2.4,24,-99.99,,,0.00,0,rob ver 1B,2013-12-30 03:16:00,
2013-12-29 20:17:00,55.9,20.1,29.68,SW,228,2.4,2.8,24,-99.99,,,0.00,0,rob ver 1B,2013-12-30 03:17:00,
2013-12-29 20:18:00,55.9,19.6,29.68,SW,224,3.0,3.2,23,-99.99,,,0.00,0,rob ver 1B,2013-12-30 03:18:00,
2013-12-29 20:19:00,56.1,18.8,29.68,SW,229,3.1,3.2,22,-99.99,,,0.00,0,rob ver 1B,2013-12-30 03:19:00,
2013-12-29 20:20:00,56.3,18.2,29.68,SW,232,3.0,3.1,22,-99.99,,,0.00,0,rob ver 1B,2013-12-30 03:20:00,
2013-12-29 20:21:00,56.4,18.1,29.68,SW,234,3.1,3.5,21,-99.99,,,0.00,0,rob ver 1B,2013-12-30 03:21:00,
2013-12-29 20:22:00,56.4,17.7,29.68,WSW,238,3.3,3.7,22,-99.99,,,0.00,0,rob ver 1B,2013-12-30 03:22:00,
2013-12-29 20:23:00,56.3,18.3,29.68,WSW,250,2.6,2.9,22,-99.99,,,0.00,0,rob ver 1B,2013-12-30 03:23:00,
2013-12-29 20:24:00,56.1,19.2,29.68,West,273,2.3,2.7,24,-99.99,,,0.00,0,rob ver 1B,2013-12-30 03:24:00,
2013-12-29 20:25:00,55.7,18.9,29.68,West,267,2.4,2.9,23,-99.99,,,0.00,0,rob ver 1B,2013-12-30 03:25:00,
2013-12-29 20:26:00,55.5,18.1,29.68,WSW,258,2.6,3.1,22,-99.99,,,0.00,0,rob ver 1B,2013-12-30 03:26:00,
2013-12-29 20:27:00,55.4,18.9,29.68,West,278,2.1,2.6,24,-99.99,,,0.00,0,rob ver 1B,2013-12-30 03:27:00,
2013-12-29 20:28:00,55.2,18.1,29.68,West,271,1.9,2.6,23,-99.99,,,0.00,0,rob ver 1B,2013-12-30 03:28:00,
2013-12-29 20:29:00,55.1,18.5,29.68,West,278,1.7,1.9,23,-99.99,,,0.00,0,rob ver 1B,2013-12-30 03:29:00,
2013-12-29 20:30:00,55.0,19.0,29.68,WNW,295,1.6,1.9,24,-99.99,,,0.00,0,rob ver 1B,2013-12-30 03:30:00,
2013-12-29 20:31:00,54.8,18.9,29.68,WNW,285,1.3,1.5,23,-99.99,,,0.00,0,rob ver 1B,2013-12-30 03:31:00,
2013-12-29 20:32:00,54.6,18.9,29.68,NW,318,1.5,1.7,23,-99.99,,,0.00,0,rob ver 1B,2013-12-30 03:32:00,
2013-12-29 20:33:00,54.5,19.0,29.68,NW,315,1.1,1.4,24,-99.99,,,0.00,0,rob ver 1B,2013-12-30 03:33:00,
2013-12-29 20:34:00,54.4,18.7,29.68,NW,323,1.0,1.3,24,-99.99,,,0.00,0,rob ver 1B,2013-12-30 03:34:00,
2013-12-29 20:35:00,54.5,19.1,29.68,North,349,1.1,1.5,24,-99.99,,,0.00,0,rob ver 1B,2013-12-30 03:35:00,
2013-12-29 20:36:00,54.5,19.0,29.68,North,1,1.0,1.3,24,-99.99,,,0.00,0,rob ver 1B,2013-12-30 03:36:00,
2013-12-29 20:37:00,54.5,19.0,29.68,North,11,1.3,1.6,24,-99.99,,,0.00,0,rob ver 1B,2013-12-30 03:37:00,
2013-12-29 20:38:00,54.5,18.5,29.68,North,354,1.3,1.6,23,-99.99,,,0.00,0,rob ver 1B,2013-12-30 03:38:00,
2013-12-29 20:39:00,54.7,18.3,29.68,NNW,343,1.1,1.4,23,-99.99,,,0.00,0,rob ver 1B,2013-12-30 03:39:00,
2013-12-29 20:40:00,54.8,18.6,29.68,NNW,345,1.0,1.4,23,-99.99,,,0.00,0,rob ver 1B,2013-12-30 03:40:00,
2013-12-29 20:41:00,54.8,18.4,29.71,NNW,329,0.8,1.0,23,-99.99,,,0.00,0,rob ver 1B,2013-12-30 03:41:00,
2013-12-29 20:42:00,54.9,18.1,29.68,NW,318,1.1,1.3,23,-99.99,,,0.00,0,rob ver 1B,2013-12-30 03:42:00,
2013-12-29 20:43:00,55.0,18.3,29.68,WNW,303,1.1,1.3,23,-99.99,,,0.00,0,rob ver 1B,2013-12-30 03:43:00,
2013-12-29 20:44:00,55.0,18.0,29.68,West,276,1.3,1.6,22,-99.99,,,0.00,0,rob ver 1B,2013-12-30 03:44:00,
2013-12-29 20:45:00,55.1,17.2,29.71,WSW,256,1.8,2.2,21,-99.99,,,0.00,0,rob ver 1B,2013-12-30 03:45:00,
2013-12-29 20:46:00,55.3,17.0,29.68,WSW,251,2.0,2.3,21,-99.99,,,0.00,0,rob ver 1B,2013-12-30 03:46:00,
2013-12-29 20:47:00,55.5,17.0,29.68,WSW,250,2.3,2.7,21,-99.99,,,0.00,0,rob ver 1B,2013-12-30 03:47:00,
2013-12-29 20:48:00,55.6,17.0,29.71,WSW,248,2.9,3.3,21,-99.99,,,0.00,0,rob ver 1B,2013-12-30 03:48:00,
2013-12-29 20:49:00,55.7,16.8,29.68,WSW,247,3.0,3.2,21,-99.99,,,0.00,0,rob ver 1B,2013-12-30 03:49:00,
2013-12-29 20:50:00,55.7,16.4,29.68,WSW,251,3.1,3.2,20,-99.99,,,0.00,0,rob ver 1B,2013-12-30 03:50:00,
2013-12-29 20:51:00,55.7,16.2,29.68,WSW,251,2.8,3.0,20,-99.99,,,0.00,0,rob ver 1B,2013-12-30 03:51:00,
2013-12-29 20:52:00,55.7,16.5,29.71,WSW,252,2.6,2.7,21,-99.99,,,0.00,0,rob ver 1B,2013-12-30 03:52:00,
2013-12-29 20:53:00,55.7,16.7,29.68,WSW,255,2.3,2.6,21,-99.99,,,0.00,0,rob ver 1B,2013-12-30 03:53:00,
2013-12-29 20:54:00,55.6,17.2,29.68,West,261,1.7,2.1,21,-99.99,,,0.00,0,rob ver 1B,2013-12-30 03:54:00,
2013-12-29 20:55:00,55.4,16.9,29.71,West,266,1.7,1.9,22,-99.99,,,0.00,0,rob ver 1B,2013-12-30 03:55:00,
2013-12-29 20:56:00,55.3,16.9,29.68,West,265,1.9,2.0,21,-99.99,,,0.00,0,rob ver 1B,2013-12-30 03:56:00,
2013-12-29 20:57:00,55.2,17.0,29.68,West,266,1.7,1.9,22,-99.99,,,0.00,0,rob ver 1B,2013-12-30 03:57:00,
2013-12-29 20:58:00,55.1,17.1,29.71,West,268,1.4,1.7,22,-99.99,,,0.00,0,rob ver 1B,2013-12-30 03:58:00,
2013-12-29 20:59:00,55.0,17.1,29.71,West,265,1.2,1.3,22,-99.99,,,0.00,0,rob ver 1B,2013-12-30 03:59:00,
2013-12-29 21:00:00,54.9,17.6,29.68,West,265,1.2,1.8,23,-99.99,,,0.00,0,rob ver 1B,2013-12-30 04:00:00,
2013-12-29 21:01:00,54.7,17.5,29.68,West,268,1.2,1.5,22,-99.99,,,0.00,0,rob ver 1B,2013-12-30 04:01:00,
2013-12-29 21:02:00,54.6,17.3,29.71,West,271,1.5,1.8,22,-99.99,,,0.00,0,rob ver 1B,2013-12-30 04:02:00,
2013-12-29 21:03:00,54.5,17.5,29.71,West,277,1.4,1.9,23,-99.99,,,0.00,0,rob ver 1B,2013-12-30 04:03:00,
2013-12-29 21:04:00,54.4,17.6,29.68,WNW,284,1.4,1.8,23,-99.99,,,0.00,0,rob ver 1B,2013-12-30 04:04:00,
2013-12-29 21:05:00,54.3,17.5,29.71,WNW,289,1.5,2.0,23,-99.99,,,0.00,0,rob ver 1B,2013-12-30 04:05:00,
2013-12-29 21:06:00,54.3,17.2,29.71,WNW,290,1.5,2.1,22,-99.99,,,0.00,0,rob ver 1B,2013-12-30 04:06:00,
2013-12-29 21:07:00,54.2,17.1,29.71,WNW,291,1.6,2.0,22,-99.99,,,0.00,0,rob ver 1B,2013-12-30 04:07:00,
2013-12-29 21:08:00,54.3,17.0,29.71,WNW,300,1.6,2.0,22,-99.99,,,0.00,0,rob ver 1B,2013-12-30 04:08:00,
2013-12-29 21:09:00,54.3,17.0,29.71,NW,305,1.4,1.6,22,-99.99,,,0.00,0,rob ver 1B,2013-12-30 04:09:00,
2013-12-29 21:10:00,54.3,16.8,29.71,WNW,299,1.5,1.8,22,-99.99,,,0.00,0,rob ver 1B,2013-12-30 04:10:00,
2013-12-29 21:11:00,54.4,16.6,29.71,WNW,296,1.6,1.8,22,-99.99,,,0.00,0,rob ver 1B,2013-12-30 04:11:00,
2013-12-29 21:12:00,54.4,16.7,29.71,WNW,295,1.5,1.7,22,-99.99,,,0.00,0,rob ver 1B,2013-12-30 04:12:00,
2013-12-29 21:13:00,54.5,17.0,29.71,NW,320,1.7,2.1,23,-99.99,,,0.00,0,rob ver 1B,2013-12-30 04:13:00,
2013-12-29 21:14:00,54.4,17.3,29.71,NNW,341,1.8,2.1,22,-99.99,,,0.00,0,rob ver 1B,2013-12-30 04:14:00,
2013-12-29 21:15:00,54.3,17.3,29.71,NNW,343,2.0,2.4,22,-99.99,,,0.00,0,rob ver 1B,2013-12-30 04:15:00,
2013-12-29 21:16:00,54.3,17.3,29.71,NNW,339,2.1,2.3,23,-99.99,,,0.00,0,rob ver 1B,2013-12-30 04:16:00,
2013-12-29 21:17:00,54.3,17.8,29.71,North,353,2.4,3.1,23,-99.99,,,0.00,0,rob ver 1B,2013-12-30 04:17:00,
2013-12-29 21:18:00,54.2,18.3,29.71,North,6,3.1,3.3,24,-99.99,,,0.00,0,rob ver 1B,2013-12-30 04:18:00,
2013-12-29 21:19:00,54.1,18.9,29.71,NNE,14,3.3,3.6,24,-99.99,,,0.00,0,rob ver 1B,2013-12-30 04:19:00,
2013-12-29 21:20:00,54.0,18.3,29.71,NNE,13,3.1,3.5,24,-99.99,,,0.00,0,rob ver 1B,2013-12-30 04:20:00,
2013-12-29 21:21:00,54.2,17.9,29.71,North,5,2.7,2.9,23,-99.99,,,0.00,0,rob ver 1B,2013-12-30 04:21:00,
2013-12-29 21:22:00,54.4,17.8,29.71,NNW,348,2.4,2.6,24,-99.99,,,0.00,0,rob ver 1B,2013-12-30 04:22:00,
2013-12-29 21:23:00,54.3,18.4,29.71,North,356,2.8,3.0,24,-99.99,,,0.00,0,rob ver 1B,2013-12-30 04:23:00,
2013-12-29 21:24:00,54.1,19.2,29.71,North,4,3.0,3.2,25,-99.99,,,0.00,0,rob ver 1B,2013-12-30 04:24:00,
2013-12-29 21:25:00,53.6,19.9,29.71,North,11,3.3,3.4,26,-99.99,,,0.00,0,rob ver 1B,2013-12-30 04:25:00,
2013-12-29 21:26:00,53.3,19.9,29.71,North,5,2.9,3.1,26,-99.99,,,0.00,0,rob ver 1B,2013-12-30 04:26:00,
2013-12-29 21:27:00,53.2,19.6,29.71,North,6,2.9,3.2,25,-99.99,,,0.00,0,rob ver 1B,2013-12-30 04:27:00,
2013-12-29 21:28:00,53.4,18.2,29.71,North,358,2.6,3.0,24,-99.99,,,0.00,0,rob ver 1B,2013-12-30 04:28:00,
2013-12-29 21:29:00,53.8,17.8,29.71,North,358,2.3,2.6,23,-99.99,,,0.00,0,rob ver 1B,2013-12-30 04:29:00,
2013-12-29 21:30:00,54.0,18.7,29.71,North,2,2.7,3.7,25,-99.99,,,0.00,0,rob ver 1B,2013-12-30 04:30:00,
2013-12-29 21:31:00,53.8,19.9,29.71,North,8,2.8,3.1,26,-99.99,,,0.00,0,rob ver 1B,2013-12-30 04:31:00,
2013-12-29 21:32:00,53.5,20.5,29.71,North,3,3.0,3.3,27,-99.99,,,0.00,0,rob ver 1B,2013-12-30 04:32:00,
2013-12-29 21:33:00,53.1,20.9,29.71,North,3,2.9,3.1,28,-99.99,,,0.00,0,rob ver 1B,2013-12-30 04:33:00,
2013-12-29 21:34:00,52.5,21.4,29.71,North,357,3.0,3.5,29,-99.99,,,0.00,0,rob ver 1B,2013-12-30 04:34:00,
2013-12-29 21:35:00,52.2,20.9,29.71,North,349,2.9,3.1,28,-99.99,,,0.00,0,rob ver 1B,2013-12-30 04:35:00,
2013-12-29 21:36:00,52.4,19.4,29.71,NNW,343,2.9,3.1,26,-99.99,,,0.00,0,rob ver 1B,2013-12-30 04:36:00,
2013-12-29 21:37:00,52.8,18.6,29.71,NNW,342,2.9,3.1,25,-99.99,,,0.00,0,rob ver 1B,2013-12-30 04:37:00,
2013-12-29 21:38:00,52.9,19.0,29.71,NNW,342,2.7,2.8,26,-99.99,,,0.00,0,rob ver 1B,2013-12-30 04:38:00,
2013-12-29 21:39:00,52.6,19.6,29.71,NNW,347,2.7,3.0,27,-99.99,,,0.00,0,rob ver 1B,2013-12-30 04:39:00,
2013-12-29 21:40:00,52.1,20.4,29.71,North,0,3.4,4.0,29,-99.99,,,0.00,0,rob ver 1B,2013-12-30 04:40:00,
2013-12-29 21:41:00,51.5,20.8,29.71,North,11,3.7,4.0,29,-99.99,,,0.00,0,rob ver 1B,2013-12-30 04:41:00,
2013-12-29 21:42:00,51.2,20.9,29.71,NNE,32,3.1,3.7,30,-99.99,,,0.00,0,rob ver 1B,2013-12-30 04:42:00,
2013-12-29 21:43:00,50.8,20.8,29.71,NE,44,3.5,4.3,30,-99.99,,,0.00,0,rob ver 1B,2013-12-30 04:43:00,
2013-12-29 21:44:00,50.6,21.0,29.71,NE,43,2.7,3.3,31,-99.99,,,0.00,0,rob ver 1B,2013-12-30 04:44:00,
2013-12-29 21:45:00,50.5,21.5,29.71,NE,42,3.4,4.0,31,-99.99,,,0.00,0,rob ver 1B,2013-12-30 04:45:00,
2013-12-29 21:46:00,50.5,21.7,29.71,NE,40,3.1,3.8,32,-99.99,,,0.00,0,rob ver 1B,2013-12-30 04:46:00,
2013-12-29 21:47:00,50.5,21.7,29.71,NE,35,3.7,3.9,31,-99.99,,,0.00,0,rob ver 1B,2013-12-30 04:47:00,
2013-12-29 21:48:00,50.8,21.6,29.71,NE,36,3.4,3.7,31,-99.99,,,0.00,0,rob ver 1B,2013-12-30 04:48:00,
2013-12-29 21:49:00,50.9,21.5,29.71,NE,40,2.3,2.9,31,-99.99,,,0.00,0,rob ver 1B,2013-12-30 04:49:00,
2013-12-29 21:50:00,50.7,21.5,29.71,NE,40,2.4,2.6,31,-99.99,,,0.00,0,rob ver 1B,2013-12-30 04:50:00,
2013-12-29 21:51:00,50.5,21.6,29.71,NE,40,2.4,2.8,32,-99.99,,,0.00,0,rob ver 1B,2013-12-30 04:51:00,
2013-12-29 21:52:00,50.4,21.7,29.71,NE,43,2.3,2.6,32,-99.99,,,0.00,0,rob ver 1B,2013-12-30 04:52:00,
2013-12-29 21:53:00,50.3,21.7,29.71,NE,35,1.8,2.2,32,-99.99,,,0.00,0,rob ver 1B,2013-12-30 04:53:00,
2013-12-29 21:54:00,50.3,21.8,29.71,NE,35,0.8,1.4,32,-99.99,,,0.00,0,rob ver 1B,2013-12-30 04:54:00,
2013-12-29 21:55:00,50.2,21.7,29.71,NNE,29,0.7,1.1,32,-99.99,,,0.00,0,rob ver 1B,2013-12-30 04:55:00,
2013-12-29 21:56:00,50.1,21.9,29.71,ENE,70,1.4,1.8,32,-99.99,,,0.00,0,rob ver 1B,2013-12-30 04:56:00,
2013-12-29 21:57:00,49.9,21.9,29.71,SW,235,2.1,3.7,33,-99.99,,,0.00,0,rob ver 1B,2013-12-30 04:57:00,
2013-12-29 21:58:00,49.6,21.7,29.71,SSW,210,1.2,1.7,33,-99.99,,,0.00,0,rob ver 1B,2013-12-30 04:58:00,
2013-12-29 21:59:00,49.3,21.7,29.71,SSW,203,1.9,2.4,33,-99.99,,,0.00,0,rob ver 1B,2013-12-30 04:59:00,
2013-12-29 22:00:00,49.1,21.6,29.71,SSW,206,2.5,3.3,33,-99.99,,,0.00,0,rob ver 1B,2013-12-30 05:00:00,
2013-12-29 22:01:00,48.8,21.5,29.71,SSW,209,2.1,2.6,33,-99.99,,,0.00,0,rob ver 1B,2013-12-30 05:01:00,
2013-12-29 22:02:00,48.8,21.5,29.71,SSW,193,1.2,1.7,33,-99.99,,,0.00,0,rob ver 1B,2013-12-30 05:02:00,
2013-12-29 22:03:00,48.8,21.6,29.71,South,176,1.4,1.8,34,-99.99,,,0.00,0,rob ver 1B,2013-12-30 05:03:00,
2013-12-29 22:04:00,48.9,21.7,29.71,South,189,1.6,1.9,33,-99.99,,,0.00,0,rob ver 1B,2013-12-30 05:04:00,
2013-12-29 22:05:00,49.1,21.7,29.71,SSW,198,1.2,1.6,33,-99.99,,,0.00,0,rob ver 1B,2013-12-30 05:05:00,
2013-12-29 22:06:00,49.3,21.6,29.71,SSW,197,1.1,1.2,33,-99.99,,,0.00,0,rob ver 1B,2013-12-30 05:06:00,
2013-12-29 22:07:00,49.4,21.6,29.71,SSW,195,1.2,1.4,32,-99.99,,,0.00,0,rob ver 1B,2013-12-30 05:07:00,
2013-12-29 22:08:00,49.5,21.4,29.71,SSW,202,1.4,1.6,32,-99.99,,,0.00,0,rob ver 1B,2013-12-30 05:08:00,
2013-12-29 22:09:00,49.6,20.5,29.71,SSW,199,1.7,2.0,29,-99.99,,,0.00,0,rob ver 1B,2013-12-30 05:09:00,
2013-12-29 22:10:00,49.9,19.2,29.71,SSW,197,2.0,2.2,29,-99.99,,,0.00,0,rob ver 1B,2013-12-30 05:10:00,
2013-12-29 22:11:00,50.2,19.1,29.71,South,188,1.6,1.8,28,-99.99,,,0.00,0,rob ver 1B,2013-12-30 05:11:00,
2013-12-29 22:12:00,50.6,19.2,29.71,SSE,168,1.4,1.7,29,-99.99,,,0.00,0,rob ver 1B,2013-12-30 05:12:00,
2013-12-29 22:13:00,50.6,20.9,29.71,SE,125,1.6,2.1,30,-99.99,,,0.00,0,rob ver 1B,2013-12-30 05:13:00,
2013-12-29 22:14:00,50.3,21.1,29.71,East,94,1.9,2.6,31,-99.99,,,0.00,0,rob ver 1B,2013-12-30 05:14:00,
2013-12-29 22:15:00,50.1,21.1,29.71,East,85,1.8,2.5,31,-99.99,,,0.00,0,rob ver 1B,2013-12-30 05:15:00,
2013-12-29 22:16:00,50.0,20.8,29.71,ESE,105,1.4,1.6,30,-99.99,,,0.00,0,rob ver 1B,2013-12-30 05:16:00,
2013-12-29 22:17:00,50.2,20.8,29.71,East,86,2.4,3.8,31,-99.99,,,0.00,0,rob ver 1B,2013-12-30 05:17:00,
2013-12-29 22:18:00,50.1,21.4,29.71,ENE,57,2.7,3.9,31,-99.99,,,0.00,0,rob ver 1B,2013-12-30 05:18:00,
2013-12-29 22:19:00,49.8,21.1,29.71,ENE,62,1.5,2.0,32,-99.99,,,0.00,0,rob ver 1B,2013-12-30 05:19:00,
2013-12-29 22:20:00,49.6,21.1,29.71,NE,52,2.1,2.6,31,-99.99,,,0.00,0,rob ver 1B,2013-12-30 05:20:00,
2013-12-29 22:21:00,49.5,20.8,29.71,NE,56,2.3,2.7,32,-99.99,,,0.00,0,rob ver 1B,2013-12-30 05:21:00,
2013-12-29 22:22:00,49.4,21.0,29.71,NE,55,2.2,2.7,31,-99.99,,,0.00,0,rob ver 1B,2013-12-30 05:22:00,
2013-12-29 22:23:00,49.5,20.4,29.71,ENE,76,1.4,1.9,31,-99.99,,,0.00,0,rob ver 1B,2013-12-30 05:23:00,
2013-12-29 22:24:00,49.7,20.1,29.71,East,79,1.2,1.6,30,-99.99,,,0.00,0,rob ver 1B,2013-12-30 05:24:00,
2013-12-29 22:25:00,50.0,20.5,29.71,ENE,75,1.7,2.5,30,-99.99,,,0.00,0,rob ver 1B,2013-12-30 05:25:00,
2013-12-29 22:26:00,50.0,20.5,29.71,NE,54,1.5,1.9,31,-99.99,,,0.00,0,rob ver 1B,2013-12-30 05:26:00,
2013-12-29 22:27:00,50.0,20.5,29.71,NE,54,1.6,2.0,31,-99.99,,,0.00,0,rob ver 1B,2013-12-30 05:27:00,
2013-12-29 22:28:00,50.0,20.7,29.71,NE,48,2.2,2.7,31,-99.99,,,0.00,0,rob ver 1B,2013-12-30 05:28:00,
2013-12-29 22:29:00,50.0,20.6,29.71,NE,43,2.2,2.7,30,-99.99,,,0.00,0,rob ver 1B,2013-12-30 05:29:00,
2013-12-29 22:30:00,50.2,20.2,29.71,NE,34,2.6,3.3,30,-99.99,,,0.00,0,rob ver 1B,2013-12-30 05:30:00,
2013-12-29 22:31:00,50.1,20.0,29.71,NNE,22,3.1,3.4,30,-99.99,,,0.00,0,rob ver 1B,2013-12-30 05:31:00,
2013-12-29 22:32:00,49.9,19.9,29.71,North,8,2.9,3.2,30,-99.99,,,0.00,0,rob ver 1B,2013-12-30 05:32:00,
2013-12-29 22:33:00,49.8,19.9,29.71,North,352,2.0,2.9,30,-99.99,,,0.00,0,rob ver 1B,2013-12-30 05:33:00,
2013-12-29 22:34:00,49.8,20.0,29.71,North,353,1.9,2.2,30,-99.99,,,0.00,0,rob ver 1B,2013-12-30 05:34:00,
2013-12-29 22:35:00,49.7,20.1,29.71,North,351,1.4,2.0,30,-99.99,,,0.00,0,rob ver 1B,2013-12-30 05:35:00,
2013-12-29 22:36:00,49.7,20.2,29.71,North,349,0.9,1.2,30,-99.99,,,0.00,0,rob ver 1B,2013-12-30 05:36:00,
2013-12-29 22:37:00,49.7,20.2,29.71,NW,325,0.5,0.8,30,-99.99,,,0.00,0,rob ver 1B,2013-12-30 05:37:00,
2013-12-29 22:38:00,49.7,20.3,29.71,WNW,283,0.3,0.5,31,-99.99,,,0.00,0,rob ver 1B,2013-12-30 05:38:00,
2013-12-29 22:39:00,49.6,20.4,29.71,SW,230,0.3,0.4,31,-99.99,,,0.00,0,rob ver 1B,2013-12-30 05:39:00,
2013-12-29 22:40:00,49.4,20.4,29.71,WSW,244,0.4,0.7,31,-99.99,,,0.00,0,rob ver 1B,2013-12-30 05:40:00,
2013-12-29 22:41:00,49.3,20.7,29.71,SW,230,0.9,1.2,32,-99.99,,,0.00,0,rob ver 1B,2013-12-30 05:41:00,
2013-12-29 22:42:00,49.1,21.0,29.71,SW,234,1.0,1.4,33,-99.99,,,0.00,0,rob ver 1B,2013-12-30 05:42:00,
2013-12-29 22:43:00,48.8,21.0,29.71,SW,225,1.4,1.8,31,-99.99,,,0.00,0,rob ver 1B,2013-12-30 05:43:00,
2013-12-29 22:44:00,48.6,19.7,29.71,SW,221,1.7,1.9,31,-99.99,,,0.00,0,rob ver 1B,2013-12-30 05:44:00,
2013-12-29 22:45:00,48.7,20.0,29.71,SW,225,1.8,1.9,31,-99.99,,,0.00,0,rob ver 1B,2013-12-30 05:45:00,
2013-12-29 22:46:00,48.8,20.6,29.71,SW,228,1.8,2.0,32,-99.99,,,0.00,0,rob ver 1B,2013-12-30 05:46:00,
2013-12-29 22:47:00,48.8,20.6,29.71,SW,230,2.2,2.8,32,-99.99,,,0.00,0,rob ver 1B,2013-12-30 05:47:00,
2013-12-29 22:48:00,48.7,20.7,29.71,WSW,240,2.5,2.8,32,-99.99,,,0.00,0,rob ver 1B,2013-12-30 05:48:00,
2013-12-29 22:49:00,48.5,20.6,29.71,WSW,246,2.7,3.0,32,-99.99,,,0.00,0,rob ver 1B,2013-12-30 05:49:00,
2013-12-29 22:50:00,48.4,20.2,29.71,WSW,249,2.9,3.2,32,-99.99,,,0.00,0,rob ver 1B,2013-12-30 05:50:00,
2013-12-29 22:51:00,48.2,19.8,29.71,WSW,258,2.7,3.2,32,-99.99,,,0.00,0,rob ver 1B,2013-12-30 05:51:00,
2013-12-29 22:52:00,48.2,19.8,29.68,West,259,2.2,2.9,32,-99.99,,,0.00,0,rob ver 1B,2013-12-30 05:52:00,
2013-12-29 22:53:00,48.2,20.1,29.71,WSW,255,1.7,1.9,32,-99.99,,,0.00,0,rob ver 1B,2013-12-30 05:53:00,
2013-12-29 22:54:00,48.1,20.9,29.71,WNW,290,0.8,1.4,34,-99.99,,,0.00,0,rob ver 1B,2013-12-30 05:54:00,
2013-12-29 22:55:00,47.9,20.8,29.71,WNW,293,0.6,0.9,33,-99.99,,,0.00,0,rob ver 1B,2013-12-30 05:55:00,
2013-12-29 22:56:00,47.7,21.2,29.71,NW,315,0.5,1.0,35,-99.99,,,0.00,0,rob ver 1B,2013-12-30 05:56:00,
2013-12-29 22:57:00,47.5,21.3,29.71,NE,48,0.4,0.9,34,-99.99,,,0.00,0,rob ver 1B,2013-12-30 05:57:00,
2013-12-29 22:58:00,47.3,21.4,29.71,ENE,74,0.5,0.9,36,-99.99,,,0.00,0,rob ver 1B,2013-12-30 05:58:00,
2013-12-29 22:59:00,47.2,21.0,29.71,ENE,74,0.3,0.6,34,-99.99,,,0.00,0,rob ver 1B,2013-12-30 05:59:00,
2013-12-29 23:00:00,47.1,21.3,29.71,ENE,59,0.9,1.3,36,-99.99,,,0.00,0,rob ver 1B,2013-12-30 06:00:00,
2013-12-29 23:01:00,47.1,21.7,29.71,NE,51,1.5,2.2,35,-99.99,,,0.00,0,rob ver 1B,2013-12-30 06:01:00,
2013-12-29 23:02:00,47.1,21.2,29.71,NE,36,2.3,2.6,36,-99.99,,,0.00,0,rob ver 1B,2013-12-30 06:02:00,
2013-12-29 23:03:00,47.2,21.9,29.71,NE,38,2.5,2.8,36,-99.99,,,0.00,0,rob ver 1B,2013-12-30 06:03:00,
2013-12-29 23:04:00,47.2,22.2,29.71,NE,40,3.3,3.6,36,-99.99,,,0.00,0,rob ver 1B,2013-12-30 06:04:00,
2013-12-29 23:05:00,47.3,22.0,29.71,NNE,32,3.5,3.7,35,-99.99,,,0.00,0,rob ver 1B,2013-12-30 06:05:00,
2013-12-29 23:06:00,47.5,20.9,29.71,NNE,21,3.8,4.2,33,-99.99,,,0.00,0,rob ver 1B,2013-12-30 06:06:00,
2013-12-29 23:07:00,47.9,20.9,29.71,NNE,14,4.3,4.5,34,-99.99,,,0.00,0,rob ver 1B,2013-12-30 06:07:00,
2013-12-29 23:08:00,48.3,21.5,29.68,NNE,13,4.0,4.5,34,-99.99,,,0.00,0,rob ver 1B,2013-12-30 06:08:00,
2013-12-29 23:09:00,48.1,21.6,29.71,NNE,14,3.9,4.3,35,-99.99,,,0.00,0,rob ver 1B,2013-12-30 06:09:00,
2013-12-29 23:10:00,48.0,22.0,29.71,NNE,18,3.9,4.2,35,-99.99,,,0.00,0,rob ver 1B,2013-12-30 06:10:00,
2013-12-29 23:11:00,47.7,22.1,29.71,NNE,29,3.2,3.7,36,-99.99,,,0.00,0,rob ver 1B,2013-12-30 06:11:00,
2013-12-29 23:12:00,47.5,22.5,29.71,NNE,33,3.3,3.8,37,-99.99,,,0.00,0,rob ver 1B,2013-12-30 06:12:00,
2013-12-29 23:13:00,47.4,22.6,29.71,NE,43,3.1,3.8,37,-99.99,,,0.00,0,rob ver 1B,2013-12-30 06:13:00,
2013-12-29 23:14:00,47.4,22.7,29.71,NE,45,3.3,4.0,37,-99.99,,,0.00,0,rob ver 1B,2013-12-30 06:14:00,
2013-12-29 23:15:00,47.4,22.7,29.68,NE,37,3.3,3.7,37,-99.99,,,0.00,0,rob ver 1B,2013-12-30 06:15:00,
2013-12-29 23:16:00,47.4,22.8,29.71,NNE,27,3.4,3.7,37,-99.99,,,0.00,0,rob ver 1B,2013-12-30 06:16:00,
2013-12-29 23:17:00,47.5,22.8,29.71,NNE,21,3.4,3.6,37,-99.99,,,0.00,0,rob ver 1B,2013-12-30 06:17:00,
2013-12-29 23:18:00,47.5,22.8,29.68,NNE,14,3.5,3.7,37,-99.99,,,0.00,0,rob ver 1B,2013-12-30 06:18:00,
2013-12-29 23:19:00,47.5,22.9,29.71,North,8,4.1,4.6,37,-99.99,,,0.00,0,rob ver 1B,2013-12-30 06:19:00,
2013-12-29 23:20:00,47.6,22.9,29.71,North,4,4.3,4.8,37,-99.99,,,0.00,0,rob ver 1B,2013-12-30 06:20:00,
2013-12-29 23:21:00,47.8,22.8,29.68,North,3,4.2,4.8,36,-99.99,,,0.00,0,rob ver 1B,2013-12-30 06:21:00,
2013-12-29 23:22:00,47.8,22.7,29.68,North,3,4.6,5.0,36,-99.99,,,0.00,0,rob ver 1B,2013-12-30 06:22:00,
2013-12-29 23:23:00,47.7,22.5,29.71,North,2,5.0,5.6,36,-99.99,,,0.00,0,rob ver 1B,2013-12-30 06:23:00,
2013-12-29 23:24:00,47.4,22.6,29.71,North,3,5.4,5.8,37,-99.99,,,0.00,0,rob ver 1B,2013-12-30 06:24:00,
2013-12-29 23:25:00,47.2,22.8,29.68,North,357,5.1,5.5,38,-99.99,,,0.00,0,rob ver 1B,2013-12-30 06:25:00,
2013-12-29 23:26:00,47.0,23.1,29.71,North,352,5.3,5.7,39,-99.99,,,0.00,0,rob ver 1B,2013-12-30 06:26:00,
2013-12-29 23:27:00,46.7,23.3,29.71,North,350,5.3,5.6,39,-99.99,,,0.00,0,rob ver 1B,2013-12-30 06:27:00,
2013-12-29 23:28:00,46.5,23.4,29.71,North,349,5.0,5.5,39,-99.99,,,0.00,0,rob ver 1B,2013-12-30 06:28:00,
2013-12-29 23:29:00,46.4,23.4,29.71,North,351,4.6,5.1,40,-99.99,,,0.00,0,rob ver 1B,2013-12-30 06:29:00,
2013-12-29 23:30:00,46.3,23.4,29.71,North,352,4.0,4.4,40,-99.99,,,0.00,0,rob ver 1B,2013-12-30 06:30:00,
2013-12-29 23:31:00,46.3,23.4,29.71,North,354,3.8,4.0,40,-99.99,,,0.00,0,rob ver 1B,2013-12-30 06:31:00,
2013-12-29 23:32:00,46.4,23.4,29.71,North,355,3.7,3.8,39,-99.99,,,0.00,0,rob ver 1B,2013-12-30 06:32:00,
2013-12-29 23:33:00,46.7,23.3,29.71,North,356,3.8,4.0,39,-99.99,,,0.00,0,rob ver 1B,2013-12-30 06:33:00,
2013-12-29 23:34:00,47.0,23.3,29.71,North,357,3.2,3.6,38,-99.99,,,0.00,0,rob ver 1B,2013-12-30 06:34:00,
2013-12-29 23:35:00,47.1,23.3,29.71,North,359,3.3,3.6,38,-99.99,,,0.00,0,rob ver 1B,2013-12-30 06:35:00,
2013-12-29 23:36:00,47.3,23.3,29.71,North,3,3.7,4.1,38,-99.99,,,0.00,0,rob ver 1B,2013-12-30 06:36:00,
2013-12-29 23:37:00,47.5,23.2,29.71,North,10,3.9,4.4,37,-99.99,,,0.00,0,rob ver 1B,2013-12-30 06:37:00,
2013-12-29 23:38:00,47.6,23.1,29.71,North,10,4.4,4.9,37,-99.99,,,0.00,0,rob ver 1B,2013-12-30 06:38:00,
2013-12-29 23:39:00,47.6,23.1,29.71,North,4,5.0,5.1,37,-99.99,,,0.00,0,rob ver 1B,2013-12-30 06:39:00,
2013-12-29 23:40:00,47.6,23.2,29.71,North,3,4.9,5.2,38,-99.99,,,0.00,0,rob ver 1B,2013-12-30 06:40:00,
2013-12-29 23:41:00,47.4,23.4,29.71,North,357,5.0,5.3,38,-99.99,,,0.00,0,rob ver 1B,2013-12-30 06:41:00,
2013-12-29 23:42:00,47.2,23.4,29.68,North,354,5.0,5.2,38,-99.99,,,0.00,0,rob ver 1B,2013-12-30 06:42:00,
2013-12-29 23:43:00,47.1,23.4,29.71,NNW,344,4.3,4.8,38,-99.99,,,0.00,0,rob ver 1B,2013-12-30 06:43:00,
2013-12-29 23:44:00,47.0,23.4,29.71,NNW,342,3.6,4.3,39,-99.99,,,0.00,0,rob ver 1B,2013-12-30 06:44:00,
2013-12-29 23:45:00,46.9,23.6,29.68,West,280,2.1,3.2,40,-99.99,,,0.00,0,rob ver 1B,2013-12-30 06:45:00,
2013-12-29 23:46:00,46.5,23.8,29.71,West,260,2.1,2.9,40,-99.99,,,0.00,0,rob ver 1B,2013-12-30 06:46:00,
2013-12-29 23:47:00,46.3,23.7,29.71,WNW,292,1.2,1.9,40,-99.99,,,0.00,0,rob ver 1B,2013-12-30 06:47:00,
2013-12-29 23:48:00,46.1,23.6,29.68,WNW,291,0.9,1.2,40,-99.99,,,0.00,0,rob ver 1B,2013-12-30 06:48:00,
2013-12-29 23:49:00,46.0,23.6,29.71,NW,311,0.7,0.9,41,-99.99,,,0.00,0,rob ver 1B,2013-12-30 06:49:00,
2013-12-29 23:50:00,45.9,23.7,29.71,NW,321,0.3,0.7,41,-99.99,,,0.00,0,rob ver 1B,2013-12-30 06:50:00,
2013-12-29 23:51:00,45.8,23.7,29.68,WSW,254,0.4,0.5,41,-99.99,,,0.00,0,rob ver 1B,2013-12-30 06:51:00,
2013-12-29 23:52:00,45.7,23.6,29.68,SW,236,0.4,0.7,41,-99.99,,,0.00,0,rob ver 1B,2013-12-30 06:52:00,
2013-12-29 23:53:00,45.7,23.5,29.71,West,261,1.6,3.5,41,-99.99,,,0.00,0,rob ver 1B,2013-12-30 06:53:00,
2013-12-29 23:54:00,45.6,23.3,29.68,WSW,238,2.0,3.8,41,-99.99,,,0.00,0,rob ver 1B,2013-12-30 06:54:00,
2013-12-29 23:55:00,45.5,23.3,29.68,West,261,0.9,1.7,41,-99.99,,,0.00,0,rob ver 1B,2013-12-30 06:55:00,
2013-12-29 23:56:00,45.4,23.3,29.71,NE,40,0.5,0.8,41,-99.99,,,0.00,0,rob ver 1B,2013-12-30 06:56:00,
2013-12-29 23:57:00,45.4,23.3,29.71,NE,39,0.7,0.9,41,-99.99,,,0.00,0,rob ver 1B,2013-12-30 06:57:00,
2013-12-29 23:58:00,45.4,23.2,29.68,East,89,0.4,0.7,41,-99.99,,,0.00,0,rob ver 1B,2013-12-30 06:58:00,
2013-12-29 23:59:00,45.4,23.2,29.68,SW,230,0.6,1.0,41,-99.99,,,0.00,0,rob ver 1B,2013-12-30 06:59:00,